Darstellungsparameter: Aktuell verwendete Einstellungen:
Skalierung der Graphiken ... ?
xyx+y,   Skalierungsfaktor:      Skalierung: Modus: x, Faktor: 1
Darstellungszeitraum ... ?
Vom - - bis: - -   Zeitraum: 10.07.2015 - 09.08.2015
Min/Max/Avg-Anzeige ... ?
Zeige MMA aktuell
Zeige MMA Monat
Zeige MMA alles
Zeige --A aktuell
Zeige --A Monat
Zeige --A alles
Keine MMA-Anzeige
MMA:
Keine MMA-Graphiken
MMA-Basis: 10.07.2015 - 09.08.2015
Quicknavigation für Darstellung... ?
Tage:      1T, 2T, 3T, 5T -1T -2T -3T -5T +1T +2T +3T +5T
Wochen: 1W, 2W, 3W -1W -2W -3W +1W +2W +3W
Monate: 1M, 3M, 6M -1M -3M -6M +1M +3M +6M
Jahre:    1J, 3J, 5J, 10J -1J -3J -5J -10J +1J +3J +5J +10J
Nutze für die Darstellung ... ?
Originaldaten oder Mittelwerte auf ...
Stundenbasis Tagesbasis Wochenbasis
Monatsbasis Jahresbasis      Datenbasis: Original-Daten
Darstellen als:
Statistik (Auto) Statistik J:M      Darstellung:
Zur Graphik,    zurück zur Übersicht aller Sensoren.
 
Tabellarische Datenbersicht: ?
 
Sensor: Nr:Datum:Temp:Feuchte:Taupunkt:
Aussen-T/F 1 10-07-2015 00:00:00 12.9 C 75 % 8.58 C
2 10-07-2015 00:05:00 12.9 C 74 % 8.38 C
3 10-07-2015 00:10:00 12.8 C 75 % 8.48 C
4 10-07-2015 00:15:00 12.8 C 75 % 8.48 C
5 10-07-2015 00:20:00 12.7 C 76 % 8.58 C
6 10-07-2015 00:25:00 12.6 C 76 % 8.49 C
7 10-07-2015 00:30:00 12.4 C 77 % 8.49 C
8 10-07-2015 00:35:00 12.3 C 77 % 8.39 C
9 10-07-2015 00:40:00 12.2 C 77 % 8.29 C
10 10-07-2015 00:45:00 12 C 77 % 8.1 C
11 10-07-2015 00:50:00 11.9 C 78 % 8.19 C
12 10-07-2015 00:55:00 11.9 C 78 % 8.19 C
13 10-07-2015 01:00:00 11.9 C 78 % 8.19 C
14 10-07-2015 01:05:00 11.9 C 78 % 8.19 C
15 10-07-2015 01:10:00 11.8 C 79 % 8.28 C
16 10-07-2015 01:15:00 11.7 C 79 % 8.18 C
17 10-07-2015 01:20:00 11.6 C 79 % 8.09 C
18 10-07-2015 01:25:00 11.6 C 79 % 8.09 C
19 10-07-2015 01:30:00 11.5 C 79 % 7.99 C
20 10-07-2015 01:35:00 11.6 C 80 % 8.27 C
21 10-07-2015 01:40:00 11.4 C 80 % 8.08 C
22 10-07-2015 01:45:00 11.4 C 80 % 8.08 C
23 10-07-2015 01:50:00 11.6 C 80 % 8.27 C
24 10-07-2015 01:55:00 11.6 C 79 % 8.09 C
25 10-07-2015 02:00:00 11.7 C 79 % 8.18 C
Sensor: Nr:Datum:Temp:Feuchte:Taupunkt:
Aussen-T/F 26 10-07-2015 02:05:00 11.6 C 79 % 8.09 C
27 10-07-2015 02:10:00 11.5 C 80 % 8.17 C
28 10-07-2015 02:15:00 11.4 C 80 % 8.08 C
29 10-07-2015 02:20:00 11.3 C 80 % 7.98 C
30 10-07-2015 02:25:00 11.3 C 80 % 7.98 C
31 10-07-2015 02:30:00 11.2 C 80 % 7.88 C
32 10-07-2015 02:35:00 11 C 80 % 7.69 C
33 10-07-2015 02:40:00 10.8 C 81 % 7.67 C
34 10-07-2015 02:45:00 10.7 C 81 % 7.58 C
35 10-07-2015 02:50:00 10.5 C 82 % 7.56 C
36 10-07-2015 02:55:00 10.4 C 83 % 7.64 C
37 10-07-2015 03:00:00 10.2 C 83 % 7.45 C
38 10-07-2015 03:05:00 10.1 C 84 % 7.52 C
39 10-07-2015 03:10:00 10 C 84 % 7.43 C
40 10-07-2015 03:15:00 9.8 C 85 % 7.4 C
41 10-07-2015 03:20:00 9.7 C 86 % 7.47 C
42 10-07-2015 03:25:00 9.7 C 86 % 7.47 C
43 10-07-2015 03:30:00 9.6 C 86 % 7.38 C
44 10-07-2015 03:35:00 9.5 C 86 % 7.28 C
45 10-07-2015 03:40:00 9.4 C 86 % 7.18 C
46 10-07-2015 03:45:00 9.3 C 86 % 7.08 C
47 10-07-2015 03:50:00 9.2 C 86 % 6.98 C
48 10-07-2015 03:55:00 9.2 C 87 % 7.15 C
49 10-07-2015 04:00:00 9.1 C 87 % 7.05 C
50 10-07-2015 04:05:00 8.9 C 88 % 7.02 C
Sensor: Nr:Datum:Temp:Feuchte:Taupunkt:
Aussen-T/F 51 10-07-2015 04:10:00 8.9 C 88 % 7.02 C
52 10-07-2015 04:15:00 8.8 C 88 % 6.93 C
53 10-07-2015 04:20:00 8.8 C 88 % 6.93 C
54 10-07-2015 04:25:00 8.7 C 88 % 6.83 C
55 10-07-2015 04:30:00 8.7 C 89 % 6.99 C
56 10-07-2015 04:35:00 8.7 C 89 % 6.99 C
57 10-07-2015 04:40:00 8.7 C 89 % 6.99 C
58 10-07-2015 04:45:00 8.6 C 90 % 7.06 C
59 10-07-2015 04:50:00 8.7 C 90 % 7.15 C
60 10-07-2015 04:55:00 8.7 C 90 % 7.15 C
61 10-07-2015 05:00:00 8.7 C 90 % 7.15 C
62 10-07-2015 05:05:00 8.6 C 90 % 7.06 C
63 10-07-2015 05:10:00 8.4 C 90 % 6.86 C
64 10-07-2015 05:15:00 8.3 C 90 % 6.76 C
65 10-07-2015 05:20:00 8.3 C 90 % 6.76 C
66 10-07-2015 05:25:00 8.3 C 91 % 6.92 C
67 10-07-2015 05:30:00 8.2 C 91 % 6.82 C
68 10-07-2015 05:35:00 8.3 C 91 % 6.92 C
69 10-07-2015 05:40:00 8.3 C 91 % 6.92 C
70 10-07-2015 05:45:00 8.3 C 91 % 6.92 C
71 10-07-2015 05:50:00 8.2 C 91 % 6.82 C
72 10-07-2015 05:55:00 8.2 C 91 % 6.82 C
73 10-07-2015 06:00:00 8.1 C 91 % 6.72 C
74 10-07-2015 06:05:00 8.1 C 91 % 6.72 C
75 10-07-2015 06:10:00 8 C 91 % 6.62 C
Sensor: Nr:Datum:Temp:Feuchte:Taupunkt:
Aussen-T/F 76 10-07-2015 06:15:00 8 C 91 % 6.62 C
77 10-07-2015 06:20:00 8 C 92 % 6.78 C
78 10-07-2015 06:25:00 8 C 92 % 6.78 C
79 10-07-2015 06:30:00 8 C 92 % 6.78 C
80 10-07-2015 06:35:00 8.1 C 92 % 6.88 C
81 10-07-2015 06:40:00 8.1 C 92 % 6.88 C
82 10-07-2015 06:45:00 8.1 C 92 % 6.88 C
83 10-07-2015 06:50:00 8.2 C 92 % 6.98 C
84 10-07-2015 06:55:00 8.2 C 92 % 6.98 C
85 10-07-2015 07:00:00 8.3 C 92 % 7.08 C
86 10-07-2015 07:05:00 8.3 C 92 % 7.08 C
87 10-07-2015 07:10:00 8.3 C 92 % 7.08 C
88 10-07-2015 07:15:00 8.4 C 92 % 7.18 C
89 10-07-2015 07:20:00 8.4 C 92 % 7.18 C
90 10-07-2015 07:25:00 8.5 C 92 % 7.28 C
91 10-07-2015 07:30:00 8.6 C 92 % 7.38 C
92 10-07-2015 07:35:00 8.6 C 92 % 7.38 C
93 10-07-2015 07:40:00 8.6 C 92 % 7.38 C
94 10-07-2015 07:45:00 8.6 C 92 % 7.38 C
95 10-07-2015 07:50:00 8.7 C 92 % 7.47 C
96 10-07-2015 07:55:00 8.8 C 92 % 7.57 C
97 10-07-2015 08:00:00 9.2 C 92 % 7.97 C
98 10-07-2015 08:05:00 9.6 C 91 % 8.21 C
99 10-07-2015 08:10:00 9.9 C 90 % 8.34 C
100 10-07-2015 08:15:00 10.4 C 89 % 8.67 C
Sensor: Nr:Datum:Temp:Feuchte:Taupunkt:
Aussen-T/F 101 10-07-2015 08:20:00 10.7 C 87 % 8.63 C
102 10-07-2015 08:25:00 10.8 C 86 % 8.56 C
103 10-07-2015 08:30:00 11.1 C 87 % 9.02 C
104 10-07-2015 08:35:00 11.3 C 86 % 9.05 C
105 10-07-2015 08:40:00 11.4 C 85 % 8.97 C
106 10-07-2015 08:45:00 11.7 C 84 % 9.09 C
107 10-07-2015 08:50:00 11.9 C 84 % 9.29 C
108 10-07-2015 08:55:00 12.2 C 83 % 9.4 C
109 10-07-2015 09:00:00 12.4 C 81 % 9.23 C
110 10-07-2015 09:05:00 12.7 C 80 % 9.34 C
111 10-07-2015 09:10:00 12.9 C 80 % 9.54 C
112 10-07-2015 09:15:00 13.1 C 79 % 9.54 C
113 10-07-2015 09:20:00 13.1 C 77 % 9.16 C
114 10-07-2015 09:25:00 13 C 75 % 8.68 C
115 10-07-2015 09:30:00 12.9 C 78 % 9.16 C
116 10-07-2015 09:35:00 12.9 C 77 % 8.97 C
117 10-07-2015 09:40:00 13.1 C 76 % 8.97 C
118 10-07-2015 09:45:00 13.2 C 79 % 9.64 C
119 10-07-2015 09:50:00 13.2 C 77 % 9.26 C
120 10-07-2015 09:55:00 13.3 C 76 % 9.16 C
121 10-07-2015 10:00:00 13.8 C 75 % 9.45 C
122 10-07-2015 10:05:00 14.5 C 72 % 9.52 C
123 10-07-2015 10:10:00 15.1 C 67 % 9.02 C
124 10-07-2015 10:15:00 15.7 C 67 % 9.6 C
125 10-07-2015 10:20:00 16.1 C 64 % 9.29 C
Sensor: Nr:Datum:Temp:Feuchte:Taupunkt:
Aussen-T/F 126 10-07-2015 10:25:00 16.5 C 63 % 9.44 C
127 10-07-2015 10:30:00 16.9 C 58 % 8.59 C
128 10-07-2015 10:35:00 17.2 C 59 % 9.13 C
129 10-07-2015 10:40:00 17.3 C 56 % 8.45 C
130 10-07-2015 10:45:00 17.6 C 54 % 8.19 C
131 10-07-2015 10:50:00 17.7 C 53 % 8.01 C
132 10-07-2015 10:55:00 17.8 C 50 % 7.25 C
133 10-07-2015 11:00:00 18 C 52 % 8.01 C
134 10-07-2015 11:05:00 18.2 C 49 % 7.32 C
135 10-07-2015 11:10:00 18.3 C 47 % 6.8 C
136 10-07-2015 11:15:00 18.3 C 47 % 6.8 C
137 10-07-2015 11:20:00 18.4 C 43 % 5.61 C
138 10-07-2015 11:25:00 18.1 C 44 % 5.67 C
139 10-07-2015 11:30:00 18.2 C 44 % 5.76 C
140 10-07-2015 11:35:00 18.6 C 43 % 5.79 C
141 10-07-2015 11:40:00 19 C 45 % 6.81 C
142 10-07-2015 11:45:00 19.3 C 43 % 6.42 C
143 10-07-2015 11:50:00 19.4 C 43 % 6.51 C
144 10-07-2015 11:55:00 19.7 C 44 % 7.12 C
145 10-07-2015 12:00:00 20 C 43 % 7.05 C
146 10-07-2015 12:05:00 20.2 C 41 % 6.54 C
147 10-07-2015 12:10:00 20.4 C 42 % 7.07 C
148 10-07-2015 12:15:00 20.5 C 42 % 7.16 C
149 10-07-2015 12:20:00 20.5 C 39 % 6.08 C
150 10-07-2015 12:25:00 20.3 C 38 % 5.53 C
Sensor: Nr:Datum:Temp:Feuchte:Taupunkt:
Aussen-T/F 151 10-07-2015 12:30:00 20.4 C 39 % 5.99 C
152 10-07-2015 12:35:00 20.7 C 38 % 5.89 C
153 10-07-2015 12:40:00 21 C 34 % 4.55 C
154 10-07-2015 12:45:00 21 C 35 % 4.97 C
155 10-07-2015 12:50:00 21.3 C 35 % 5.23 C
156 10-07-2015 12:55:00 21.6 C 38 % 6.69 C
157 10-07-2015 13:00:00 21.7 C 30 % 3.39 C
158 10-07-2015 13:05:00 21.4 C 30 % 3.13 C
159 10-07-2015 13:10:00 21.4 C 31 % 3.59 C
160 10-07-2015 13:15:00 21.6 C 32 % 4.21 C
161 10-07-2015 13:20:00 21.9 C 37 % 6.56 C
162 10-07-2015 13:25:00 22 C 32 % 4.56 C
163 10-07-2015 13:30:00 22.2 C 31 % 4.28 C
164 10-07-2015 13:35:00 22.3 C 32 % 4.82 C
165 10-07-2015 13:40:00 22.3 C 29 % 3.42 C
166 10-07-2015 13:45:00 22.3 C 31 % 4.37 C
167 10-07-2015 13:50:00 22.6 C 30 % 4.16 C
168 10-07-2015 13:55:00 22.6 C 29 % 3.68 C
169 10-07-2015 14:00:00 22.4 C 27 % 2.5 C
170 10-07-2015 14:05:00 22.6 C 29 % 3.68 C
171 10-07-2015 14:10:00 22.8 C 29 % 3.85 C
172 10-07-2015 14:15:00 23 C 30 % 4.51 C
173 10-07-2015 14:20:00 23.3 C 28 % 3.78 C
174 10-07-2015 14:25:00 23.3 C 27 % 3.27 C
175 10-07-2015 14:30:00 23.4 C 26 % 2.82 C
Sensor: Nr:Datum:Temp:Feuchte:Taupunkt:
Aussen-T/F 176 10-07-2015 14:35:00 23.2 C 27 % 3.18 C
177 10-07-2015 14:40:00 23.4 C 32 % 5.78 C
178 10-07-2015 14:45:00 23.4 C 28 % 3.87 C
179 10-07-2015 14:50:00 23.6 C 28 % 4.04 C
180 10-07-2015 14:55:00 23.7 C 28 % 4.13 C
181 10-07-2015 15:00:00 23.7 C 31 % 5.58 C
182 10-07-2015 15:05:00 23.5 C 28 % 3.96 C
183 10-07-2015 15:10:00 23.6 C 29 % 4.54 C
184 10-07-2015 15:15:00 23.9 C 27 % 3.78 C
185 10-07-2015 15:20:00 24.2 C 27 % 4.04 C
186 10-07-2015 15:25:00 24.3 C 26 % 3.59 C
187 10-07-2015 15:30:00 24.4 C 29 % 5.23 C
188 10-07-2015 15:35:00 24.8 C 26 % 4.01 C
189 10-07-2015 15:40:00 25.2 C 27 % 4.89 C
190 10-07-2015 15:45:00 25 C 27 % 4.72 C
191 10-07-2015 15:50:00 25.1 C 23 % 2.53 C
192 10-07-2015 15:55:00 25.2 C 22 % 1.99 C
193 10-07-2015 16:00:00 25.3 C 23 % 2.7 C
194 10-07-2015 16:05:00 25.4 C 23 % 2.78 C
195 10-07-2015 16:10:00 25.3 C 24 % 3.3 C
196 10-07-2015 16:15:00 25.4 C 26 % 4.52 C
197 10-07-2015 16:20:00 25.6 C 23 % 2.95 C
198 10-07-2015 16:25:00 25.6 C 23 % 2.95 C
199 10-07-2015 16:30:00 25.6 C 23 % 2.95 C
200 10-07-2015 16:35:00 25.8 C 24 % 3.72 C
Sensor: Nr:Datum:Temp:Feuchte:Taupunkt:
Aussen-T/F 201 10-07-2015 16:40:00 25.9 C 20 % 1.24 C
202 10-07-2015 16:45:00 25.9 C 22 % 2.57 C
203 10-07-2015 16:50:00 26.1 C 23 % 3.37 C
204 10-07-2015 16:55:00 26.3 C 19 % 0.86 C
205 10-07-2015 17:00:00 26.4 C 21 % 2.33 C
206 10-07-2015 17:05:00 26.6 C 20 % 1.82 C
207 10-07-2015 17:10:00 26.4 C 19 % 0.94 C
208 10-07-2015 17:15:00 26.5 C 19 % 1.02 C
209 10-07-2015 17:20:00 26.4 C 21 % 2.33 C
210 10-07-2015 17:25:00 26 C 20 % 1.32 C
211 10-07-2015 17:30:00 26 C 23 % 3.28 C
212 10-07-2015 17:35:00 26.4 C 24 % 4.22 C
213 10-07-2015 17:40:00 26.9 C 23 % 4.03 C
214 10-07-2015 17:45:00 27.2 C 24 % 4.89 C
215 10-07-2015 17:50:00 27.1 C 24 % 4.81 C
216 10-07-2015 17:55:00 27.1 C 23 % 4.2 C
217 10-07-2015 18:00:00 27 C 22 % 3.49 C
218 10-07-2015 18:05:00 26.9 C 23 % 4.03 C
219 10-07-2015 18:10:00 27.1 C 22 % 3.57 C
220 10-07-2015 18:15:00 27.1 C 21 % 2.91 C
221 10-07-2015 18:20:00 26.9 C 22 % 3.4 C
222 10-07-2015 18:25:00 26.9 C 24 % 4.64 C
223 10-07-2015 18:30:00 26.9 C 22 % 3.4 C
224 10-07-2015 18:35:00 26.8 C 22 % 3.32 C
225 10-07-2015 18:40:00 26.7 C 25 % 5.06 C
Sensor: Nr:Datum:Temp:Feuchte:Taupunkt:
Aussen-T/F 226 10-07-2015 18:45:00 26.7 C 27 % 6.16 C
227 10-07-2015 18:50:00 26.7 C 26 % 5.62 C
228 10-07-2015 18:55:00 26.7 C 25 % 5.06 C
229 10-07-2015 19:00:00 26.7 C 26 % 5.62 C
230 10-07-2015 19:05:00 26.7 C 26 % 5.62 C
231 10-07-2015 19:10:00 26.8 C 25 % 5.14 C
232 10-07-2015 19:15:00 26.8 C 24 % 4.56 C
233 10-07-2015 19:20:00 26.6 C 25 % 4.97 C
234 10-07-2015 19:25:00 26.6 C 25 % 4.97 C
235 10-07-2015 19:30:00 26.6 C 25 % 4.97 C
236 10-07-2015 19:35:00 26.3 C 27 % 5.82 C
237 10-07-2015 19:40:00 26.1 C 28 % 6.18 C
238 10-07-2015 19:45:00 25.7 C 27 % 5.31 C
239 10-07-2015 19:50:00 25.3 C 28 % 5.49 C
240 10-07-2015 19:55:00 25 C 29 % 5.74 C
241 10-07-2015 20:00:00 24.7 C 29 % 5.49 C
242 10-07-2015 20:05:00 24.6 C 29 % 5.4 C
243 10-07-2015 20:10:00 24.4 C 30 % 5.72 C
244 10-07-2015 20:15:00 24.3 C 30 % 5.63 C
245 10-07-2015 20:20:00 24.3 C 30 % 5.63 C
246 10-07-2015 20:25:00 24.2 C 30 % 5.54 C
247 10-07-2015 20:30:00 24.1 C 35 % 7.69 C
248 10-07-2015 20:35:00 23.8 C 41 % 9.76 C
249 10-07-2015 20:40:00 23.1 C 42 % 9.5 C
250 10-07-2015 20:45:00 22.4 C 45 % 9.89 C
Sensor: Nr:Datum:Temp:Feuchte:Taupunkt:
Aussen-T/F 251 10-07-2015 20:50:00 21.8 C 46 % 9.67 C
252 10-07-2015 20:55:00 21.3 C 47 % 9.54 C
253 10-07-2015 21:00:00 21 C 48 % 9.58 C
254 10-07-2015 21:05:00 20.7 C 49 % 9.61 C
255 10-07-2015 21:10:00 20.2 C 50 % 9.45 C
256 10-07-2015 21:15:00 19.8 C 52 % 9.67 C
257 10-07-2015 21:20:00 19.5 C 54 % 9.95 C
258 10-07-2015 21:25:00 19.2 C 54 % 9.67 C
259 10-07-2015 21:30:00 18.9 C 54 % 9.4 C
260 10-07-2015 21:35:00 18.7 C 55 % 9.48 C
261 10-07-2015 21:40:00 18.4 C 55 % 9.2 C
262 10-07-2015 21:45:00 18.3 C 55 % 9.11 C
263 10-07-2015 21:50:00 18.1 C 55 % 8.93 C
264 10-07-2015 21:55:00 17.8 C 54 % 8.38 C
265 10-07-2015 22:00:00 17.7 C 54 % 8.28 C
266 10-07-2015 22:05:00 17.5 C 56 % 8.63 C
267 10-07-2015 22:10:00 17.3 C 56 % 8.45 C
268 10-07-2015 22:15:00 17.3 C 56 % 8.45 C
269 10-07-2015 22:20:00 17.2 C 59 % 9.13 C
270 10-07-2015 22:25:00 17.1 C 57 % 8.52 C
271 10-07-2015 22:30:00 16.9 C 57 % 8.34 C
272 10-07-2015 22:35:00 16.8 C 59 % 8.75 C
273 10-07-2015 22:40:00 16.7 C 59 % 8.66 C
274 10-07-2015 22:45:00 16.6 C 60 % 8.81 C
275 10-07-2015 22:50:00 16.5 C 60 % 8.72 C
Sensor: Nr:Datum:Temp:Feuchte:Taupunkt:
Aussen-T/F 276 10-07-2015 22:55:00 16.4 C 61 % 8.87 C
277 10-07-2015 23:00:00 16.4 C 61 % 8.87 C
278 10-07-2015 23:05:00 16.4 C 61 % 8.87 C
279 10-07-2015 23:25:00 15.7 C 61 % 8.21 C
280 10-07-2015 23:30:00 15.6 C 63 % 8.59 C
281 10-07-2015 23:35:00 15.3 C 62 % 8.07 C
282 10-07-2015 23:40:00 15.2 C 62 % 7.98 C
283 10-07-2015 23:45:00 15.2 C 62 % 7.98 C
284 10-07-2015 23:50:00 15 C 63 % 8.02 C
285 10-07-2015 23:55:00 14.8 C 63 % 7.83 C
286 11-07-2015 00:00:00 14.8 C 64 % 8.06 C
287 11-07-2015 00:05:00 14.7 C 63 % 7.74 C
288 11-07-2015 00:10:00 14.6 C 62 % 7.41 C
289 11-07-2015 00:15:00 14.6 C 63 % 7.64 C
290 11-07-2015 00:20:00 14.6 C 64 % 7.87 C
291 11-07-2015 00:25:00 14.4 C 65 % 7.91 C
292 11-07-2015 00:30:00 14.3 C 66 % 8.04 C
293 11-07-2015 00:35:00 14.2 C 66 % 7.95 C
294 11-07-2015 00:40:00 14 C 65 % 7.53 C
295 11-07-2015 00:45:00 14 C 67 % 7.98 C
296 11-07-2015 00:50:00 13.9 C 68 % 8.1 C
297 11-07-2015 00:55:00 13.8 C 68 % 8 C
298 11-07-2015 01:00:00 13.7 C 68 % 7.91 C
299 11-07-2015 01:05:00 13.6 C 68 % 7.81 C
300 11-07-2015 01:10:00 13.4 C 68 % 7.62 C
Sensor: Nr:Datum:Temp:Feuchte:Taupunkt:
Aussen-T/F 301 11-07-2015 01:15:00 13.3 C 68 % 7.53 C
302 11-07-2015 01:20:00 13.3 C 69 % 7.74 C
303 11-07-2015 01:25:00 13.3 C 69 % 7.74 C
304 11-07-2015 01:30:00 13.2 C 71 % 8.06 C
305 11-07-2015 01:35:00 13.1 C 72 % 8.17 C
306 11-07-2015 01:40:00 13.1 C 73 % 8.38 C
307 11-07-2015 01:45:00 13 C 74 % 8.48 C
308 11-07-2015 01:50:00 12.9 C 72 % 7.98 C
309 11-07-2015 01:55:00 12.8 C 71 % 7.68 C
310 11-07-2015 02:00:00 12.8 C 72 % 7.88 C
311 11-07-2015 02:05:00 12.7 C 71 % 7.58 C
312 11-07-2015 02:10:00 12.7 C 73 % 7.99 C
313 11-07-2015 02:15:00 12.6 C 74 % 8.09 C
314 11-07-2015 02:20:00 12.4 C 75 % 8.1 C
315 11-07-2015 02:25:00 12.3 C 76 % 8.2 C
316 11-07-2015 02:30:00 12.2 C 76 % 8.1 C
317 11-07-2015 02:35:00 12.2 C 77 % 8.29 C
318 11-07-2015 02:40:00 12.1 C 77 % 8.2 C
319 11-07-2015 02:45:00 12.1 C 77 % 8.2 C
320 11-07-2015 02:50:00 12 C 77 % 8.1 C
321 11-07-2015 02:55:00 11.9 C 78 % 8.19 C
322 11-07-2015 03:00:00 11.8 C 78 % 8.09 C
323 11-07-2015 03:05:00 11.8 C 78 % 8.09 C
324 11-07-2015 03:10:00 11.7 C 78 % 8 C
325 11-07-2015 03:15:00 11.7 C 78 % 8 C
Sensor: Nr:Datum:Temp:Feuchte:Taupunkt:
Aussen-T/F 326 11-07-2015 03:20:00 11.7 C 79 % 8.18 C
327 11-07-2015 03:25:00 11.7 C 78 % 8 C
328 11-07-2015 03:30:00 11.7 C 78 % 8 C
329 11-07-2015 03:35:00 11.6 C 78 % 7.9 C
330 11-07-2015 03:40:00 11.6 C 78 % 7.9 C
331 11-07-2015 03:45:00 11.5 C 78 % 7.8 C
332 11-07-2015 03:50:00 11.4 C 78 % 7.71 C
333 11-07-2015 03:55:00 11.4 C 79 % 7.89 C
334 11-07-2015 04:00:00 11.3 C 79 % 7.8 C
335 11-07-2015 04:05:00 11.3 C 79 % 7.8 C
336 11-07-2015 04:10:00 11.3 C 79 % 7.8 C
337 11-07-2015 04:15:00 11.2 C 79 % 7.7 C
338 11-07-2015 04:20:00 11.2 C 79 % 7.7 C
339 11-07-2015 04:25:00 11.2 C 80 % 7.88 C
340 11-07-2015 04:30:00 11.2 C 80 % 7.88 C
341 11-07-2015 04:35:00 11.2 C 80 % 7.88 C
342 11-07-2015 04:40:00 11.2 C 80 % 7.88 C
343 11-07-2015 04:45:00 11.1 C 79 % 7.6 C
344 11-07-2015 04:50:00 11.2 C 80 % 7.88 C
345 11-07-2015 04:55:00 11.2 C 81 % 8.06 C
346 11-07-2015 05:00:00 11.2 C 81 % 8.06 C
347 11-07-2015 05:05:00 11.2 C 81 % 8.06 C
348 11-07-2015 05:10:00 11.2 C 81 % 8.06 C
349 11-07-2015 05:15:00 11.2 C 81 % 8.06 C
350 11-07-2015 05:20:00 11.2 C 81 % 8.06 C
Sensor: Nr:Datum:Temp:Feuchte:Taupunkt:
Aussen-T/F 351 11-07-2015 05:25:00 11.2 C 82 % 8.25 C
352 11-07-2015 05:30:00 11.2 C 82 % 8.25 C
353 11-07-2015 05:35:00 11.2 C 82 % 8.25 C
354 11-07-2015 05:40:00 11.2 C 82 % 8.25 C
355 11-07-2015 05:45:00 11.3 C 82 % 8.34 C
356 11-07-2015 05:50:00 11.3 C 82 % 8.34 C
357 11-07-2015 05:55:00 11.3 C 82 % 8.34 C
358 11-07-2015 06:00:00 11.4 C 83 % 8.62 C
359 11-07-2015 06:05:00 11.4 C 83 % 8.62 C
360 11-07-2015 06:10:00 11.4 C 83 % 8.62 C
361 11-07-2015 06:15:00 11.4 C 83 % 8.62 C
362 11-07-2015 06:20:00 11.6 C 83 % 8.81 C
363 11-07-2015 06:25:00 11.6 C 83 % 8.81 C
364 11-07-2015 06:30:00 11.6 C 83 % 8.81 C
365 11-07-2015 06:35:00 11.6 C 83 % 8.81 C
366 11-07-2015 06:40:00 11.6 C 83 % 8.81 C
367 11-07-2015 06:45:00 11.6 C 83 % 8.81 C
368 11-07-2015 06:50:00 11.7 C 83 % 8.91 C
369 11-07-2015 06:55:00 11.8 C 83 % 9.01 C
370 11-07-2015 07:00:00 11.8 C 84 % 9.19 C
371 11-07-2015 07:05:00 11.8 C 84 % 9.19 C
372 11-07-2015 07:10:00 11.9 C 84 % 9.29 C
373 11-07-2015 07:15:00 12 C 84 % 9.38 C
374 11-07-2015 07:20:00 12.1 C 84 % 9.48 C
375 11-07-2015 07:25:00 12.3 C 84 % 9.68 C
Sensor: Nr:Datum:Temp:Feuchte:Taupunkt:
Aussen-T/F 376 11-07-2015 07:30:00 12.3 C 83 % 9.5 C
377 11-07-2015 07:35:00 12.4 C 83 % 9.6 C
378 11-07-2015 07:40:00 12.4 C 83 % 9.6 C
379 11-07-2015 07:45:00 12.4 C 84 % 9.78 C
380 11-07-2015 07:50:00 12.4 C 84 % 9.78 C
381 11-07-2015 07:55:00 12.4 C 84 % 9.78 C
382 11-07-2015 08:00:00 12.7 C 84 % 10.07 C
383 11-07-2015 08:05:00 13.2 C 83 % 10.38 C
384 11-07-2015 08:10:00 13.6 C 82 % 10.59 C
385 11-07-2015 08:15:00 13.9 C 81 % 10.7 C
386 11-07-2015 08:20:00 14.4 C 80 % 11 C
387 11-07-2015 08:25:00 14.8 C 79 % 11.2 C
388 11-07-2015 08:30:00 15.1 C 78 % 11.3 C
389 11-07-2015 08:35:00 15.4 C 75 % 11 C
390 11-07-2015 08:40:00 15.4 C 75 % 11 C
391 11-07-2015 08:45:00 15.6 C 75 % 11.19 C
392 11-07-2015 08:50:00 15.8 C 73 % 10.97 C
393 11-07-2015 08:55:00 16.1 C 74 % 11.47 C
394 11-07-2015 09:00:00 16.4 C 72 % 11.34 C
395 11-07-2015 09:05:00 16.6 C 71 % 11.32 C
396 11-07-2015 09:10:00 16.7 C 72 % 11.63 C
397 11-07-2015 09:15:00 16.8 C 73 % 11.94 C
398 11-07-2015 09:20:00 16.9 C 72 % 11.82 C
399 11-07-2015 09:25:00 17.1 C 68 % 11.15 C
400 11-07-2015 09:30:00 17.4 C 68 % 11.44 C
Sensor: Nr:Datum:Temp:Feuchte:Taupunkt:
Aussen-T/F 401 11-07-2015 09:35:00 17.7 C 69 % 11.95 C
402 11-07-2015 09:40:00 17.8 C 70 % 12.26 C
403 11-07-2015 09:45:00 17.9 C 70 % 12.35 C
404 11-07-2015 09:50:00 17.9 C 70 % 12.35 C
405 11-07-2015 09:55:00 17.9 C 73 % 12.99 C
406 11-07-2015 10:00:00 18 C 70 % 12.45 C
407 11-07-2015 10:05:00 18.3 C 70 % 12.74 C
408 11-07-2015 10:10:00 18.6 C 68 % 12.58 C
409 11-07-2015 10:15:00 18.8 C 62 % 11.37 C
410 11-07-2015 10:20:00 19.2 C 63 % 11.99 C
411 11-07-2015 10:25:00 19.4 C 65 % 12.66 C
412 11-07-2015 10:30:00 19.3 C 67 % 13.02 C
413 11-07-2015 10:35:00 19.6 C 61 % 11.88 C
414 11-07-2015 10:40:00 20.1 C 59 % 11.84 C
415 11-07-2015 10:45:00 20.6 C 57 % 11.79 C
416 11-07-2015 10:50:00 21 C 57 % 12.16 C
417 11-07-2015 10:55:00 21.4 C 61 % 13.57 C
418 11-07-2015 11:00:00 21.6 C 58 % 12.99 C
419 11-07-2015 11:05:00 21.9 C 56 % 12.73 C
420 11-07-2015 11:10:00 21.8 C 59 % 13.44 C
421 11-07-2015 11:15:00 21.7 C 61 % 13.85 C
422 11-07-2015 11:20:00 22.2 C 56 % 13.01 C
423 11-07-2015 11:25:00 22.4 C 53 % 12.36 C
424 11-07-2015 11:30:00 22.9 C 50 % 11.93 C
425 11-07-2015 11:35:00 23.5 C 52 % 13.08 C
Sensor: Nr:Datum:Temp:Feuchte:Taupunkt:
Aussen-T/F 426 11-07-2015 11:40:00 24.1 C 51 % 13.34 C
427 11-07-2015 11:45:00 24.4 C 45 % 11.7 C
428 11-07-2015 11:50:00 24.8 C 45 % 12.06 C
429 11-07-2015 11:55:00 25.1 C 48 % 13.32 C
430 11-07-2015 12:00:00 25.3 C 45 % 12.52 C
431 11-07-2015 12:05:00 25.6 C 44 % 12.45 C
432 11-07-2015 12:10:00 25.9 C 43 % 12.37 C
433 11-07-2015 12:15:00 26.3 C 41 % 12 C
434 11-07-2015 12:20:00 26.6 C 41 % 12.27 C
435 11-07-2015 12:25:00 26.8 C 38 % 11.3 C
436 11-07-2015 12:30:00 26.8 C 41 % 12.45 C
437 11-07-2015 12:35:00 26.7 C 41 % 12.36 C
438 11-07-2015 12:40:00 26.8 C 37 % 10.9 C
439 11-07-2015 12:45:00 26.8 C 37 % 10.9 C
440 11-07-2015 12:50:00 26.8 C 37 % 10.9 C
441 11-07-2015 12:55:00 26.8 C 37 % 10.9 C
442 11-07-2015 13:00:00 26.8 C 37 % 10.9 C
443 11-07-2015 13:05:00 28.1 C 34 % 10.77 C
444 11-07-2015 13:10:00 28.3 C 35 % 11.38 C
445 11-07-2015 13:15:00 28.6 C 33 % 10.76 C
446 11-07-2015 13:20:00 28.9 C 34 % 11.47 C
447 11-07-2015 13:25:00 29.2 C 34 % 11.73 C
448 11-07-2015 13:30:00 29.4 C 32 % 10.99 C
449 11-07-2015 13:35:00 29.7 C 32 % 11.25 C
450 11-07-2015 13:40:00 29.9 C 31 % 10.94 C
Sensor: Nr:Datum:Temp:Feuchte:Taupunkt:
Aussen-T/F 451 11-07-2015 13:45:00 30 C 29 % 10.03 C
452 11-07-2015 13:50:00 30.2 C 29 % 10.2 C
453 11-07-2015 13:55:00 30.2 C 31 % 11.2 C
454 11-07-2015 14:00:00 30.2 C 29 % 10.2 C
455 11-07-2015 14:05:00 30.3 C 30 % 10.79 C
456 11-07-2015 14:10:00 30.6 C 32 % 12.03 C
457 11-07-2015 14:15:00 30.8 C 31 % 11.72 C
458 11-07-2015 14:20:00 30.6 C 30 % 11.05 C
459 11-07-2015 14:25:00 30.3 C 30 % 10.79 C
460 11-07-2015 14:30:00 30.2 C 30 % 10.71 C
461 11-07-2015 14:35:00 30.1 C 30 % 10.62 C
462 11-07-2015 14:40:00 30.1 C 31 % 11.12 C
463 11-07-2015 14:45:00 30.3 C 30 % 10.79 C
464 11-07-2015 14:50:00 30.3 C 31 % 11.29 C
465 11-07-2015 14:55:00 30.7 C 30 % 11.14 C
466 11-07-2015 15:00:00 30.7 C 30 % 11.14 C
467 11-07-2015 15:05:00 30.8 C 31 % 11.72 C
468 11-07-2015 15:10:00 31.1 C 30 % 11.48 C
469 11-07-2015 15:15:00 31.1 C 29 % 10.97 C
470 11-07-2015 15:20:00 31.1 C 30 % 11.48 C
471 11-07-2015 15:25:00 31.4 C 30 % 11.74 C
472 11-07-2015 15:30:00 31.6 C 30 % 11.91 C
473 11-07-2015 15:35:00 31.8 C 27 % 10.49 C
474 11-07-2015 15:40:00 31.6 C 27 % 10.33 C
475 11-07-2015 15:45:00 31.4 C 30 % 11.74 C
Sensor: Nr:Datum:Temp:Feuchte:Taupunkt:
Aussen-T/F 476 11-07-2015 15:50:00 31.3 C 29 % 11.14 C
477 11-07-2015 15:55:00 31.3 C 29 % 11.14 C
478 11-07-2015 16:00:00 31.6 C 31 % 12.41 C
479 11-07-2015 16:05:00 31.9 C 28 % 11.13 C
480 11-07-2015 16:10:00 32.1 C 27 % 10.75 C
481 11-07-2015 16:15:00 32.2 C 29 % 11.91 C
482 11-07-2015 16:20:00 32.3 C 26 % 10.35 C
483 11-07-2015 16:25:00 32.1 C 28 % 11.3 C
484 11-07-2015 16:30:00 31.6 C 29 % 11.4 C
485 11-07-2015 16:35:00 31.6 C 30 % 11.91 C
486 11-07-2015 16:40:00 31.6 C 29 % 11.4 C
487 11-07-2015 16:45:00 31.4 C 28 % 10.7 C
488 11-07-2015 16:50:00 31.3 C 29 % 11.14 C
489 11-07-2015 16:55:00 31.4 C 29 % 11.23 C
490 11-07-2015 17:00:00 31.4 C 30 % 11.74 C
491 11-07-2015 17:05:00 31.1 C 28 % 10.44 C
492 11-07-2015 17:10:00 31.2 C 28 % 10.53 C
493 11-07-2015 17:15:00 31.5 C 30 % 11.83 C
494 11-07-2015 17:20:00 31.7 C 29 % 11.48 C
495 11-07-2015 17:25:00 31.6 C 27 % 10.33 C
496 11-07-2015 17:30:00 31.6 C 29 % 11.4 C
497 11-07-2015 17:35:00 31.7 C 26 % 9.85 C
498 11-07-2015 17:40:00 31.6 C 27 % 10.33 C
499 11-07-2015 17:45:00 31.7 C 26 % 9.85 C
500 11-07-2015 17:50:00 31.7 C 26 % 9.85 C
Sensor: Nr:Datum:Temp:Feuchte:Taupunkt:
Aussen-T/F 501 11-07-2015 17:55:00 31.6 C 26 % 9.76 C
502 11-07-2015 18:00:00 31.6 C 26 % 9.76 C
503 11-07-2015 18:05:00 31.5 C 27 % 10.24 C
504 11-07-2015 18:10:00 31.6 C 26 % 9.76 C
505 11-07-2015 18:15:00 31.4 C 26 % 9.59 C
506 11-07-2015 18:20:00 31.1 C 27 % 9.9 C
507 11-07-2015 18:25:00 30.9 C 27 % 9.73 C
508 11-07-2015 18:30:00 30.9 C 27 % 9.73 C
509 11-07-2015 18:35:00 30.9 C 27 % 9.73 C
510 11-07-2015 18:40:00 31.1 C 28 % 10.44 C
511 11-07-2015 18:45:00 31.1 C 26 % 9.34 C
512 11-07-2015 18:50:00 30.9 C 27 % 9.73 C
513 11-07-2015 18:55:00 30.7 C 28 % 10.1 C
514 11-07-2015 19:00:00 30.4 C 28 % 9.85 C
515 11-07-2015 19:05:00 30.4 C 28 % 9.85 C
516 11-07-2015 19:10:00 30.7 C 28 % 10.1 C
517 11-07-2015 19:15:00 30.6 C 28 % 10.02 C
518 11-07-2015 19:20:00 30.4 C 28 % 9.85 C
519 11-07-2015 19:25:00 30.2 C 27 % 9.14 C
520 11-07-2015 19:30:00 30.1 C 29 % 10.12 C
521 11-07-2015 19:35:00 29.7 C 28 % 9.25 C
522 11-07-2015 19:40:00 29.5 C 29 % 9.6 C
523 11-07-2015 19:45:00 29.4 C 29 % 9.52 C
524 11-07-2015 19:50:00 29.3 C 29 % 9.43 C
525 11-07-2015 19:55:00 29.1 C 30 % 9.76 C
Sensor: Nr:Datum:Temp:Feuchte:Taupunkt:
Aussen-T/F 526 11-07-2015 20:00:00 29.1 C 30 % 9.76 C
527 11-07-2015 20:05:00 28.9 C 31 % 10.08 C
528 11-07-2015 20:10:00 28.8 C 31 % 9.99 C
529 11-07-2015 20:15:00 28.8 C 32 % 10.47 C
530 11-07-2015 20:20:00 28.6 C 31 % 9.82 C
531 11-07-2015 20:25:00 28.5 C 34 % 11.12 C
532 11-07-2015 20:30:00 28.3 C 33 % 10.49 C
533 11-07-2015 20:35:00 28.1 C 39 % 12.85 C
534 11-07-2015 20:40:00 27.2 C 40 % 12.43 C
535 11-07-2015 20:45:00 26.4 C 43 % 12.82 C
536 11-07-2015 20:50:00 25.7 C 45 % 12.88 C
537 11-07-2015 20:55:00 25.2 C 45 % 12.43 C
538 11-07-2015 21:00:00 24.8 C 47 % 12.73 C
539 11-07-2015 21:05:00 24.5 C 49 % 13.09 C
540 11-07-2015 21:10:00 24.2 C 51 % 13.43 C
541 11-07-2015 21:15:00 23.8 C 51 % 13.06 C
542 11-07-2015 21:20:00 23.7 C 51 % 12.97 C
543 11-07-2015 21:25:00 23.3 C 51 % 12.6 C
544 11-07-2015 21:30:00 23.1 C 53 % 13 C
545 11-07-2015 21:35:00 23.1 C 51 % 12.42 C
546 11-07-2015 21:40:00 23 C 53 % 12.91 C
547 11-07-2015 21:45:00 22.8 C 52 % 12.43 C
548 11-07-2015 21:50:00 22.6 C 52 % 12.25 C
549 11-07-2015 21:55:00 22.4 C 53 % 12.36 C
550 11-07-2015 22:00:00 22.4 C 52 % 12.07 C
Sensor: Nr:Datum:Temp:Feuchte:Taupunkt:
Aussen-T/F 551 11-07-2015 22:05:00 22.3 C 54 % 12.55 C
552 11-07-2015 22:10:00 22.2 C 53 % 12.17 C
553 11-07-2015 22:15:00 22.1 C 54 % 12.36 C
554 11-07-2015 22:20:00 21.9 C 55 % 12.46 C
555 11-07-2015 22:25:00 21.8 C 54 % 12.08 C
556 11-07-2015 22:30:00 21.8 C 53 % 11.8 C
557 11-07-2015 22:35:00 21.9 C 54 % 12.18 C
558 11-07-2015 22:40:00 22.2 C 52 % 11.88 C
559 11-07-2015 22:45:00 22.6 C 52 % 12.25 C
560 11-07-2015 22:50:00 22.7 C 52 % 12.34 C
561 11-07-2015 22:55:00 22.8 C 51 % 12.14 C
562 11-07-2015 23:00:00 22.8 C 50 % 11.84 C
563 11-07-2015 23:05:00 23 C 49 % 11.72 C
564 11-07-2015 23:10:00 23 C 52 % 12.62 C
565 11-07-2015 23:15:00 23.1 C 51 % 12.42 C
566 11-07-2015 23:20:00 22.8 C 53 % 12.73 C
567 11-07-2015 23:25:00 22.4 C 53 % 12.36 C
568 11-07-2015 23:30:00 22.1 C 55 % 12.64 C
569 11-07-2015 23:35:00 21.9 C 55 % 12.46 C
570 11-07-2015 23:40:00 21.9 C 53 % 11.89 C
571 11-07-2015 23:45:00 22.5 C 52 % 12.16 C
572 11-07-2015 23:50:00 22.6 C 53 % 12.54 C
573 11-07-2015 23:55:00 22.4 C 53 % 12.36 C
574 12-07-2015 00:00:00 22.1 C 55 % 12.64 C
575 12-07-2015 00:05:00 21.9 C 56 % 12.73 C
Sensor: Nr:Datum:Temp:Feuchte:Taupunkt:
Aussen-T/F 576 12-07-2015 00:10:00 21.9 C 56 % 12.73 C
577 12-07-2015 00:15:00 21.9 C 56 % 12.73 C
578 12-07-2015 02:20:00 18.2 C 69 % 12.42 C
579 12-07-2015 02:25:00 18.2 C 69 % 12.42 C
580 12-07-2015 02:30:00 18.2 C 69 % 12.42 C
581 12-07-2015 02:35:00 18.2 C 69 % 12.42 C
582 12-07-2015 02:40:00 18.3 C 69 % 12.52 C
583 12-07-2015 02:45:00 18.3 C 69 % 12.52 C
584 12-07-2015 02:50:00 18.2 C 69 % 12.42 C
585 12-07-2015 02:55:00 17.9 C 69 % 12.14 C
586 12-07-2015 03:00:00 17.7 C 71 % 12.38 C
587 12-07-2015 03:05:00 17.6 C 72 % 12.5 C
588 12-07-2015 03:10:00 17.5 C 72 % 12.4 C
589 12-07-2015 03:15:00 17.3 C 73 % 12.42 C
590 12-07-2015 03:20:00 17.1 C 74 % 12.43 C
591 12-07-2015 03:25:00 16.9 C 74 % 12.24 C
592 12-07-2015 03:30:00 16.8 C 75 % 12.35 C
593 12-07-2015 03:35:00 16.6 C 75 % 12.15 C
594 12-07-2015 03:40:00 16.5 C 75 % 12.06 C
595 12-07-2015 03:45:00 16.3 C 76 % 12.07 C
596 12-07-2015 03:50:00 16.2 C 76 % 11.97 C
597 12-07-2015 03:55:00 16.1 C 78 % 12.27 C
598 12-07-2015 04:00:00 16 C 77 % 11.97 C
599 12-07-2015 04:05:00 15.9 C 77 % 11.88 C
600 12-07-2015 04:10:00 15.7 C 77 % 11.68 C
Sensor: Nr:Datum:Temp:Feuchte:Taupunkt:
Aussen-T/F 601 12-07-2015 04:15:00 15.6 C 78 % 11.78 C
602 12-07-2015 04:20:00 15.5 C 78 % 11.68 C
603 12-07-2015 04:25:00 15.4 C 79 % 11.78 C
604 12-07-2015 04:30:00 15.4 C 80 % 11.97 C
605 12-07-2015 04:35:00 15.3 C 80 % 11.87 C
606 12-07-2015 04:40:00 15.2 C 80 % 11.78 C
607 12-07-2015 04:45:00 15.1 C 81 % 11.87 C
608 12-07-2015 04:50:00 15 C 81 % 11.77 C
609 12-07-2015 04:55:00 14.9 C 82 % 11.86 C
610 12-07-2015 05:00:00 14.9 C 82 % 11.86 C
611 12-07-2015 05:05:00 14.9 C 82 % 11.86 C
612 12-07-2015 05:10:00 14.9 C 82 % 11.86 C
613 12-07-2015 05:15:00 14.9 C 82 % 11.86 C
614 12-07-2015 05:20:00 14.8 C 82 % 11.76 C
615 12-07-2015 05:25:00 14.8 C 82 % 11.76 C
616 12-07-2015 05:30:00 14.7 C 82 % 11.66 C
617 12-07-2015 05:35:00 14.6 C 83 % 11.75 C
618 12-07-2015 05:40:00 14.5 C 83 % 11.65 C
619 12-07-2015 05:45:00 14.6 C 83 % 11.75 C
620 12-07-2015 05:50:00 14.7 C 83 % 11.85 C
621 12-07-2015 05:55:00 14.6 C 83 % 11.75 C
622 12-07-2015 06:00:00 14.6 C 83 % 11.75 C
623 12-07-2015 06:05:00 14.5 C 83 % 11.65 C
624 12-07-2015 06:10:00 14.4 C 84 % 11.73 C
625 12-07-2015 06:15:00 14.4 C 84 % 11.73 C
Sensor: Nr:Datum:Temp:Feuchte:Taupunkt:
Aussen-T/F 626 12-07-2015 06:20:00 14.5 C 84 % 11.83 C
627 12-07-2015 06:25:00 14.5 C 84 % 11.83 C
628 12-07-2015 06:30:00 14.5 C 84 % 11.83 C
629 12-07-2015 06:35:00 14.5 C 84 % 11.83 C
630 12-07-2015 06:40:00 14.5 C 84 % 11.83 C
631 12-07-2015 06:45:00 14.5 C 84 % 11.83 C
632 12-07-2015 06:50:00 14.5 C 85 % 12.01 C
633 12-07-2015 06:55:00 14.4 C 85 % 11.91 C
634 12-07-2015 07:00:00 14.5 C 85 % 12.01 C
635 12-07-2015 07:05:00 14.6 C 85 % 12.11 C
636 12-07-2015 07:10:00 14.7 C 85 % 12.21 C
637 12-07-2015 07:15:00 14.8 C 85 % 12.3 C
638 12-07-2015 07:20:00 14.8 C 85 % 12.3 C
639 12-07-2015 07:25:00 14.9 C 85 % 12.4 C
640 12-07-2015 07:30:00 14.9 C 85 % 12.4 C
641 12-07-2015 07:35:00 14.9 C 85 % 12.4 C
642 12-07-2015 07:40:00 15.1 C 86 % 12.78 C
643 12-07-2015 07:45:00 15.2 C 85 % 12.7 C
644 12-07-2015 07:50:00 15.5 C 85 % 12.99 C
645 12-07-2015 07:55:00 15.8 C 83 % 12.92 C
646 12-07-2015 08:00:00 16.1 C 82 % 13.03 C
647 12-07-2015 08:05:00 16.4 C 81 % 13.13 C
648 12-07-2015 08:10:00 16.6 C 80 % 13.14 C
649 12-07-2015 08:15:00 16.7 C 80 % 13.23 C
650 12-07-2015 08:20:00 16.8 C 80 % 13.33 C
Sensor: Nr:Datum:Temp:Feuchte:Taupunkt:
Aussen-T/F 651 12-07-2015 08:25:00 17.1 C 79 % 13.43 C
652 12-07-2015 08:30:00 17.3 C 79 % 13.63 C
653 12-07-2015 08:35:00 17.6 C 78 % 13.72 C
654 12-07-2015 08:40:00 17.9 C 78 % 14.01 C
655 12-07-2015 08:45:00 18.3 C 76 % 14 C
656 12-07-2015 08:50:00 18.6 C 73 % 13.67 C
657 12-07-2015 08:55:00 18.7 C 72 % 13.55 C
658 12-07-2015 09:00:00 18.9 C 72 % 13.74 C
659 12-07-2015 09:05:00 19.1 C 71 % 13.72 C
660 12-07-2015 09:10:00 19.3 C 70 % 13.69 C
661 12-07-2015 09:15:00 19.4 C 68 % 13.34 C
662 12-07-2015 09:20:00 19.4 C 68 % 13.34 C
663 12-07-2015 09:25:00 19.5 C 67 % 13.21 C
664 12-07-2015 09:30:00 19.6 C 65 % 12.84 C
665 12-07-2015 09:35:00 19.6 C 66 % 13.08 C
666 12-07-2015 09:40:00 19.7 C 65 % 12.94 C
667 12-07-2015 09:45:00 19.8 C 63 % 12.56 C
668 12-07-2015 09:50:00 19.8 C 63 % 12.56 C
669 12-07-2015 09:55:00 20 C 62 % 12.5 C
670 12-07-2015 10:00:00 20.1 C 62 % 12.6 C
671 12-07-2015 10:05:00 20.3 C 59 % 12.03 C
672 12-07-2015 10:10:00 20.7 C 58 % 12.15 C
673 12-07-2015 10:15:00 21.1 C 56 % 11.99 C
674 12-07-2015 10:20:00 21.3 C 55 % 11.9 C
675 12-07-2015 10:25:00 21.6 C 54 % 11.9 C
Sensor: Nr:Datum:Temp:Feuchte:Taupunkt:
Aussen-T/F 676 12-07-2015 10:30:00 21.6 C 51 % 11.04 C
677 12-07-2015 10:35:00 21.7 C 51 % 11.13 C
678 12-07-2015 10:40:00 21.8 C 47 % 9.99 C
679 12-07-2015 10:45:00 22.1 C 45 % 9.62 C
680 12-07-2015 10:50:00 22.4 C 44 % 9.56 C
681 12-07-2015 10:55:00 22.4 C 43 % 9.22 C
682 12-07-2015 11:00:00 22.9 C 43 % 9.67 C
683 12-07-2015 11:05:00 22.9 C 43 % 9.67 C
684 12-07-2015 11:10:00 23.2 C 44 % 10.28 C
685 12-07-2015 11:15:00 23.3 C 44 % 10.37 C
686 12-07-2015 11:20:00 23.4 C 44 % 10.46 C
687 12-07-2015 11:25:00 23.7 C 44 % 10.73 C
688 12-07-2015 11:30:00 23.8 C 44 % 10.82 C
689 12-07-2015 11:35:00 23.8 C 47 % 11.82 C
690 12-07-2015 11:40:00 23.8 C 45 % 11.16 C
691 12-07-2015 11:45:00 23.8 C 45 % 11.16 C
692 12-07-2015 11:50:00 23.9 C 46 % 11.58 C
693 12-07-2015 11:55:00 24.1 C 46 % 11.76 C
694 12-07-2015 12:00:00 23.9 C 46 % 11.58 C
695 12-07-2015 12:05:00 23.7 C 47 % 11.73 C
696 12-07-2015 12:10:00 23.7 C 48 % 12.04 C
697 12-07-2015 12:15:00 23.8 C 47 % 11.82 C
698 12-07-2015 12:20:00 23.8 C 48 % 12.14 C
699 12-07-2015 12:25:00 23.9 C 47 % 11.91 C
700 12-07-2015 12:30:00 23.9 C 48 % 12.23 C
Sensor: Nr:Datum:Temp:Feuchte:Taupunkt:
Aussen-T/F 701 12-07-2015 12:35:00 24.1 C 48 % 12.41 C
702 12-07-2015 12:40:00 24.2 C 47 % 12.18 C
703 12-07-2015 12:45:00 24.3 C 47 % 12.27 C
704 12-07-2015 12:50:00 24.3 C 48 % 12.59 C
705 12-07-2015 12:55:00 24.4 C 47 % 12.36 C
706 12-07-2015 13:00:00 24.6 C 47 % 12.54 C
707 12-07-2015 13:05:00 24.8 C 49 % 13.36 C
708 12-07-2015 13:10:00 25.1 C 45 % 12.34 C
709 12-07-2015 13:15:00 25.1 C 46 % 12.67 C
710 12-07-2015 13:20:00 25 C 48 % 13.23 C
711 12-07-2015 13:25:00 25.1 C 46 % 12.67 C
712 12-07-2015 13:30:00 24.9 C 46 % 12.49 C
713 12-07-2015 13:35:00 24.7 C 47 % 12.64 C
714 12-07-2015 13:40:00 24.8 C 47 % 12.73 C
715 12-07-2015 13:45:00 24.9 C 47 % 12.82 C
716 12-07-2015 13:50:00 24.9 C 48 % 13.14 C
717 12-07-2015 13:55:00 25 C 48 % 13.23 C
718 12-07-2015 14:00:00 24.9 C 51 % 14.07 C
719 12-07-2015 14:05:00 24.9 C 49 % 13.46 C
720 12-07-2015 14:10:00 24.8 C 49 % 13.36 C
721 12-07-2015 14:15:00 24.6 C 49 % 13.18 C
722 12-07-2015 14:20:00 24.6 C 50 % 13.49 C
723 12-07-2015 14:25:00 24.6 C 51 % 13.79 C
724 12-07-2015 14:30:00 24.4 C 51 % 13.61 C
725 12-07-2015 14:35:00 24.3 C 51 % 13.52 C
Sensor: Nr:Datum:Temp:Feuchte:Taupunkt:
Aussen-T/F 726 12-07-2015 14:40:00 24.2 C 54 % 14.31 C
727 12-07-2015 14:45:00 24.1 C 52 % 13.63 C
728 12-07-2015 14:50:00 23.9 C 54 % 14.03 C
729 12-07-2015 14:55:00 23.8 C 55 % 14.22 C
730 12-07-2015 15:00:00 23.8 C 55 % 14.22 C
731 12-07-2015 15:05:00 23.7 C 56 % 14.4 C
732 12-07-2015 15:10:00 23.5 C 56 % 14.22 C
733 12-07-2015 15:15:00 23.4 C 57 % 14.4 C
734 12-07-2015 15:20:00 23.3 C 58 % 14.58 C
735 12-07-2015 15:25:00 23.1 C 59 % 14.65 C
736 12-07-2015 15:30:00 22.8 C 60 % 14.63 C
737 12-07-2015 15:35:00 22.6 C 60 % 14.44 C
738 12-07-2015 15:40:00 22.3 C 62 % 14.67 C
739 12-07-2015 15:45:00 21.9 C 64 % 14.78 C
740 12-07-2015 15:50:00 21.3 C 66 % 14.69 C
741 12-07-2015 15:55:00 21.1 C 68 % 14.97 C
742 12-07-2015 16:00:00 20.8 C 69 % 14.91 C
743 12-07-2015 16:05:00 20.5 C 70 % 14.84 C
744 12-07-2015 16:10:00 20.3 C 71 % 14.87 C
745 12-07-2015 16:15:00 20.3 C 72 % 15.09 C
746 12-07-2015 16:20:00 20.1 C 72 % 14.9 C
747 12-07-2015 16:25:00 20.1 C 72 % 14.9 C
748 12-07-2015 16:30:00 20 C 72 % 14.8 C
749 12-07-2015 16:35:00 19.9 C 73 % 14.92 C
750 12-07-2015 16:40:00 19.9 C 73 % 14.92 C
Sensor: Nr:Datum:Temp:Feuchte:Taupunkt:
Aussen-T/F 751 12-07-2015 16:45:00 19.9 C 75 % 15.34 C
752 12-07-2015 16:50:00 19.8 C 76 % 15.45 C
753 12-07-2015 16:55:00 19.6 C 76 % 15.26 C
754 12-07-2015 17:00:00 19.4 C 76 % 15.06 C
755 12-07-2015 17:05:00 19.4 C 77 % 15.27 C
756 12-07-2015 17:10:00 19.4 C 78 % 15.47 C
757 12-07-2015 17:15:00 19.4 C 77 % 15.27 C
758 12-07-2015 17:20:00 19.3 C 78 % 15.37 C
759 12-07-2015 17:25:00 19.3 C 78 % 15.37 C
760 12-07-2015 17:30:00 19.2 C 78 % 15.27 C
761 12-07-2015 17:35:00 19.2 C 79 % 15.47 C
762 12-07-2015 17:40:00 19.1 C 79 % 15.37 C
763 12-07-2015 17:45:00 19.1 C 79 % 15.37 C
764 12-07-2015 17:50:00 18.9 C 80 % 15.38 C
765 12-07-2015 17:55:00 18.9 C 83 % 15.95 C
766 12-07-2015 18:00:00 18.8 C 81 % 15.47 C
767 12-07-2015 18:05:00 18.8 C 85 % 16.23 C
768 12-07-2015 18:10:00 18.7 C 86 % 16.31 C
769 12-07-2015 18:15:00 18.6 C 86 % 16.21 C
770 12-07-2015 18:20:00 18.4 C 86 % 16.02 C
771 12-07-2015 18:25:00 18.4 C 87 % 16.2 C
772 12-07-2015 18:30:00 18.3 C 88 % 16.28 C
773 12-07-2015 18:35:00 18.2 C 88 % 16.18 C
774 12-07-2015 18:40:00 18.2 C 89 % 16.36 C
775 12-07-2015 18:45:00 18.1 C 89 % 16.26 C
Sensor: Nr:Datum:Temp:Feuchte:Taupunkt:
Aussen-T/F 776 12-07-2015 18:50:00 18 C 88 % 15.98 C
777 12-07-2015 18:55:00 18 C 88 % 15.98 C
778 12-07-2015 19:00:00 18.1 C 89 % 16.26 C
779 12-07-2015 19:05:00 18.1 C 89 % 16.26 C
780 12-07-2015 19:10:00 18.1 C 89 % 16.26 C
781 12-07-2015 19:15:00 18.1 C 89 % 16.26 C
782 12-07-2015 19:20:00 18.1 C 86 % 15.72 C
783 12-07-2015 19:25:00 18.1 C 85 % 15.54 C
784 12-07-2015 19:30:00 17.9 C 84 % 15.16 C
785 12-07-2015 19:35:00 17.9 C 87 % 15.71 C
786 12-07-2015 19:40:00 17.7 C 86 % 15.33 C
787 12-07-2015 19:45:00 17.3 C 85 % 14.76 C
788 12-07-2015 19:50:00 17.2 C 87 % 15.02 C
789 12-07-2015 19:55:00 17 C 87 % 14.82 C
790 12-07-2015 20:00:00 17 C 87 % 14.82 C
791 12-07-2015 20:05:00 16.6 C 88 % 14.6 C
792 12-07-2015 20:10:00 16.4 C 88 % 14.41 C
793 12-07-2015 20:15:00 16.3 C 89 % 14.48 C
794 12-07-2015 20:20:00 16.2 C 88 % 14.21 C
795 12-07-2015 20:25:00 16.3 C 88 % 14.31 C
796 12-07-2015 20:30:00 16.2 C 88 % 14.21 C
797 12-07-2015 20:35:00 16.2 C 88 % 14.21 C
798 12-07-2015 20:40:00 16.3 C 88 % 14.31 C
799 12-07-2015 20:45:00 16.2 C 88 % 14.21 C
800 12-07-2015 20:50:00 16.2 C 88 % 14.21 C
Sensor: Nr:Datum:Temp:Feuchte:Taupunkt:
Aussen-T/F 801 12-07-2015 20:55:00 16.2 C 88 % 14.21 C
802 12-07-2015 21:50:00 15.3 C 100 % 15.3 C
803 12-07-2015 21:55:00 15.2 C 93 % 14.08 C
804 12-07-2015 22:00:00 15.2 C 93 % 14.08 C
805 12-07-2015 22:05:00 15.2 C 93 % 14.08 C
806 12-07-2015 22:10:00 15.2 C 93 % 14.08 C
807 12-07-2015 22:15:00 15.3 C 93 % 14.18 C
808 12-07-2015 22:20:00 15.3 C 93 % 14.18 C
809 12-07-2015 22:25:00 15.3 C 93 % 14.18 C
810 12-07-2015 22:30:00 15.3 C 93 % 14.18 C
811 12-07-2015 22:35:00 15.3 C 93 % 14.18 C
812 12-07-2015 22:40:00 15.3 C 93 % 14.18 C
813 12-07-2015 22:45:00 15.3 C 93 % 14.18 C
814 12-07-2015 22:50:00 15.3 C 93 % 14.18 C
815 12-07-2015 22:55:00 15.3 C 93 % 14.18 C
816 13-07-2015 05:50:00 14.7 C 91 % 13.25 C
817 13-07-2015 05:55:00 14.7 C 91 % 13.25 C
818 13-07-2015 06:00:00 14.7 C 91 % 13.25 C
819 13-07-2015 06:05:00 14.7 C 91 % 13.25 C
820 13-07-2015 06:10:00 14.8 C 91 % 13.35 C
821 13-07-2015 06:15:00 14.8 C 91 % 13.35 C
822 13-07-2015 06:20:00 14.8 C 91 % 13.35 C
823 13-07-2015 06:25:00 14.8 C 91 % 13.35 C
824 13-07-2015 06:30:00 14.8 C 91 % 13.35 C
825 13-07-2015 06:35:00 14.9 C 100 % 14.9 C
Sensor: Nr:Datum:Temp:Feuchte:Taupunkt:
Aussen-T/F 826 13-07-2015 06:40:00 15 C 100 % 15 C
827 13-07-2015 06:45:00 15.1 C 100 % 15.1 C
828 13-07-2015 06:50:00 15.1 C 90 % 13.47 C
829 13-07-2015 06:55:00 15.2 C 90 % 13.57 C
830 13-07-2015 07:00:00 15.2 C 90 % 13.57 C
831 13-07-2015 07:05:00 15.2 C 90 % 13.57 C
832 13-07-2015 07:10:00 15.2 C 90 % 13.57 C
833 13-07-2015 07:15:00 15.2 C 90 % 13.57 C
834 13-07-2015 07:20:00 15.2 C 90 % 13.57 C
835 13-07-2015 07:25:00 15.3 C 90 % 13.67 C
836 13-07-2015 07:30:00 15.5 C 90 % 13.87 C
837 13-07-2015 07:35:00 15.7 C 89 % 13.89 C
838 13-07-2015 07:40:00 15.8 C 87 % 13.64 C
839 13-07-2015 07:45:00 16.1 C 88 % 14.11 C
840 13-07-2015 07:50:00 16.2 C 86 % 13.86 C
841 13-07-2015 07:55:00 16.4 C 86 % 14.05 C
842 13-07-2015 08:00:00 16.5 C 85 % 13.97 C
843 13-07-2015 08:05:00 16.5 C 84 % 13.79 C
844 13-07-2015 08:10:00 16.6 C 84 % 13.89 C
845 13-07-2015 08:15:00 16.8 C 84 % 14.08 C
846 13-07-2015 08:20:00 17 C 83 % 14.09 C
847 13-07-2015 08:25:00 17.2 C 83 % 14.29 C
848 13-07-2015 08:30:00 17.2 C 83 % 14.29 C
849 13-07-2015 08:35:00 17.2 C 82 % 14.1 C
850 13-07-2015 08:40:00 17.1 C 83 % 14.19 C
Sensor: Nr:Datum:Temp:Feuchte:Taupunkt:
Aussen-T/F 851 13-07-2015 08:45:00 16.9 C 85 % 14.36 C
852 13-07-2015 08:50:00 16.7 C 86 % 14.35 C
853 13-07-2015 08:55:00 16.3 C 87 % 14.13 C
854 13-07-2015 09:00:00 16.2 C 87 % 14.03 C
855 13-07-2015 09:05:00 16.1 C 88 % 14.11 C
856 13-07-2015 09:10:00 16.1 C 88 % 14.11 C
857 13-07-2015 09:15:00 16.2 C 88 % 14.21 C
858 13-07-2015 09:20:00 16.2 C 87 % 14.03 C
859 13-07-2015 09:25:00 16.2 C 87 % 14.03 C
860 13-07-2015 09:30:00 16.3 C 87 % 14.13 C
861 13-07-2015 09:35:00 16.4 C 87 % 14.23 C
862 13-07-2015 09:40:00 16.5 C 87 % 14.33 C
863 13-07-2015 09:45:00 16.6 C 87 % 14.43 C
864 13-07-2015 09:50:00 16.6 C 87 % 14.43 C
865 13-07-2015 09:55:00 16.7 C 87 % 14.53 C
866 13-07-2015 10:00:00 16.9 C 87 % 14.72 C
867 13-07-2015 10:05:00 17.1 C 87 % 14.92 C
868 13-07-2015 10:10:00 17.1 C 87 % 14.92 C
869 13-07-2015 10:15:00 17.1 C 87 % 14.92 C
870 13-07-2015 10:20:00 17.2 C 87 % 15.02 C
871 13-07-2015 10:25:00 17.2 C 85 % 14.66 C
872 13-07-2015 10:30:00 17.2 C 85 % 14.66 C
873 13-07-2015 10:35:00 17.3 C 85 % 14.76 C
874 13-07-2015 10:40:00 17.3 C 84 % 14.57 C
875 13-07-2015 10:45:00 17.5 C 84 % 14.77 C
Sensor: Nr:Datum:Temp:Feuchte:Taupunkt:
Aussen-T/F 876 13-07-2015 10:50:00 17.7 C 82 % 14.59 C
877 13-07-2015 10:55:00 17.8 C 82 % 14.69 C
878 13-07-2015 11:00:00 17.9 C 82 % 14.78 C
879 13-07-2015 11:05:00 17.9 C 82 % 14.78 C
880 13-07-2015 11:10:00 17.9 C 81 % 14.59 C
881 13-07-2015 11:15:00 17.9 C 81 % 14.59 C
882 13-07-2015 11:20:00 17.9 C 81 % 14.59 C
883 13-07-2015 11:25:00 18.1 C 81 % 14.79 C
884 13-07-2015 11:30:00 18.1 C 80 % 14.6 C
885 13-07-2015 11:35:00 18.2 C 80 % 14.69 C
886 13-07-2015 11:40:00 18.2 C 80 % 14.69 C
887 13-07-2015 11:45:00 18.2 C 80 % 14.69 C
888 13-07-2015 11:50:00 18.2 C 80 % 14.69 C
889 13-07-2015 11:55:00 18.2 C 81 % 14.89 C
890 13-07-2015 12:00:00 18.3 C 80 % 14.79 C
891 13-07-2015 12:05:00 18.4 C 80 % 14.89 C
892 13-07-2015 12:10:00 18.6 C 80 % 15.08 C
893 13-07-2015 12:15:00 18.9 C 79 % 15.18 C
894 13-07-2015 12:20:00 19 C 79 % 15.28 C
895 13-07-2015 12:25:00 19.2 C 79 % 15.47 C
896 13-07-2015 12:30:00 19.3 C 78 % 15.37 C
897 13-07-2015 12:35:00 19.6 C 78 % 15.66 C
898 13-07-2015 12:40:00 19.6 C 77 % 15.46 C
899 13-07-2015 12:45:00 19.5 C 77 % 15.36 C
900 13-07-2015 12:50:00 19.3 C 77 % 15.17 C
Sensor: Nr:Datum:Temp:Feuchte:Taupunkt:
Aussen-T/F 901 13-07-2015 12:55:00 19.3 C 78 % 15.37 C
902 13-07-2015 13:00:00 19.3 C 79 % 15.57 C
903 13-07-2015 13:05:00 19.2 C 78 % 15.27 C
904 13-07-2015 13:10:00 19.2 C 79 % 15.47 C
905 13-07-2015 13:15:00 19.1 C 79 % 15.37 C
906 13-07-2015 13:20:00 18.9 C 81 % 15.57 C
907 13-07-2015 13:25:00 18.7 C 83 % 15.75 C
908 13-07-2015 13:30:00 18.4 C 85 % 15.83 C
909 13-07-2015 13:35:00 18.3 C 85 % 15.74 C
910 13-07-2015 13:40:00 18.2 C 85 % 15.64 C
911 13-07-2015 13:45:00 18.2 C 86 % 15.82 C
912 13-07-2015 13:50:00 18.1 C 86 % 15.72 C
913 13-07-2015 13:55:00 18.1 C 87 % 15.9 C
914 13-07-2015 14:00:00 18.2 C 87 % 16 C
915 13-07-2015 14:05:00 18.3 C 87 % 16.1 C
916 13-07-2015 14:10:00 18.4 C 87 % 16.2 C
917 13-07-2015 14:15:00 18.6 C 87 % 16.39 C
918 13-07-2015 14:20:00 18.7 C 87 % 16.49 C
919 13-07-2015 14:25:00 18.8 C 86 % 16.41 C
920 13-07-2015 14:30:00 18.8 C 85 % 16.23 C
921 13-07-2015 14:35:00 18.7 C 85 % 16.13 C
922 13-07-2015 14:40:00 18.6 C 85 % 16.03 C
923 13-07-2015 14:45:00 18.7 C 85 % 16.13 C
924 13-07-2015 14:50:00 18.8 C 86 % 16.41 C
925 13-07-2015 14:55:00 18.9 C 84 % 16.14 C
Sensor: Nr:Datum:Temp:Feuchte:Taupunkt:
Aussen-T/F 926 13-07-2015 15:00:00 18.9 C 85 % 16.32 C
927 13-07-2015 15:05:00 19.1 C 84 % 16.33 C
928 13-07-2015 15:10:00 19.1 C 83 % 16.15 C
929 13-07-2015 15:15:00 19.1 C 83 % 16.15 C
930 13-07-2015 15:20:00 19 C 83 % 16.05 C
931 13-07-2015 15:25:00 18.9 C 83 % 15.95 C
932 13-07-2015 15:30:00 18.9 C 83 % 15.95 C
933 13-07-2015 15:35:00 18.8 C 84 % 16.04 C
934 13-07-2015 15:40:00 18.9 C 83 % 15.95 C
935 13-07-2015 15:45:00 18.9 C 83 % 15.95 C
936 13-07-2015 15:50:00 18.9 C 83 % 15.95 C
937 13-07-2015 15:55:00 19 C 84 % 16.24 C
938 13-07-2015 16:00:00 19.1 C 83 % 16.15 C
939 13-07-2015 16:05:00 19.1 C 82 % 15.96 C
940 13-07-2015 16:10:00 19.1 C 83 % 16.15 C
941 13-07-2015 16:15:00 19.1 C 83 % 16.15 C
942 13-07-2015 16:20:00 19.1 C 83 % 16.15 C
943 13-07-2015 16:25:00 19.1 C 83 % 16.15 C
944 13-07-2015 16:30:00 19.1 C 83 % 16.15 C
945 13-07-2015 16:35:00 19.1 C 84 % 16.33 C
946 13-07-2015 16:40:00 19.2 C 84 % 16.43 C
947 13-07-2015 16:45:00 19.4 C 83 % 16.44 C
948 13-07-2015 16:50:00 19.6 C 81 % 16.25 C
949 13-07-2015 16:55:00 19.6 C 81 % 16.25 C
950 13-07-2015 17:00:00 19.6 C 81 % 16.25 C
Sensor: Nr:Datum:Temp:Feuchte:Taupunkt:
Aussen-T/F 951 13-07-2015 17:05:00 19.6 C 79 % 15.86 C
952 13-07-2015 17:10:00 20 C 79 % 16.25 C
953 13-07-2015 17:15:00 19.9 C 81 % 16.54 C
954 13-07-2015 17:20:00 19.8 C 81 % 16.45 C
955 13-07-2015 17:25:00 19.8 C 79 % 16.05 C
956 13-07-2015 17:30:00 19.8 C 81 % 16.45 C
957 13-07-2015 17:35:00 19.7 C 81 % 16.35 C
958 13-07-2015 17:40:00 19.7 C 81 % 16.35 C
959 13-07-2015 17:45:00 19.7 C 81 % 16.35 C
960 13-07-2015 17:50:00 19.9 C 81 % 16.54 C
961 13-07-2015 17:55:00 20.1 C 79 % 16.34 C
962 13-07-2015 18:00:00 20.2 C 77 % 16.04 C
963 13-07-2015 18:05:00 20.4 C 77 % 16.23 C
964 13-07-2015 18:10:00 20.4 C 75 % 15.82 C
965 13-07-2015 18:15:00 20.4 C 75 % 15.82 C
966 13-07-2015 18:20:00 20.5 C 75 % 15.92 C
967 13-07-2015 18:25:00 20.5 C 75 % 15.92 C
968 13-07-2015 18:30:00 20.4 C 76 % 16.03 C
969 13-07-2015 18:35:00 20.3 C 76 % 15.93 C
970 13-07-2015 18:40:00 20.3 C 76 % 15.93 C
971 13-07-2015 18:45:00 20.3 C 76 % 15.93 C
972 13-07-2015 20:10:00 18.7 C 100 % 18.7 C
973 13-07-2015 20:15:00 18.6 C 88 % 16.57 C
974 13-07-2015 20:20:00 18.6 C 88 % 16.57 C
975 13-07-2015 21:35:00 18.1 C 90 % 16.43 C
Sensor: Nr:Datum:Temp:Feuchte:Taupunkt:
Aussen-T/F 976 13-07-2015 21:40:00 18.2 C 90 % 16.53 C
977 13-07-2015 21:45:00 18.2 C 90 % 16.53 C
978 13-07-2015 21:50:00 18.2 C 90 % 16.53 C
979 13-07-2015 21:55:00 18.2 C 90 % 16.53 C
980 13-07-2015 22:00:00 18.2 C 90 % 16.53 C
981 13-07-2015 22:05:00 18.2 C 90 % 16.53 C
982 13-07-2015 22:10:00 18.2 C 90 % 16.53 C
983 13-07-2015 22:15:00 18.2 C 90 % 16.53 C
984 13-07-2015 22:20:00 18.2 C 90 % 16.53 C
985 13-07-2015 22:25:00 18.2 C 90 % 16.53 C
986 13-07-2015 22:30:00 18.2 C 90 % 16.53 C
987 13-07-2015 22:35:00 18.2 C 90 % 16.53 C
988 13-07-2015 22:40:00 18.1 C 90 % 16.43 C
989 13-07-2015 22:45:00 18.1 C 90 % 16.43 C
990 13-07-2015 22:50:00 18.1 C 90 % 16.43 C
991 13-07-2015 22:55:00 18 C 90 % 16.34 C
992 13-07-2015 23:00:00 17.9 C 91 % 16.41 C
993 13-07-2015 23:05:00 17.9 C 91 % 16.41 C
994 13-07-2015 23:10:00 17.8 C 91 % 16.31 C
995 13-07-2015 23:15:00 17.8 C 91 % 16.31 C
996 13-07-2015 23:20:00 17.8 C 91 % 16.31 C
997 13-07-2015 23:25:00 17.8 C 91 % 16.31 C
998 13-07-2015 23:30:00 17.8 C 91 % 16.31 C
999 13-07-2015 23:35:00 17.8 C 91 % 16.31 C
1000 13-07-2015 23:40:00 17.8 C 91 % 16.31 C
Sensor: Nr:Datum:Temp:Feuchte:Taupunkt:
Aussen-T/F 1001 13-07-2015 23:45:00 18.1 C 91 % 16.61 C
1002 13-07-2015 23:50:00 18.1 C 91 % 16.61 C
1003 13-07-2015 23:55:00 18.1 C 91 % 16.61 C
1004 14-07-2015 00:00:00 18.1 C 91 % 16.61 C
1005 14-07-2015 02:40:00 18.4 C 88 % 16.38 C
1006 14-07-2015 02:45:00 18.4 C 87 % 16.2 C
1007 14-07-2015 02:50:00 18.4 C 87 % 16.2 C
1008 14-07-2015 02:55:00 18.6 C 87 % 16.39 C
1009 14-07-2015 03:00:00 18.6 C 87 % 16.39 C
1010 14-07-2015 03:35:00 18.4 C 87 % 16.2 C
1011 14-07-2015 03:40:00 18.5 C 85 % 15.93 C
1012 14-07-2015 03:45:00 18.6 C 85 % 16.03 C
1013 14-07-2015 03:50:00 18.6 C 84 % 15.84 C
1014 14-07-2015 03:55:00 18.7 C 84 % 15.94 C
1015 14-07-2015 04:00:00 18.7 C 84 % 15.94 C
1016 14-07-2015 04:05:00 18.6 C 85 % 16.03 C
1017 14-07-2015 04:10:00 18.6 C 85 % 16.03 C
1018 14-07-2015 04:15:00 18.6 C 84 % 15.84 C
1019 14-07-2015 04:20:00 18.6 C 83 % 15.66 C
1020 14-07-2015 04:25:00 18.6 C 83 % 15.66 C
1021 14-07-2015 04:30:00 18.7 C 82 % 15.57 C
1022 14-07-2015 04:35:00 18.7 C 82 % 15.57 C
1023 14-07-2015 04:40:00 18.7 C 82 % 15.57 C
1024 14-07-2015 04:45:00 18.7 C 82 % 15.57 C
1025 14-07-2015 04:50:00 18.7 C 82 % 15.57 C
Sensor: Nr:Datum:Temp:Feuchte:Taupunkt:
Aussen-T/F 1026 14-07-2015 04:55:00 18.7 C 82 % 15.57 C
1027 14-07-2015 05:00:00 18.7 C 82 % 15.57 C
1028 14-07-2015 05:05:00 18.7 C 82 % 15.57 C
1029 14-07-2015 05:10:00 18.7 C 82 % 15.57 C
1030 14-07-2015 05:15:00 18.7 C 82 % 15.57 C
1031 14-07-2015 05:20:00 18.7 C 82 % 15.57 C
1032 14-07-2015 05:25:00 18.7 C 82 % 15.57 C
1033 14-07-2015 05:30:00 18.7 C 82 % 15.57 C
1034 14-07-2015 05:35:00 18.7 C 83 % 15.75 C
1035 14-07-2015 05:40:00 18.7 C 83 % 15.75 C
1036 14-07-2015 06:05:00 18.8 C 82 % 15.66 C
1037 14-07-2015 06:10:00 18.8 C 82 % 15.66 C
1038 14-07-2015 06:15:00 18.8 C 82 % 15.66 C
1039 14-07-2015 06:20:00 18.8 C 82 % 15.66 C
1040 14-07-2015 06:25:00 18.8 C 82 % 15.66 C
1041 14-07-2015 06:30:00 18.9 C 82 % 15.76 C
1042 14-07-2015 06:35:00 18.9 C 81 % 15.57 C
1043 14-07-2015 06:40:00 18.9 C 82 % 15.76 C
1044 14-07-2015 06:45:00 19 C 81 % 15.67 C
1045 14-07-2015 06:50:00 19 C 82 % 15.86 C
1046 14-07-2015 06:55:00 19 C 81 % 15.67 C
1047 14-07-2015 07:00:00 19 C 81 % 15.67 C
1048 14-07-2015 07:05:00 19 C 82 % 15.86 C
1049 14-07-2015 07:10:00 19.1 C 81 % 15.76 C
1050 14-07-2015 07:15:00 19.1 C 82 % 15.96 C
Sensor: Nr:Datum:Temp:Feuchte:Taupunkt:
Aussen-T/F 1051 14-07-2015 07:20:00 19.1 C 82 % 15.96 C
1052 14-07-2015 07:25:00 19.2 C 82 % 16.05 C
1053 14-07-2015 07:30:00 19.2 C 81 % 15.86 C
1054 14-07-2015 07:35:00 19.2 C 82 % 16.05 C
1055 14-07-2015 07:40:00 19.2 C 82 % 16.05 C
1056 14-07-2015 07:45:00 19.3 C 81 % 15.96 C
1057 14-07-2015 07:50:00 19.3 C 81 % 15.96 C
1058 14-07-2015 07:55:00 19.3 C 81 % 15.96 C
1059 14-07-2015 08:00:00 19.3 C 81 % 15.96 C
1060 14-07-2015 08:05:00 19.4 C 81 % 16.06 C
1061 14-07-2015 08:10:00 19.4 C 81 % 16.06 C
1062 14-07-2015 08:15:00 19.4 C 81 % 16.06 C
1063 14-07-2015 08:20:00 19.4 C 81 % 16.06 C
1064 14-07-2015 08:25:00 19.4 C 81 % 16.06 C
1065 14-07-2015 08:30:00 19.5 C 81 % 16.15 C
1066 14-07-2015 08:35:00 19.6 C 81 % 16.25 C
1067 14-07-2015 08:40:00 19.6 C 81 % 16.25 C
1068 14-07-2015 08:45:00 19.6 C 81 % 16.25 C
1069 14-07-2015 08:50:00 19.6 C 81 % 16.25 C
1070 14-07-2015 08:55:00 19.7 C 81 % 16.35 C
1071 14-07-2015 09:00:00 19.8 C 81 % 16.45 C
1072 14-07-2015 09:05:00 19.8 C 81 % 16.45 C
1073 14-07-2015 09:10:00 19.9 C 81 % 16.54 C
1074 14-07-2015 09:15:00 20 C 80 % 16.44 C
1075 14-07-2015 09:20:00 20.1 C 80 % 16.54 C
Sensor: Nr:Datum:Temp:Feuchte:Taupunkt:
Aussen-T/F 1076 14-07-2015 09:25:00 20.2 C 80 % 16.64 C
1077 14-07-2015 09:30:00 20.2 C 80 % 16.64 C
1078 14-07-2015 09:35:00 20.3 C 79 % 16.54 C
1079 14-07-2015 09:40:00 20.3 C 80 % 16.74 C
1080 14-07-2015 09:45:00 20.3 C 80 % 16.74 C
1081 14-07-2015 09:50:00 20.3 C 79 % 16.54 C
1082 14-07-2015 09:55:00 20.3 C 79 % 16.54 C
1083 14-07-2015 10:00:00 20.3 C 80 % 16.74 C
1084 14-07-2015 10:05:00 20.3 C 80 % 16.74 C
1085 14-07-2015 10:10:00 20.3 C 79 % 16.54 C
1086 14-07-2015 10:15:00 20.3 C 79 % 16.54 C
1087 14-07-2015 10:20:00 20.3 C 79 % 16.54 C
1088 14-07-2015 10:25:00 20.3 C 79 % 16.54 C
1089 14-07-2015 10:30:00 20.3 C 79 % 16.54 C
1090 14-07-2015 10:35:00 20.3 C 79 % 16.54 C
1091 14-07-2015 10:40:00 20.3 C 79 % 16.54 C
1092 14-07-2015 10:45:00 20.3 C 79 % 16.54 C
1093 14-07-2015 10:50:00 20.4 C 80 % 16.83 C
1094 14-07-2015 10:55:00 20.5 C 79 % 16.73 C
1095 14-07-2015 11:00:00 20.7 C 79 % 16.93 C
1096 14-07-2015 11:05:00 20.8 C 79 % 17.02 C
1097 14-07-2015 11:10:00 20.8 C 78 % 16.82 C
1098 14-07-2015 11:15:00 20.9 C 77 % 16.72 C
1099 14-07-2015 11:20:00 21.1 C 77 % 16.91 C
1100 14-07-2015 11:25:00 21.1 C 77 % 16.91 C
Sensor: Nr:Datum:Temp:Feuchte:Taupunkt:
Aussen-T/F 1101 14-07-2015 11:30:00 21.2 C 77 % 17.01 C
1102 14-07-2015 11:35:00 21.3 C 77 % 17.1 C
1103 14-07-2015 11:40:00 21.6 C 76 % 17.19 C
1104 14-07-2015 11:45:00 21.8 C 75 % 17.17 C
1105 14-07-2015 11:50:00 21.9 C 75 % 17.27 C
1106 14-07-2015 11:55:00 22.2 C 74 % 17.34 C
1107 14-07-2015 12:00:00 22.3 C 73 % 17.23 C
1108 14-07-2015 12:05:00 22.4 C 73 % 17.32 C
1109 14-07-2015 12:10:00 22.2 C 73 % 17.13 C
1110 14-07-2015 12:15:00 22.2 C 72 % 16.91 C
1111 14-07-2015 12:20:00 22.2 C 73 % 17.13 C
1112 14-07-2015 12:25:00 22.1 C 72 % 16.82 C
1113 14-07-2015 12:30:00 22.2 C 72 % 16.91 C
1114 14-07-2015 12:35:00 22.2 C 71 % 16.69 C
1115 14-07-2015 12:40:00 22.1 C 71 % 16.6 C
1116 14-07-2015 12:45:00 22.1 C 71 % 16.6 C
1117 14-07-2015 12:50:00 22.3 C 70 % 16.56 C
1118 14-07-2015 12:55:00 22.4 C 70 % 16.66 C
1119 14-07-2015 13:00:00 22.6 C 70 % 16.85 C
1120 14-07-2015 13:05:00 22.7 C 71 % 17.17 C
1121 14-07-2015 13:10:00 22.9 C 72 % 17.58 C
1122 14-07-2015 13:15:00 23.1 C 70 % 17.33 C
1123 14-07-2015 13:20:00 23.1 C 70 % 17.33 C
1124 14-07-2015 13:25:00 23 C 68 % 16.78 C
1125 14-07-2015 13:30:00 23.1 C 68 % 16.87 C
Sensor: Nr:Datum:Temp:Feuchte:Taupunkt:
Aussen-T/F 1126 14-07-2015 13:35:00 23.1 C 67 % 16.64 C
1127 14-07-2015 13:40:00 22.9 C 67 % 16.45 C
1128 14-07-2015 13:45:00 22.8 C 66 % 16.12 C
1129 14-07-2015 13:50:00 22.9 C 67 % 16.45 C
1130 14-07-2015 13:55:00 23.2 C 66 % 16.5 C
1131 14-07-2015 14:00:00 23.6 C 64 % 16.39 C
1132 14-07-2015 14:05:00 23.7 C 63 % 16.24 C
1133 14-07-2015 14:10:00 23.7 C 64 % 16.49 C
1134 14-07-2015 14:15:00 24 C 62 % 16.27 C
1135 14-07-2015 14:20:00 24.2 C 62 % 16.46 C
1136 14-07-2015 14:25:00 24.3 C 61 % 16.3 C
1137 14-07-2015 14:30:00 24.4 C 61 % 16.39 C
1138 14-07-2015 14:35:00 24.2 C 59 % 15.68 C
1139 14-07-2015 14:40:00 23.9 C 60 % 15.66 C
1140 14-07-2015 14:45:00 23.8 C 63 % 16.33 C
1141 14-07-2015 14:50:00 23.9 C 63 % 16.43 C
1142 14-07-2015 14:55:00 24.1 C 63 % 16.62 C
1143 14-07-2015 15:00:00 24.3 C 60 % 16.04 C
1144 14-07-2015 15:05:00 24.2 C 60 % 15.95 C
1145 14-07-2015 15:10:00 24.1 C 59 % 15.59 C
1146 14-07-2015 15:15:00 24.1 C 60 % 15.85 C
1147 14-07-2015 15:20:00 24.1 C 61 % 16.11 C
1148 14-07-2015 15:25:00 24.1 C 61 % 16.11 C
1149 14-07-2015 15:30:00 24.1 C 60 % 15.85 C
1150 14-07-2015 15:35:00 24 C 60 % 15.76 C
Sensor: Nr:Datum:Temp:Feuchte:Taupunkt:
Aussen-T/F 1151 14-07-2015 15:40:00 23.8 C 61 % 15.83 C
1152 14-07-2015 15:45:00 23.8 C 61 % 15.83 C
1153 14-07-2015 15:50:00 23.9 C 61 % 15.92 C
1154 14-07-2015 15:55:00 23.9 C 61 % 15.92 C
1155 14-07-2015 16:00:00 24.2 C 62 % 16.46 C
1156 14-07-2015 16:05:00 24.4 C 62 % 16.65 C
1157 14-07-2015 16:10:00 24.4 C 62 % 16.65 C
1158 14-07-2015 16:15:00 24.2 C 60 % 15.95 C
1159 14-07-2015 16:20:00 24.2 C 60 % 15.95 C
1160 14-07-2015 16:25:00 24.1 C 61 % 16.11 C
1161 14-07-2015 16:30:00 23.9 C 61 % 15.92 C
1162 14-07-2015 16:35:00 23.9 C 61 % 15.92 C
1163 14-07-2015 16:40:00 23.9 C 61 % 15.92 C
1164 14-07-2015 16:45:00 23.9 C 61 % 15.92 C
1165 14-07-2015 16:50:00 23.8 C 61 % 15.83 C
1166 14-07-2015 16:55:00 23.8 C 61 % 15.83 C
1167 14-07-2015 17:00:00 23.8 C 61 % 15.83 C
1168 14-07-2015 17:05:00 23.8 C 61 % 15.83 C
1169 14-07-2015 17:10:00 23.8 C 61 % 15.83 C
1170 14-07-2015 17:15:00 23.4 C 62 % 15.71 C
1171 14-07-2015 17:20:00 23.3 C 62 % 15.61 C
1172 14-07-2015 17:25:00 23.3 C 62 % 15.61 C
1173 14-07-2015 17:30:00 23.3 C 62 % 15.61 C
1174 14-07-2015 17:35:00 23.3 C 62 % 15.61 C
1175 14-07-2015 17:40:00 23.2 C 66 % 16.5 C
Sensor: Nr:Datum:Temp:Feuchte:Taupunkt:
Aussen-T/F 1176 14-07-2015 17:45:00 22.9 C 68 % 16.68 C
1177 14-07-2015 17:50:00 22.8 C 70 % 17.04 C
1178 14-07-2015 17:55:00 22.7 C 71 % 17.17 C
1179 14-07-2015 18:00:00 22.8 C 72 % 17.49 C
1180 14-07-2015 18:05:00 22.8 C 71 % 17.27 C
1181 14-07-2015 18:10:00 22.5 C 72 % 17.2 C
1182 14-07-2015 18:15:00 22.3 C 73 % 17.23 C
1183 14-07-2015 18:20:00 22.1 C 74 % 17.25 C
1184 14-07-2015 18:25:00 22.1 C 74 % 17.25 C
1185 14-07-2015 18:30:00 22.1 C 74 % 17.25 C
1186 14-07-2015 20:15:00 20.9 C 74 % 16.09 C
1187 14-07-2015 20:20:00 21.1 C 74 % 16.29 C
1188 14-07-2015 20:25:00 21.2 C 73 % 16.17 C
1189 14-07-2015 20:30:00 21.3 C 73 % 16.26 C
1190 14-07-2015 20:35:00 21.4 C 72 % 16.14 C
1191 14-07-2015 20:40:00 21.5 C 72 % 16.24 C
1192 14-07-2015 20:45:00 21.5 C 71 % 16.02 C
1193 14-07-2015 20:50:00 21.4 C 72 % 16.14 C
1194 14-07-2015 20:55:00 21.4 C 72 % 16.14 C
1195 14-07-2015 21:00:00 21.3 C 72 % 16.05 C
1196 14-07-2015 21:05:00 21.3 C 72 % 16.05 C
1197 14-07-2015 21:10:00 21.2 C 72 % 15.95 C
1198 14-07-2015 21:15:00 21.2 C 73 % 16.17 C
1199 14-07-2015 21:20:00 21.1 C 73 % 16.07 C
1200 14-07-2015 21:25:00 21.1 C 74 % 16.29 C
Sensor: Nr:Datum:Temp:Feuchte:Taupunkt:
Aussen-T/F 1201 14-07-2015 21:30:00 21 C 74 % 16.19 C
1202 14-07-2015 21:35:00 20.9 C 74 % 16.09 C
1203 14-07-2015 21:40:00 20.9 C 74 % 16.09 C
1204 14-07-2015 21:45:00 20.8 C 74 % 16 C
1205 14-07-2015 21:50:00 20.8 C 75 % 16.21 C
1206 14-07-2015 21:55:00 20.7 C 75 % 16.11 C
1207 14-07-2015 22:00:00 20.7 C 75 % 16.11 C
1208 14-07-2015 22:05:00 20.7 C 75 % 16.11 C
1209 14-07-2015 22:10:00 20.7 C 75 % 16.11 C
1210 14-07-2015 22:15:00 20.6 C 76 % 16.22 C
1211 14-07-2015 22:20:00 20.6 C 76 % 16.22 C
1212 14-07-2015 22:25:00 20.6 C 76 % 16.22 C
1213 14-07-2015 22:30:00 20.6 C 76 % 16.22 C
1214 14-07-2015 22:35:00 20.6 C 76 % 16.22 C
1215 14-07-2015 22:40:00 20.6 C 76 % 16.22 C
1216 14-07-2015 22:45:00 20.6 C 76 % 16.22 C
1217 14-07-2015 22:50:00 20.3 C 77 % 16.14 C
1218 14-07-2015 22:55:00 20.3 C 77 % 16.14 C
1219 14-07-2015 23:00:00 20.2 C 78 % 16.24 C
1220 14-07-2015 23:05:00 20.2 C 78 % 16.24 C
1221 14-07-2015 23:10:00 20.1 C 78 % 16.14 C
1222 14-07-2015 23:15:00 20.1 C 78 % 16.14 C
1223 14-07-2015 23:20:00 20.1 C 78 % 16.14 C
1224 14-07-2015 23:25:00 20 C 78 % 16.05 C
1225 14-07-2015 23:30:00 19.9 C 79 % 16.15 C
Sensor: Nr:Datum:Temp:Feuchte:Taupunkt:
Aussen-T/F 1226 14-07-2015 23:35:00 19.9 C 79 % 16.15 C
1227 14-07-2015 23:40:00 19.9 C 79 % 16.15 C
1228 14-07-2015 23:45:00 19.8 C 80 % 16.25 C
1229 14-07-2015 23:50:00 19.7 C 80 % 16.15 C
1230 14-07-2015 23:55:00 19.7 C 80 % 16.15 C
1231 15-07-2015 00:00:00 19.6 C 80 % 16.06 C
1232 15-07-2015 00:05:00 19.6 C 81 % 16.25 C
1233 15-07-2015 00:10:00 19.5 C 81 % 16.15 C
1234 15-07-2015 00:15:00 19.4 C 81 % 16.06 C
1235 15-07-2015 00:20:00 19.4 C 81 % 16.06 C
1236 15-07-2015 00:25:00 19.3 C 81 % 15.96 C
1237 15-07-2015 00:30:00 19.3 C 82 % 16.15 C
1238 15-07-2015 00:35:00 19.2 C 82 % 16.05 C
1239 15-07-2015 00:40:00 19.1 C 82 % 15.96 C
1240 15-07-2015 00:45:00 19.1 C 82 % 15.96 C
1241 15-07-2015 00:50:00 19 C 82 % 15.86 C
1242 15-07-2015 00:55:00 19 C 82 % 15.86 C
1243 15-07-2015 01:00:00 18.9 C 83 % 15.95 C
1244 15-07-2015 01:05:00 18.8 C 83 % 15.85 C
1245 15-07-2015 01:10:00 18.7 C 84 % 15.94 C
1246 15-07-2015 01:15:00 18.7 C 84 % 15.94 C
1247 15-07-2015 01:20:00 18.7 C 84 % 15.94 C
1248 15-07-2015 01:25:00 18.7 C 84 % 15.94 C
1249 15-07-2015 01:30:00 18.7 C 84 % 15.94 C
1250 15-07-2015 01:35:00 18.7 C 84 % 15.94 C
Sensor: Nr:Datum:Temp:Feuchte:Taupunkt:
Aussen-T/F 1251 15-07-2015 01:40:00 18.7 C 84 % 15.94 C
1252 15-07-2015 01:45:00 18.7 C 84 % 15.94 C
1253 15-07-2015 01:50:00 18.7 C 84 % 15.94 C
1254 15-07-2015 01:55:00 18.7 C 84 % 15.94 C
1255 15-07-2015 02:00:00 18.6 C 84 % 15.84 C
1256 15-07-2015 02:05:00 18.6 C 84 % 15.84 C
1257 15-07-2015 02:10:00 18.6 C 84 % 15.84 C
1258 15-07-2015 02:15:00 18.6 C 84 % 15.84 C
1259 15-07-2015 02:20:00 18.6 C 83 % 15.66 C
1260 15-07-2015 02:25:00 18.6 C 83 % 15.66 C
1261 15-07-2015 02:30:00 18.6 C 83 % 15.66 C
1262 15-07-2015 02:35:00 18.6 C 84 % 15.84 C
1263 15-07-2015 02:40:00 18.6 C 84 % 15.84 C
1264 15-07-2015 02:45:00 18.5 C 84 % 15.75 C
1265 15-07-2015 02:50:00 18.4 C 84 % 15.65 C
1266 15-07-2015 02:55:00 18.4 C 85 % 15.83 C
1267 15-07-2015 03:00:00 18.3 C 85 % 15.74 C
1268 15-07-2015 03:05:00 18.3 C 85 % 15.74 C
1269 15-07-2015 03:10:00 18.2 C 85 % 15.64 C
1270 15-07-2015 03:15:00 18.2 C 86 % 15.82 C
1271 15-07-2015 03:20:00 18.2 C 86 % 15.82 C
1272 15-07-2015 03:25:00 18.2 C 86 % 15.82 C
1273 15-07-2015 03:30:00 18.2 C 85 % 15.64 C
1274 15-07-2015 03:35:00 18.2 C 85 % 15.64 C
1275 15-07-2015 03:40:00 18.2 C 85 % 15.64 C
Sensor: Nr:Datum:Temp:Feuchte:Taupunkt:
Aussen-T/F 1276 15-07-2015 03:45:00 18.2 C 85 % 15.64 C
1277 15-07-2015 03:50:00 18.1 C 85 % 15.54 C
1278 15-07-2015 03:55:00 18 C 85 % 15.44 C
1279 15-07-2015 04:00:00 17.9 C 85 % 15.34 C
1280 15-07-2015 04:05:00 17.9 C 85 % 15.34 C
1281 15-07-2015 04:10:00 18 C 85 % 15.44 C
1282 15-07-2015 04:15:00 18.1 C 85 % 15.54 C
1283 15-07-2015 04:20:00 18.2 C 85 % 15.64 C
1284 15-07-2015 04:25:00 18.2 C 85 % 15.64 C
1285 15-07-2015 04:30:00 18.2 C 85 % 15.64 C
1286 15-07-2015 04:35:00 18.2 C 85 % 15.64 C
1287 15-07-2015 04:40:00 18.3 C 85 % 15.74 C
1288 15-07-2015 04:45:00 18.3 C 84 % 15.55 C
1289 15-07-2015 04:50:00 18.2 C 85 % 15.64 C
1290 15-07-2015 04:55:00 18.1 C 85 % 15.54 C
1291 15-07-2015 05:00:00 17.9 C 85 % 15.34 C
1292 15-07-2015 05:05:00 17.8 C 86 % 15.43 C
1293 15-07-2015 05:10:00 17.8 C 86 % 15.43 C
1294 15-07-2015 05:15:00 17.8 C 86 % 15.43 C
1295 15-07-2015 05:20:00 17.8 C 86 % 15.43 C
1296 15-07-2015 05:25:00 17.8 C 86 % 15.43 C
1297 15-07-2015 05:30:00 17.7 C 86 % 15.33 C
1298 15-07-2015 05:35:00 17.6 C 87 % 15.41 C
1299 15-07-2015 05:40:00 17.5 C 87 % 15.31 C
1300 15-07-2015 05:45:00 17.4 C 87 % 15.21 C
Sensor: Nr:Datum:Temp:Feuchte:Taupunkt:
Aussen-T/F 1301 15-07-2015 05:50:00 17.3 C 88 % 15.29 C
1302 15-07-2015 05:55:00 17.2 C 89 % 15.37 C
1303 15-07-2015 06:00:00 17.2 C 89 % 15.37 C
1304 15-07-2015 06:05:00 17.2 C 89 % 15.37 C
1305 15-07-2015 06:10:00 17.3 C 89 % 15.47 C
1306 15-07-2015 06:15:00 17.3 C 89 % 15.47 C
1307 15-07-2015 06:20:00 17.3 C 88 % 15.29 C
1308 15-07-2015 06:25:00 17.4 C 88 % 15.39 C
1309 15-07-2015 06:30:00 17.4 C 88 % 15.39 C
1310 15-07-2015 06:35:00 17.4 C 87 % 15.21 C
1311 15-07-2015 06:40:00 17.6 C 87 % 15.41 C
1312 15-07-2015 06:45:00 17.6 C 87 % 15.41 C
1313 15-07-2015 06:50:00 17.6 C 87 % 15.41 C
1314 15-07-2015 06:55:00 17.7 C 87 % 15.51 C
1315 15-07-2015 07:00:00 17.7 C 86 % 15.33 C
1316 15-07-2015 07:05:00 17.7 C 86 % 15.33 C
1317 15-07-2015 07:10:00 17.8 C 87 % 15.61 C
1318 15-07-2015 07:15:00 17.8 C 87 % 15.61 C
1319 15-07-2015 07:20:00 17.8 C 87 % 15.61 C
1320 15-07-2015 07:25:00 17.8 C 87 % 15.61 C
1321 15-07-2015 07:45:00 18.3 C 83 % 15.36 C
1322 15-07-2015 07:50:00 18.4 C 83 % 15.46 C
1323 15-07-2015 07:55:00 18.5 C 83 % 15.56 C
1324 15-07-2015 08:00:00 18.6 C 83 % 15.66 C
1325 15-07-2015 08:05:00 18.7 C 83 % 15.75 C
Sensor: Nr:Datum:Temp:Feuchte:Taupunkt:
Aussen-T/F 1326 15-07-2015 08:10:00 18.7 C 83 % 15.75 C
1327 15-07-2015 08:15:00 18.8 C 82 % 15.66 C
1328 15-07-2015 08:20:00 18.8 C 83 % 15.85 C
1329 15-07-2015 08:25:00 18.9 C 83 % 15.95 C
1330 15-07-2015 08:30:00 19 C 82 % 15.86 C
1331 15-07-2015 08:35:00 19.1 C 82 % 15.96 C
1332 15-07-2015 08:40:00 19.2 C 81 % 15.86 C
1333 15-07-2015 08:45:00 19.3 C 81 % 15.96 C
1334 15-07-2015 08:50:00 19.3 C 81 % 15.96 C
1335 15-07-2015 08:55:00 19.4 C 80 % 15.86 C
1336 15-07-2015 09:00:00 19.4 C 80 % 15.86 C
1337 15-07-2015 09:05:00 19.5 C 80 % 15.96 C
1338 15-07-2015 09:10:00 19.6 C 80 % 16.06 C
1339 15-07-2015 09:15:00 19.8 C 79 % 16.05 C
1340 15-07-2015 09:20:00 19.9 C 79 % 16.15 C
1341 15-07-2015 09:25:00 20.1 C 77 % 15.94 C
1342 15-07-2015 09:30:00 20.2 C 77 % 16.04 C
1343 15-07-2015 09:35:00 20.2 C 76 % 15.83 C
1344 15-07-2015 09:40:00 20.2 C 76 % 15.83 C
1345 15-07-2015 09:45:00 20.1 C 76 % 15.74 C
1346 15-07-2015 09:50:00 20.2 C 76 % 15.83 C
1347 15-07-2015 09:55:00 20.3 C 75 % 15.72 C
1348 15-07-2015 10:00:00 20.4 C 76 % 16.03 C
1349 15-07-2015 10:05:00 20.7 C 75 % 16.11 C
1350 15-07-2015 10:10:00 20.8 C 75 % 16.21 C
Sensor: Nr:Datum:Temp:Feuchte:Taupunkt:
Aussen-T/F 1351 15-07-2015 10:15:00 21.1 C 75 % 16.5 C
1352 15-07-2015 10:20:00 21.3 C 73 % 16.26 C
1353 15-07-2015 10:25:00 21.5 C 73 % 16.46 C
1354 15-07-2015 10:30:00 21.7 C 71 % 16.21 C
1355 15-07-2015 10:35:00 21.7 C 72 % 16.43 C
1356 15-07-2015 10:40:00 21.7 C 72 % 16.43 C
1357 15-07-2015 10:45:00 21.9 C 71 % 16.4 C
1358 15-07-2015 10:50:00 22 C 71 % 16.5 C
1359 15-07-2015 10:55:00 22.2 C 71 % 16.69 C
1360 15-07-2015 11:00:00 22.6 C 68 % 16.39 C
1361 15-07-2015 11:05:00 22.8 C 66 % 16.12 C
1362 15-07-2015 11:10:00 22.8 C 65 % 15.88 C
1363 15-07-2015 11:15:00 22.7 C 66 % 16.02 C
1364 15-07-2015 11:20:00 22.6 C 66 % 15.93 C
1365 15-07-2015 11:25:00 22.6 C 66 % 15.93 C
1366 15-07-2015 11:30:00 22.6 C 68 % 16.39 C
1367 15-07-2015 11:35:00 22.7 C 70 % 16.95 C
1368 15-07-2015 11:40:00 23.1 C 68 % 16.87 C
1369 15-07-2015 11:45:00 23.6 C 64 % 16.39 C
1370 15-07-2015 11:50:00 23.9 C 62 % 16.18 C
1371 15-07-2015 11:55:00 24 C 62 % 16.27 C
1372 15-07-2015 12:00:00 24.1 C 62 % 16.37 C
1373 15-07-2015 12:05:00 24.1 C 62 % 16.37 C
1374 15-07-2015 12:10:00 24.2 C 62 % 16.46 C
1375 15-07-2015 12:15:00 24.6 C 61 % 16.58 C
Sensor: Nr:Datum:Temp:Feuchte:Taupunkt:
Aussen-T/F 1376 15-07-2015 12:20:00 24.9 C 59 % 16.34 C
1377 15-07-2015 12:25:00 25.2 C 61 % 17.14 C
1378 15-07-2015 12:30:00 25.5 C 59 % 16.9 C
1379 15-07-2015 12:35:00 25.7 C 56 % 16.26 C
1380 15-07-2015 12:40:00 25.7 C 56 % 16.26 C
1381 15-07-2015 12:45:00 25.8 C 56 % 16.36 C
1382 15-07-2015 12:50:00 26.1 C 56 % 16.64 C
1383 15-07-2015 12:55:00 26.2 C 54 % 16.16 C
1384 15-07-2015 13:00:00 26.2 C 54 % 16.16 C
1385 15-07-2015 13:05:00 26.2 C 54 % 16.16 C
1386 15-07-2015 13:10:00 26.3 C 55 % 16.54 C
1387 15-07-2015 13:15:00 26.7 C 55 % 16.91 C
1388 15-07-2015 13:20:00 27.1 C 52 % 16.4 C
1389 15-07-2015 13:25:00 27.2 C 50 % 15.87 C
1390 15-07-2015 13:30:00 27.4 C 49 % 15.74 C
1391 15-07-2015 13:35:00 27.4 C 50 % 16.06 C
1392 15-07-2015 13:40:00 27.3 C 48 % 15.33 C
1393 15-07-2015 13:45:00 27.3 C 50 % 15.97 C
1394 15-07-2015 13:50:00 27.6 C 49 % 15.92 C
1395 15-07-2015 13:55:00 27.8 C 48 % 15.78 C
1396 15-07-2015 14:00:00 27.7 C 47 % 15.36 C
1397 15-07-2015 14:05:00 27.1 C 47 % 14.82 C
1398 15-07-2015 14:10:00 26.9 C 48 % 14.96 C
1399 15-07-2015 14:15:00 26.9 C 49 % 15.28 C
1400 15-07-2015 14:20:00 27.5 C 49 % 15.83 C
Sensor: Nr:Datum:Temp:Feuchte:Taupunkt:
Aussen-T/F 1401 15-07-2015 14:25:00 27.6 C 49 % 15.92 C
1402 15-07-2015 14:30:00 27.7 C 47 % 15.36 C
1403 15-07-2015 14:35:00 27.6 C 49 % 15.92 C
1404 15-07-2015 14:40:00 28.2 C 47 % 15.82 C
1405 15-07-2015 14:45:00 28.7 C 48 % 16.6 C
1406 15-07-2015 14:50:00 29.1 C 46 % 16.3 C
1407 15-07-2015 14:55:00 28.8 C 46 % 16.03 C
1408 15-07-2015 15:00:00 28.4 C 48 % 16.33 C
1409 15-07-2015 15:05:00 28.4 C 47 % 16 C
1410 15-07-2015 15:10:00 28.3 C 48 % 16.24 C
1411 15-07-2015 15:15:00 28.6 C 46 % 15.85 C
1412 15-07-2015 15:20:00 28.7 C 47 % 16.27 C
1413 15-07-2015 15:25:00 29.1 C 46 % 16.3 C
1414 15-07-2015 15:30:00 29.3 C 45 % 16.13 C
1415 15-07-2015 15:35:00 29.4 C 45 % 16.23 C
1416 15-07-2015 15:40:00 29.3 C 46 % 16.48 C
1417 15-07-2015 15:45:00 29.1 C 46 % 16.3 C
1418 15-07-2015 15:50:00 28.9 C 47 % 16.45 C
1419 15-07-2015 15:55:00 28.8 C 47 % 16.36 C
1420 15-07-2015 16:00:00 28.8 C 46 % 16.03 C
1421 15-07-2015 16:05:00 28.7 C 47 % 16.27 C
1422 15-07-2015 16:10:00 28.4 C 48 % 16.33 C
1423 15-07-2015 16:15:00 28.3 C 50 % 16.88 C
1424 15-07-2015 16:20:00 28.2 C 49 % 16.47 C
1425 15-07-2015 16:25:00 27.9 C 50 % 16.51 C
Sensor: Nr:Datum:Temp:Feuchte:Taupunkt:
Aussen-T/F 1426 15-07-2015 16:30:00 27.8 C 49 % 16.11 C
1427 15-07-2015 16:35:00 27.8 C 50 % 16.42 C
1428 15-07-2015 16:40:00 27.8 C 50 % 16.42 C
1429 15-07-2015 16:45:00 27.7 C 51 % 16.64 C
1430 15-07-2015 16:50:00 27.6 C 53 % 17.16 C
1431 15-07-2015 16:55:00 27.2 C 57 % 17.94 C
1432 15-07-2015 17:00:00 26.7 C 59 % 18.02 C
1433 15-07-2015 17:05:00 26.1 C 58 % 17.19 C
1434 15-07-2015 17:10:00 25.9 C 58 % 17 C
1435 15-07-2015 17:15:00 25.8 C 64 % 18.47 C
1436 15-07-2015 17:20:00 25.6 C 63 % 18.03 C
1437 15-07-2015 17:25:00 25.5 C 65 % 18.44 C
1438 15-07-2015 17:30:00 25.2 C 70 % 19.34 C
1439 15-07-2015 17:35:00 24.6 C 78 % 20.51 C
1440 15-07-2015 17:40:00 24.1 C 82 % 20.83 C
1441 15-07-2015 17:45:00 23.6 C 84 % 20.74 C
1442 15-07-2015 17:50:00 23.3 C 86 % 20.82 C
1443 15-07-2015 17:55:00 23 C 87 % 20.72 C
1444 15-07-2015 18:00:00 22.8 C 88 % 20.71 C
1445 15-07-2015 18:05:00 22.8 C 88 % 20.71 C
1446 15-07-2015 18:10:00 22.7 C 88 % 20.61 C
1447 15-07-2015 18:15:00 22.6 C 88 % 20.51 C
1448 15-07-2015 18:20:00 22.4 C 88 % 20.31 C
1449 15-07-2015 18:25:00 22.3 C 88 % 20.21 C
1450 15-07-2015 18:30:00 22.2 C 89 % 20.3 C
Sensor: Nr:Datum:Temp:Feuchte:Taupunkt:
Aussen-T/F 1451 15-07-2015 18:35:00 22.1 C 89 % 20.2 C
1452 15-07-2015 18:40:00 22 C 88 % 19.92 C
1453 15-07-2015 18:45:00 21.8 C 88 % 19.72 C
1454 15-07-2015 18:50:00 21.7 C 88 % 19.62 C
1455 15-07-2015 18:55:00 21.6 C 88 % 19.53 C
1456 15-07-2015 19:00:00 21.7 C 89 % 19.81 C
1457 15-07-2015 19:05:00 21.8 C 88 % 19.72 C
1458 15-07-2015 19:10:00 21.8 C 88 % 19.72 C
1459 15-07-2015 19:15:00 21.9 C 86 % 19.45 C
1460 15-07-2015 19:20:00 22 C 85 % 19.36 C
1461 15-07-2015 19:25:00 22 C 85 % 19.36 C
1462 15-07-2015 19:30:00 22.1 C 86 % 19.65 C
1463 15-07-2015 19:35:00 22.2 C 85 % 19.56 C
1464 15-07-2015 19:40:00 22.3 C 83 % 19.27 C
1465 15-07-2015 19:45:00 22.3 C 84 % 19.46 C
1466 15-07-2015 19:50:00 22.2 C 84 % 19.37 C
1467 15-07-2015 19:55:00 22.1 C 83 % 19.08 C
1468 15-07-2015 20:00:00 21.9 C 83 % 18.88 C
1469 15-07-2015 20:05:00 21.8 C 83 % 18.78 C
1470 15-07-2015 20:10:00 21.9 C 83 % 18.88 C
1471 15-07-2015 20:15:00 22 C 83 % 18.98 C
1472 15-07-2015 20:20:00 22 C 83 % 18.98 C
1473 15-07-2015 20:25:00 21.8 C 83 % 18.78 C
1474 15-07-2015 20:30:00 21.7 C 83 % 18.69 C
1475 15-07-2015 20:35:00 21.6 C 83 % 18.59 C
Sensor: Nr:Datum:Temp:Feuchte:Taupunkt:
Aussen-T/F 1476 15-07-2015 20:40:00 21.6 C 83 % 18.59 C
1477 15-07-2015 20:45:00 21.4 C 83 % 18.39 C
1478 15-07-2015 20:50:00 21.4 C 84 % 18.58 C
1479 15-07-2015 20:55:00 21.5 C 83 % 18.49 C
1480 15-07-2015 21:00:00 21.7 C 80 % 18.1 C
1481 15-07-2015 21:05:00 22.1 C 79 % 18.29 C
1482 15-07-2015 21:10:00 22.3 C 79 % 18.48 C
1483 15-07-2015 21:15:00 22.3 C 79 % 18.48 C
1484 15-07-2015 21:20:00 22.2 C 80 % 18.58 C
1485 15-07-2015 21:25:00 22.1 C 80 % 18.49 C
1486 15-07-2015 21:30:00 21.9 C 80 % 18.29 C
1487 15-07-2015 21:35:00 21.8 C 82 % 18.59 C
1488 15-07-2015 21:40:00 21.6 C 84 % 18.78 C
1489 15-07-2015 21:45:00 21.4 C 85 % 18.77 C
1490 15-07-2015 21:50:00 21.2 C 86 % 18.76 C
1491 15-07-2015 21:55:00 20.9 C 87 % 18.65 C
1492 15-07-2015 22:00:00 20.7 C 87 % 18.46 C
1493 15-07-2015 22:05:00 20.5 C 88 % 18.44 C
1494 15-07-2015 22:10:00 20.3 C 88 % 18.25 C
1495 15-07-2015 22:15:00 20.1 C 88 % 18.05 C
1496 15-07-2015 22:20:00 19.8 C 89 % 17.93 C
1497 15-07-2015 22:25:00 19.7 C 89 % 17.84 C
1498 15-07-2015 22:30:00 19.5 C 89 % 17.64 C
1499 15-07-2015 22:35:00 19.3 C 90 % 17.62 C
1500 15-07-2015 22:40:00 19.2 C 90 % 17.52 C
Sensor: Nr:Datum:Temp:Feuchte:Taupunkt:
Aussen-T/F 1501 15-07-2015 22:45:00 19.1 C 90 % 17.42 C
1502 15-07-2015 22:50:00 19.1 C 91 % 17.6 C
1503 15-07-2015 22:55:00 18.9 C 91 % 17.4 C
1504 15-07-2015 23:00:00 18.9 C 91 % 17.4 C
1505 15-07-2015 23:05:00 18.9 C 91 % 17.4 C
1506 15-07-2015 23:10:00 18.8 C 91 % 17.3 C
1507 15-07-2015 23:15:00 18.8 C 91 % 17.3 C
1508 15-07-2015 23:20:00 18.8 C 91 % 17.3 C
1509 15-07-2015 23:25:00 18.8 C 91 % 17.3 C
1510 15-07-2015 23:30:00 18.7 C 91 % 17.2 C
1511 15-07-2015 23:35:00 18.7 C 92 % 17.37 C
1512 15-07-2015 23:40:00 18.7 C 91 % 17.2 C
1513 15-07-2015 23:45:00 18.6 C 91 % 17.1 C
1514 15-07-2015 23:50:00 18.6 C 91 % 17.1 C
1515 15-07-2015 23:55:00 18.4 C 92 % 17.08 C
1516 16-07-2015 00:00:00 18.3 C 92 % 16.98 C
1517 16-07-2015 00:05:00 18.3 C 92 % 16.98 C
1518 16-07-2015 00:10:00 18.3 C 92 % 16.98 C
1519 16-07-2015 00:15:00 18.2 C 92 % 16.88 C
1520 16-07-2015 00:20:00 18.2 C 92 % 16.88 C
1521 16-07-2015 00:25:00 18.2 C 93 % 17.05 C
1522 16-07-2015 00:30:00 18.1 C 93 % 16.95 C
1523 16-07-2015 00:35:00 18.1 C 93 % 16.95 C
1524 16-07-2015 00:40:00 18.1 C 93 % 16.95 C
1525 16-07-2015 00:45:00 18.1 C 93 % 16.95 C
Sensor: Nr:Datum:Temp:Feuchte:Taupunkt:
Aussen-T/F 1526 16-07-2015 00:50:00 18.1 C 93 % 16.95 C
1527 16-07-2015 00:55:00 18.1 C 93 % 16.95 C
1528 16-07-2015 01:00:00 18.1 C 93 % 16.95 C
1529 16-07-2015 01:05:00 18 C 93 % 16.85 C
1530 16-07-2015 01:10:00 17.9 C 93 % 16.75 C
1531 16-07-2015 01:15:00 17.9 C 93 % 16.75 C
1532 16-07-2015 01:20:00 17.8 C 94 % 16.82 C
1533 16-07-2015 01:25:00 17.8 C 94 % 16.82 C
1534 16-07-2015 01:30:00 17.8 C 94 % 16.82 C
1535 16-07-2015 01:35:00 17.7 C 94 % 16.72 C
1536 16-07-2015 01:40:00 17.7 C 94 % 16.72 C
1537 16-07-2015 01:45:00 17.7 C 94 % 16.72 C
1538 16-07-2015 01:50:00 17.6 C 94 % 16.62 C
1539 16-07-2015 01:55:00 17.6 C 94 % 16.62 C
1540 16-07-2015 02:00:00 17.5 C 94 % 16.52 C
1541 16-07-2015 02:05:00 17.4 C 94 % 16.42 C
1542 16-07-2015 02:10:00 17.4 C 94 % 16.42 C
1543 16-07-2015 02:15:00 17.3 C 94 % 16.33 C
1544 16-07-2015 02:20:00 17.3 C 94 % 16.33 C
1545 16-07-2015 02:25:00 17.3 C 94 % 16.33 C
1546 16-07-2015 02:30:00 17.3 C 94 % 16.33 C
1547 16-07-2015 02:35:00 17.2 C 94 % 16.23 C
1548 16-07-2015 02:40:00 17.2 C 95 % 16.39 C
1549 16-07-2015 02:45:00 17.2 C 95 % 16.39 C
1550 16-07-2015 02:50:00 17.2 C 95 % 16.39 C
Sensor: Nr:Datum:Temp:Feuchte:Taupunkt:
Aussen-T/F 1551 16-07-2015 02:55:00 17.1 C 95 % 16.29 C
1552 16-07-2015 03:00:00 17.1 C 95 % 16.29 C
1553 16-07-2015 03:05:00 17.1 C 95 % 16.29 C
1554 16-07-2015 03:10:00 17 C 95 % 16.19 C
1555 16-07-2015 03:15:00 17 C 95 % 16.19 C
1556 16-07-2015 03:20:00 17 C 95 % 16.19 C
1557 16-07-2015 03:25:00 17.1 C 95 % 16.29 C
1558 16-07-2015 03:30:00 17.1 C 95 % 16.29 C
1559 16-07-2015 03:35:00 17.1 C 95 % 16.29 C
1560 16-07-2015 03:40:00 17.1 C 95 % 16.29 C
1561 16-07-2015 03:45:00 17 C 95 % 16.19 C
1562 16-07-2015 03:50:00 17 C 95 % 16.19 C
1563 16-07-2015 03:55:00 16.9 C 95 % 16.09 C
1564 16-07-2015 04:00:00 16.8 C 95 % 15.99 C
1565 16-07-2015 04:05:00 16.8 C 95 % 15.99 C
1566 16-07-2015 04:10:00 16.8 C 95 % 15.99 C
1567 16-07-2015 04:15:00 16.7 C 95 % 15.9 C
1568 16-07-2015 04:20:00 16.7 C 95 % 15.9 C
1569 16-07-2015 04:25:00 16.7 C 95 % 15.9 C
1570 16-07-2015 04:30:00 16.6 C 95 % 15.8 C
1571 16-07-2015 04:35:00 16.7 C 95 % 15.9 C
1572 16-07-2015 04:40:00 16.8 C 96 % 16.16 C
1573 16-07-2015 04:45:00 16.9 C 96 % 16.26 C
1574 16-07-2015 04:50:00 16.9 C 96 % 16.26 C
1575 16-07-2015 04:55:00 16.9 C 96 % 16.26 C
Sensor: Nr:Datum:Temp:Feuchte:Taupunkt:
Aussen-T/F 1576 16-07-2015 05:00:00 16.8 C 96 % 16.16 C
1577 16-07-2015 05:05:00 16.8 C 96 % 16.16 C
1578 16-07-2015 05:10:00 16.8 C 95 % 15.99 C
1579 16-07-2015 05:15:00 16.8 C 95 % 15.99 C
1580 16-07-2015 05:20:00 16.8 C 95 % 15.99 C
1581 16-07-2015 05:25:00 16.8 C 95 % 15.99 C
1582 16-07-2015 05:30:00 16.7 C 96 % 16.06 C
1583 16-07-2015 05:35:00 16.8 C 96 % 16.16 C
1584 16-07-2015 05:40:00 16.8 C 96 % 16.16 C
1585 16-07-2015 05:45:00 16.7 C 96 % 16.06 C
1586 16-07-2015 05:50:00 16.7 C 96 % 16.06 C
1587 16-07-2015 05:55:00 16.7 C 96 % 16.06 C
1588 16-07-2015 06:00:00 16.8 C 96 % 16.16 C
1589 16-07-2015 06:05:00 16.9 C 96 % 16.26 C
1590 16-07-2015 06:10:00 17 C 96 % 16.36 C
1591 16-07-2015 06:15:00 17.1 C 96 % 16.46 C
1592 16-07-2015 06:20:00 17.2 C 96 % 16.56 C
1593 16-07-2015 06:25:00 17.2 C 96 % 16.56 C
1594 16-07-2015 06:30:00 17.1 C 96 % 16.46 C
1595 16-07-2015 06:35:00 17.1 C 96 % 16.46 C
1596 16-07-2015 06:40:00 17.1 C 96 % 16.46 C
1597 16-07-2015 06:45:00 17.1 C 96 % 16.46 C
1598 16-07-2015 06:50:00 17.1 C 96 % 16.46 C
1599 16-07-2015 06:55:00 17.1 C 96 % 16.46 C
1600 16-07-2015 07:00:00 17.1 C 96 % 16.46 C
Sensor: Nr:Datum:Temp:Feuchte:Taupunkt:
Aussen-T/F 1601 16-07-2015 07:05:00 17.1 C 96 % 16.46 C
1602 16-07-2015 07:10:00 17.1 C 96 % 16.46 C
1603 16-07-2015 07:15:00 17.2 C 96 % 16.56 C
1604 16-07-2015 07:20:00 17.3 C 96 % 16.66 C
1605 16-07-2015 07:25:00 17.3 C 96 % 16.66 C
1606 16-07-2015 07:30:00 17.4 C 96 % 16.76 C
1607 16-07-2015 07:35:00 17.4 C 95 % 16.59 C
1608 16-07-2015 07:40:00 17.6 C 95 % 16.79 C
1609 16-07-2015 07:45:00 17.6 C 95 % 16.79 C
1610 16-07-2015 07:50:00 17.7 C 95 % 16.89 C
1611 16-07-2015 07:55:00 17.8 C 95 % 16.99 C
1612 16-07-2015 08:00:00 18 C 95 % 17.19 C
1613 16-07-2015 08:05:00 18.2 C 95 % 17.39 C
1614 16-07-2015 08:10:00 18.2 C 94 % 17.22 C
1615 16-07-2015 08:15:00 18.4 C 94 % 17.42 C
1616 16-07-2015 08:20:00 18.6 C 94 % 17.62 C
1617 16-07-2015 08:25:00 18.8 C 93 % 17.64 C
1618 16-07-2015 08:30:00 19.1 C 93 % 17.94 C
1619 16-07-2015 08:35:00 19.3 C 92 % 17.97 C
1620 16-07-2015 08:40:00 19.6 C 92 % 18.26 C
1621 16-07-2015 08:45:00 19.9 C 91 % 18.39 C
1622 16-07-2015 08:50:00 20.2 C 90 % 18.51 C
1623 16-07-2015 08:55:00 20.4 C 89 % 18.53 C
1624 16-07-2015 09:00:00 20.8 C 88 % 18.74 C
1625 16-07-2015 09:05:00 21 C 86 % 18.57 C
Sensor: Nr:Datum:Temp:Feuchte:Taupunkt:
Aussen-T/F 1626 16-07-2015 09:10:00 21.3 C 85 % 18.67 C
1627 16-07-2015 09:15:00 21.4 C 84 % 18.58 C
1628 16-07-2015 09:20:00 21.5 C 84 % 18.68 C
1629 16-07-2015 09:25:00 21.4 C 84 % 18.58 C
1630 16-07-2015 09:30:00 21.3 C 84 % 18.49 C
1631 16-07-2015 09:35:00 21.3 C 84 % 18.49 C
1632 16-07-2015 09:40:00 21.3 C 84 % 18.49 C
1633 16-07-2015 09:45:00 21.4 C 84 % 18.58 C
1634 16-07-2015 09:50:00 21.4 C 83 % 18.39 C
1635 16-07-2015 09:55:00 21.5 C 84 % 18.68 C
1636 16-07-2015 10:00:00 21.7 C 82 % 18.49 C
1637 16-07-2015 10:05:00 21.8 C 82 % 18.59 C
1638 16-07-2015 10:10:00 22.2 C 81 % 18.78 C
1639 16-07-2015 10:15:00 22.6 C 78 % 18.57 C
1640 16-07-2015 10:20:00 23 C 80 % 19.36 C
1641 16-07-2015 10:25:00 23.3 C 75 % 18.62 C
1642 16-07-2015 10:30:00 23.6 C 75 % 18.91 C
1643 16-07-2015 10:35:00 23.7 C 76 % 19.22 C
1644 16-07-2015 10:40:00 23.9 C 74 % 18.98 C
1645 16-07-2015 10:45:00 24.2 C 74 % 19.27 C
1646 16-07-2015 10:50:00 24.3 C 73 % 19.15 C
1647 16-07-2015 10:55:00 24.5 C 72 % 19.12 C
1648 16-07-2015 11:00:00 24.7 C 72 % 19.31 C
1649 16-07-2015 11:05:00 24.8 C 72 % 19.41 C
1650 16-07-2015 11:10:00 25.2 C 70 % 19.34 C
Sensor: Nr:Datum:Temp:Feuchte:Taupunkt:
Aussen-T/F 1651 16-07-2015 11:15:00 25.4 C 69 % 19.3 C
1652 16-07-2015 11:20:00 25.4 C 68 % 19.06 C
1653 16-07-2015 11:25:00 25.5 C 68 % 19.16 C
1654 16-07-2015 11:30:00 25.6 C 67 % 19.01 C
1655 16-07-2015 11:35:00 25.7 C 66 % 18.87 C
1656 16-07-2015 11:40:00 25.8 C 65 % 18.72 C
1657 16-07-2015 11:45:00 25.9 C 65 % 18.81 C
1658 16-07-2015 11:50:00 26.2 C 65 % 19.1 C
1659 16-07-2015 11:55:00 26.4 C 65 % 19.29 C
1660 16-07-2015 12:00:00 26.6 C 64 % 19.23 C
1661 16-07-2015 12:05:00 26.8 C 62 % 18.91 C
1662 16-07-2015 12:10:00 26.9 C 62 % 19 C
1663 16-07-2015 12:15:00 27.1 C 60 % 18.66 C
1664 16-07-2015 12:20:00 27.3 C 60 % 18.85 C
1665 16-07-2015 12:25:00 27.5 C 60 % 19.04 C
1666 16-07-2015 12:30:00 27.9 C 59 % 19.14 C
1667 16-07-2015 12:35:00 28 C 56 % 18.4 C
1668 16-07-2015 12:40:00 28.1 C 59 % 19.33 C
1669 16-07-2015 12:45:00 28.3 C 57 % 18.96 C
1670 16-07-2015 12:50:00 28.4 C 57 % 19.06 C
1671 16-07-2015 12:55:00 28.5 C 56 % 18.87 C
1672 16-07-2015 13:00:00 28.7 C 55 % 18.76 C
1673 16-07-2015 13:05:00 28.7 C 54 % 18.47 C
1674 16-07-2015 13:10:00 28.7 C 55 % 18.76 C
1675 16-07-2015 13:15:00 28.9 C 53 % 18.36 C
Sensor: Nr:Datum:Temp:Feuchte:Taupunkt:
Aussen-T/F 1676 16-07-2015 13:20:00 29.1 C 54 % 18.84 C
1677 16-07-2015 13:25:00 29.3 C 55 % 19.32 C
1678 16-07-2015 13:30:00 29.6 C 54 % 19.3 C
1679 16-07-2015 13:35:00 29.8 C 53 % 19.19 C
1680 16-07-2015 13:40:00 29.8 C 50 % 18.25 C
1681 16-07-2015 13:45:00 29.7 C 49 % 17.84 C
1682 16-07-2015 13:50:00 29.6 C 52 % 18.7 C
1683 16-07-2015 13:55:00 29.7 C 50 % 18.16 C
1684 16-07-2015 14:00:00 29.7 C 52 % 18.79 C
1685 16-07-2015 14:05:00 29.7 C 52 % 18.79 C
1686 16-07-2015 14:10:00 30.1 C 50 % 18.53 C
1687 16-07-2015 14:15:00 30.4 C 50 % 18.8 C
1688 16-07-2015 14:20:00 30.7 C 49 % 18.75 C
1689 16-07-2015 14:25:00 30.9 C 48 % 18.61 C
1690 16-07-2015 14:30:00 31.2 C 46 % 18.2 C
1691 16-07-2015 14:35:00 30.9 C 46 % 17.93 C
1692 16-07-2015 14:40:00 30.6 C 47 % 18 C
1693 16-07-2015 14:45:00 30.3 C 48 % 18.06 C
1694 16-07-2015 14:50:00 30.4 C 47 % 17.82 C
1695 16-07-2015 14:55:00 30.5 C 48 % 18.24 C
1696 16-07-2015 15:00:00 30.8 C 47 % 18.18 C
1697 16-07-2015 15:05:00 30.8 C 46 % 17.84 C
1698 16-07-2015 15:10:00 30.6 C 46 % 17.66 C
1699 16-07-2015 15:15:00 30.3 C 48 % 18.06 C
1700 16-07-2015 15:20:00 30.1 C 49 % 18.21 C
Sensor: Nr:Datum:Temp:Feuchte:Taupunkt:
Aussen-T/F 1701 16-07-2015 15:25:00 29.8 C 49 % 17.93 C
1702 16-07-2015 15:30:00 29.8 C 52 % 18.88 C
1703 16-07-2015 15:35:00 29.8 C 51 % 18.57 C
1704 16-07-2015 15:40:00 29.8 C 53 % 19.19 C
1705 16-07-2015 15:45:00 29.6 C 51 % 18.39 C
1706 16-07-2015 15:50:00 29.6 C 52 % 18.7 C
1707 16-07-2015 15:55:00 29.7 C 49 % 17.84 C
1708 16-07-2015 16:00:00 29.9 C 51 % 18.66 C
1709 16-07-2015 16:05:00 30.2 C 50 % 18.62 C
1710 16-07-2015 16:10:00 30.4 C 48 % 18.15 C
1711 16-07-2015 16:15:00 30.7 C 48 % 18.43 C
1712 16-07-2015 16:20:00 31.4 C 46 % 18.38 C
1713 16-07-2015 16:25:00 31.7 C 45 % 18.3 C
1714 16-07-2015 16:30:00 31.8 C 45 % 18.39 C
1715 16-07-2015 16:35:00 32.2 C 45 % 18.75 C
1716 16-07-2015 16:40:00 32.5 C 43 % 18.3 C
1717 16-07-2015 16:45:00 32.8 C 43 % 18.57 C
1718 16-07-2015 16:50:00 33.3 C 41 % 18.25 C
1719 16-07-2015 16:55:00 33.3 C 41 % 18.25 C
1720 16-07-2015 17:00:00 33.3 C 41 % 18.25 C
1721 16-07-2015 17:05:00 33.3 C 40 % 17.86 C
1722 16-07-2015 17:10:00 33.4 C 39 % 17.55 C
1723 16-07-2015 17:15:00 33.4 C 41 % 18.34 C
1724 16-07-2015 17:20:00 33.4 C 40 % 17.95 C
1725 16-07-2015 17:25:00 33.1 C 40 % 17.68 C
Sensor: Nr:Datum:Temp:Feuchte:Taupunkt:
Aussen-T/F 1726 16-07-2015 17:30:00 32.9 C 42 % 18.28 C
1727 16-07-2015 17:35:00 33.2 C 41 % 18.17 C
1728 16-07-2015 17:40:00 33.2 C 41 % 18.17 C
1729 16-07-2015 17:45:00 33.2 C 41 % 18.17 C
1730 16-07-2015 17:50:00 33.4 C 39 % 17.55 C
1731 16-07-2015 17:55:00 33.3 C 41 % 18.25 C
1732 16-07-2015 18:00:00 33.6 C 40 % 18.13 C
1733 16-07-2015 18:05:00 33.7 C 40 % 18.22 C
1734 16-07-2015 18:10:00 33.8 C 39 % 17.9 C
1735 16-07-2015 18:15:00 33.6 C 38 % 17.31 C
1736 16-07-2015 18:20:00 33.6 C 38 % 17.31 C
1737 16-07-2015 18:25:00 33.8 C 39 % 17.9 C
1738 16-07-2015 18:30:00 34.1 C 39 % 18.17 C
1739 16-07-2015 18:35:00 34.2 C 37 % 17.42 C
1740 16-07-2015 18:40:00 33.9 C 39 % 17.99 C
1741 16-07-2015 18:45:00 34.1 C 38 % 17.76 C
1742 16-07-2015 18:50:00 34 C 38 % 17.67 C
1743 16-07-2015 18:55:00 34.1 C 37 % 17.33 C
1744 16-07-2015 19:00:00 34 C 38 % 17.67 C
1745 16-07-2015 19:05:00 33.9 C 38 % 17.58 C
1746 16-07-2015 19:10:00 33.8 C 38 % 17.49 C
1747 16-07-2015 19:15:00 33.8 C 38 % 17.49 C
1748 16-07-2015 19:20:00 33.8 C 38 % 17.49 C
1749 16-07-2015 19:25:00 33.8 C 39 % 17.9 C
1750 16-07-2015 19:30:00 33.4 C 41 % 18.34 C
Sensor: Nr:Datum:Temp:Feuchte:Taupunkt:
Aussen-T/F 1751 16-07-2015 19:35:00 32.8 C 40 % 17.42 C
1752 16-07-2015 19:40:00 32.3 C 47 % 19.54 C
1753 16-07-2015 19:45:00 31.7 C 48 % 19.34 C
1754 16-07-2015 19:50:00 31 C 51 % 19.67 C
1755 16-07-2015 19:55:00 30.6 C 51 % 19.3 C
1756 16-07-2015 20:00:00 30.1 C 52 % 19.16 C
1757 16-07-2015 20:05:00 29.6 C 53 % 19 C
1758 16-07-2015 20:10:00 29.1 C 55 % 19.13 C
1759 16-07-2015 20:15:00 28.8 C 55 % 18.86 C
1760 16-07-2015 20:20:00 28.5 C 57 % 19.15 C
1761 16-07-2015 20:25:00 28.2 C 57 % 18.87 C
1762 16-07-2015 20:30:00 27.8 C 58 % 18.78 C
1763 16-07-2015 20:35:00 27.6 C 59 % 18.86 C
1764 16-07-2015 20:40:00 27.3 C 60 % 18.85 C
1765 16-07-2015 20:45:00 27 C 61 % 18.83 C
1766 16-07-2015 20:50:00 26.7 C 62 % 18.81 C
1767 16-07-2015 20:55:00 26.5 C 62 % 18.62 C
1768 16-07-2015 21:00:00 26.2 C 63 % 18.6 C
1769 16-07-2015 21:05:00 25.9 C 64 % 18.57 C
1770 16-07-2015 21:10:00 25.6 C 65 % 18.53 C
1771 16-07-2015 21:15:00 25.3 C 65 % 18.25 C
1772 16-07-2015 21:20:00 25.1 C 66 % 18.3 C
1773 16-07-2015 21:25:00 24.9 C 66 % 18.11 C
1774 16-07-2015 21:30:00 24.8 C 67 % 18.25 C
1775 16-07-2015 21:35:00 24.6 C 67 % 18.06 C
Sensor: Nr:Datum:Temp:Feuchte:Taupunkt:
Aussen-T/F 1776 16-07-2015 21:40:00 24.5 C 68 % 18.2 C
1777 16-07-2015 21:45:00 24.4 C 68 % 18.11 C
1778 16-07-2015 21:50:00 24.3 C 68 % 18.01 C
1779 16-07-2015 21:55:00 24.2 C 69 % 18.15 C
1780 16-07-2015 22:00:00 24.1 C 69 % 18.06 C
1781 16-07-2015 22:05:00 23.9 C 69 % 17.87 C
1782 16-07-2015 22:10:00 23.9 C 69 % 17.87 C
1783 16-07-2015 22:15:00 23.9 C 69 % 17.87 C
1784 16-07-2015 22:20:00 23.9 C 69 % 17.87 C
1785 16-07-2015 22:25:00 23.7 C 69 % 17.67 C
1786 16-07-2015 22:30:00 23.6 C 69 % 17.58 C
1787 16-07-2015 22:35:00 23.5 C 69 % 17.48 C
1788 16-07-2015 22:40:00 23.5 C 69 % 17.48 C
1789 16-07-2015 22:45:00 23.3 C 68 % 17.06 C
1790 16-07-2015 22:50:00 23.3 C 69 % 17.29 C
1791 16-07-2015 22:55:00 23.2 C 69 % 17.2 C
1792 16-07-2015 23:00:00 23.2 C 69 % 17.2 C
1793 16-07-2015 23:05:00 23.1 C 69 % 17.1 C
1794 16-07-2015 23:10:00 23.1 C 70 % 17.33 C
1795 16-07-2015 23:15:00 22.9 C 70 % 17.14 C
1796 16-07-2015 23:20:00 22.9 C 70 % 17.14 C
1797 16-07-2015 23:25:00 22.8 C 71 % 17.27 C
1798 16-07-2015 23:30:00 22.7 C 70 % 16.95 C
1799 16-07-2015 23:35:00 22.7 C 71 % 17.17 C
1800 16-07-2015 23:40:00 22.6 C 71 % 17.07 C
Sensor: Nr:Datum:Temp:Feuchte:Taupunkt:
Aussen-T/F 1801 16-07-2015 23:45:00 22.5 C 71 % 16.98 C
1802 16-07-2015 23:50:00 22.4 C 71 % 16.88 C
1803 16-07-2015 23:55:00 22.4 C 72 % 17.1 C
1804 17-07-2015 00:00:00 22.3 C 72 % 17.01 C
1805 17-07-2015 00:05:00 22.3 C 72 % 17.01 C
1806 17-07-2015 00:10:00 22.3 C 73 % 17.23 C
1807 17-07-2015 00:15:00 22.3 C 72 % 17.01 C
1808 17-07-2015 00:20:00 22.1 C 72 % 16.82 C
1809 17-07-2015 00:25:00 22 C 73 % 16.94 C
1810 17-07-2015 00:30:00 21.9 C 73 % 16.84 C
1811 17-07-2015 00:35:00 21.8 C 72 % 16.53 C
1812 17-07-2015 00:40:00 21.8 C 73 % 16.75 C
1813 17-07-2015 00:45:00 21.6 C 74 % 16.77 C
1814 17-07-2015 00:50:00 21.4 C 74 % 16.57 C
1815 17-07-2015 00:55:00 21.2 C 74 % 16.38 C
1816 17-07-2015 01:00:00 21.1 C 75 % 16.5 C
1817 17-07-2015 01:05:00 21.1 C 76 % 16.7 C
1818 17-07-2015 01:10:00 20.9 C 76 % 16.51 C
1819 17-07-2015 01:15:00 20.9 C 76 % 16.51 C
1820 17-07-2015 01:20:00 20.9 C 76 % 16.51 C
1821 17-07-2015 01:25:00 20.8 C 76 % 16.41 C
1822 17-07-2015 01:30:00 20.8 C 77 % 16.62 C
1823 17-07-2015 01:35:00 20.7 C 77 % 16.52 C
1824 17-07-2015 01:40:00 20.6 C 77 % 16.43 C
1825 17-07-2015 01:45:00 20.6 C 77 % 16.43 C
Sensor: Nr:Datum:Temp:Feuchte:Taupunkt:
Aussen-T/F 1826 17-07-2015 01:50:00 20.6 C 77 % 16.43 C
1827 17-07-2015 01:55:00 20.5 C 78 % 16.53 C
1828 17-07-2015 02:00:00 20.4 C 78 % 16.44 C
1829 17-07-2015 02:05:00 20.4 C 79 % 16.64 C
1830 17-07-2015 02:10:00 20.3 C 79 % 16.54 C
1831 17-07-2015 02:15:00 20.3 C 79 % 16.54 C
1832 17-07-2015 02:20:00 20.4 C 79 % 16.64 C
1833 17-07-2015 02:25:00 20.4 C 80 % 16.83 C
1834 17-07-2015 02:30:00 20.4 C 80 % 16.83 C
1835 17-07-2015 02:35:00 20.7 C 80 % 17.13 C
1836 17-07-2015 02:40:00 20.7 C 80 % 17.13 C
1837 17-07-2015 02:45:00 20.7 C 80 % 17.13 C
1838 17-07-2015 02:50:00 20.6 C 80 % 17.03 C
1839 17-07-2015 02:55:00 20.6 C 80 % 17.03 C
1840 17-07-2015 03:00:00 20.5 C 80 % 16.93 C
1841 17-07-2015 03:05:00 20.4 C 80 % 16.83 C
1842 17-07-2015 03:10:00 20.4 C 80 % 16.83 C
1843 17-07-2015 03:15:00 20.4 C 81 % 17.03 C
1844 17-07-2015 03:20:00 20.4 C 81 % 17.03 C
1845 17-07-2015 03:25:00 20.3 C 82 % 17.13 C
1846 17-07-2015 03:30:00 20.3 C 83 % 17.32 C
1847 17-07-2015 03:35:00 20.2 C 83 % 17.22 C
1848 17-07-2015 03:40:00 20.2 C 84 % 17.41 C
1849 17-07-2015 03:45:00 20.2 C 84 % 17.41 C
1850 17-07-2015 03:50:00 20.2 C 84 % 17.41 C
Sensor: Nr:Datum:Temp:Feuchte:Taupunkt:
Aussen-T/F 1851 17-07-2015 03:55:00 20.2 C 84 % 17.41 C
1852 17-07-2015 04:00:00 20.2 C 84 % 17.41 C
1853 17-07-2015 04:05:00 20.2 C 83 % 17.22 C
1854 17-07-2015 04:10:00 20.2 C 83 % 17.22 C
1855 17-07-2015 04:15:00 20.2 C 83 % 17.22 C
1856 17-07-2015 04:20:00 20.2 C 83 % 17.22 C
1857 17-07-2015 04:25:00 20.2 C 83 % 17.22 C
1858 17-07-2015 05:05:00 23.7 C 66 % 16.97 C
1859 17-07-2015 05:10:00 22.7 C 70 % 16.95 C
1860 17-07-2015 05:15:00 22.6 C 70 % 16.85 C
1861 17-07-2015 05:20:00 22.7 C 70 % 16.95 C
1862 17-07-2015 05:25:00 22.7 C 70 % 16.95 C
1863 17-07-2015 05:45:00 23.6 C 66 % 16.88 C
1864 17-07-2015 05:50:00 23.6 C 66 % 16.88 C
1865 17-07-2015 05:55:00 23.6 C 62 % 15.89 C
1866 17-07-2015 06:00:00 24.1 C 62 % 16.37 C
1867 17-07-2015 06:05:00 24.6 C 56 % 15.24 C
1868 17-07-2015 06:10:00 24.8 C 58 % 15.98 C
1869 17-07-2015 06:15:00 24.7 C 60 % 16.41 C
1870 17-07-2015 06:20:00 24.7 C 60 % 16.41 C
1871 17-07-2015 06:25:00 24.7 C 60 % 16.41 C
1872 17-07-2015 07:00:00 22.4 C 69 % 16.43 C
1873 17-07-2015 07:05:00 22.3 C 69 % 16.34 C
1874 17-07-2015 07:10:00 22.3 C 68 % 16.11 C
1875 17-07-2015 07:15:00 22.4 C 69 % 16.43 C
Sensor: Nr:Datum:Temp:Feuchte:Taupunkt:
Aussen-T/F 1876 17-07-2015 07:20:00 22.4 C 68 % 16.2 C
1877 17-07-2015 07:25:00 22.3 C 69 % 16.34 C
1878 17-07-2015 07:30:00 22.2 C 69 % 16.24 C
1879 17-07-2015 07:35:00 22.2 C 68 % 16.01 C
1880 17-07-2015 07:40:00 22.3 C 70 % 16.56 C
1881 17-07-2015 07:45:00 22.4 C 69 % 16.43 C
1882 17-07-2015 07:50:00 22.6 C 66 % 15.93 C
1883 17-07-2015 07:55:00 23.1 C 65 % 16.16 C
1884 17-07-2015 08:00:00 23.4 C 66 % 16.69 C
1885 17-07-2015 08:05:00 23.3 C 63 % 15.86 C
1886 17-07-2015 08:10:00 23.4 C 67 % 16.92 C
1887 17-07-2015 08:15:00 23.5 C 64 % 16.3 C
1888 17-07-2015 08:20:00 23.6 C 67 % 17.11 C
1889 17-07-2015 08:25:00 23.6 C 67 % 17.11 C
1890 17-07-2015 08:30:00 23.8 C 64 % 16.58 C
1891 17-07-2015 08:35:00 23.9 C 68 % 17.63 C
1892 17-07-2015 08:40:00 23.8 C 68 % 17.54 C
1893 17-07-2015 08:45:00 23.6 C 70 % 17.81 C
1894 17-07-2015 08:50:00 23.3 C 69 % 17.29 C
1895 17-07-2015 08:55:00 23.2 C 71 % 17.65 C
1896 17-07-2015 09:00:00 23.2 C 71 % 17.65 C
1897 17-07-2015 09:05:00 23.2 C 71 % 17.65 C
1898 17-07-2015 09:10:00 23.4 C 69 % 17.39 C
1899 17-07-2015 09:15:00 23.7 C 70 % 17.9 C
1900 17-07-2015 09:20:00 23.9 C 65 % 16.92 C
Sensor: Nr:Datum:Temp:Feuchte:Taupunkt:
Aussen-T/F 1901 17-07-2015 09:25:00 24.4 C 64 % 17.15 C
1902 17-07-2015 09:30:00 24.9 C 62 % 17.12 C
1903 17-07-2015 09:35:00 25.3 C 61 % 17.24 C
1904 17-07-2015 09:40:00 25.6 C 61 % 17.52 C
1905 17-07-2015 09:45:00 25.8 C 60 % 17.45 C
1906 17-07-2015 09:50:00 25.9 C 59 % 17.27 C
1907 17-07-2015 09:55:00 26.2 C 58 % 17.28 C
1908 17-07-2015 10:00:00 26.3 C 58 % 17.38 C
1909 17-07-2015 10:05:00 26.5 C 58 % 17.56 C
1910 17-07-2015 10:10:00 26.6 C 57 % 17.38 C
1911 17-07-2015 10:15:00 26.7 C 57 % 17.47 C
1912 17-07-2015 10:20:00 26.7 C 57 % 17.47 C
1913 17-07-2015 10:25:00 26.7 C 56 % 17.19 C
1914 17-07-2015 10:30:00 26.7 C 56 % 17.19 C
1915 17-07-2015 10:35:00 26.9 C 56 % 17.38 C
1916 17-07-2015 10:40:00 26.9 C 56 % 17.38 C
1917 17-07-2015 10:45:00 27.3 C 53 % 16.88 C
1918 17-07-2015 10:50:00 27.4 C 53 % 16.97 C
1919 17-07-2015 10:55:00 27.8 C 52 % 17.04 C
1920 17-07-2015 11:00:00 27.9 C 50 % 16.51 C
1921 17-07-2015 11:05:00 28.1 C 49 % 16.38 C
1922 17-07-2015 11:10:00 28.4 C 49 % 16.65 C
1923 17-07-2015 11:15:00 28.8 C 48 % 16.69 C
1924 17-07-2015 11:20:00 29.1 C 46 % 16.3 C
1925 17-07-2015 11:25:00 29.3 C 46 % 16.48 C
Sensor: Nr:Datum:Temp:Feuchte:Taupunkt:
Aussen-T/F 1926 17-07-2015 11:30:00 29.4 C 46 % 16.57 C
1927 17-07-2015 11:35:00 29.6 C 46 % 16.75 C
1928 17-07-2015 11:40:00 29.7 C 45 % 16.5 C
1929 17-07-2015 11:45:00 29.8 C 47 % 17.27 C
1930 17-07-2015 11:50:00 29.9 C 46 % 17.02 C
1931 17-07-2015 11:55:00 30.2 C 46 % 17.3 C
1932 17-07-2015 12:00:00 30.3 C 45 % 17.04 C
1933 17-07-2015 12:05:00 30.4 C 45 % 17.13 C
1934 17-07-2015 12:10:00 30.7 C 44 % 17.04 C
1935 17-07-2015 12:15:00 30.9 C 44 % 17.22 C
1936 17-07-2015 12:20:00 31.2 C 44 % 17.49 C
1937 17-07-2015 12:25:00 31.5 C 42 % 17.03 C
1938 17-07-2015 12:30:00 31.7 C 42 % 17.21 C
1939 17-07-2015 12:35:00 31.8 C 41 % 16.92 C
1940 17-07-2015 12:40:00 31.8 C 42 % 17.3 C
1941 17-07-2015 12:45:00 31.9 C 40 % 16.62 C
1942 17-07-2015 12:50:00 32.4 C 39 % 16.66 C
1943 17-07-2015 12:55:00 32.7 C 41 % 17.72 C
1944 17-07-2015 13:00:00 32.8 C 37 % 16.19 C
1945 17-07-2015 13:05:00 33.1 C 36 % 16.02 C
1946 17-07-2015 13:10:00 33.2 C 36 % 16.11 C
1947 17-07-2015 13:15:00 33.3 C 36 % 16.2 C
1948 17-07-2015 13:20:00 33.4 C 36 % 16.29 C
1949 17-07-2015 13:25:00 33.7 C 36 % 16.55 C
1950 17-07-2015 13:30:00 34 C 35 % 16.37 C
Sensor: Nr:Datum:Temp:Feuchte:Taupunkt:
Aussen-T/F 1951 17-07-2015 13:35:00 34.4 C 33 % 15.8 C
1952 17-07-2015 13:40:00 34.4 C 33 % 15.8 C
1953 17-07-2015 13:45:00 34.4 C 32 % 15.32 C
1954 17-07-2015 13:50:00 34.4 C 32 % 15.32 C
1955 17-07-2015 13:55:00 34.7 C 32 % 15.58 C
1956 17-07-2015 14:00:00 34.8 C 32 % 15.66 C
1957 17-07-2015 14:05:00 35.3 C 26 % 12.88 C
1958 17-07-2015 14:10:00 35.4 C 25 % 12.37 C
1959 17-07-2015 14:15:00 35.4 C 24 % 11.75 C
1960 17-07-2015 14:20:00 35.6 C 24 % 11.92 C
1961 17-07-2015 14:25:00 35.6 C 24 % 11.92 C
1962 17-07-2015 14:30:00 35.8 C 22 % 10.77 C
1963 17-07-2015 14:35:00 35.9 C 21 % 10.15 C
1964 17-07-2015 14:40:00 35.8 C 22 % 10.77 C
1965 17-07-2015 14:45:00 35.8 C 22 % 10.77 C
1966 17-07-2015 14:50:00 35.9 C 21 % 10.15 C
1967 17-07-2015 14:55:00 36.1 C 22 % 11.02 C
1968 17-07-2015 15:00:00 36.2 C 22 % 11.1 C
1969 17-07-2015 15:05:00 36.1 C 22 % 11.02 C
1970 17-07-2015 15:10:00 35.8 C 23 % 11.44 C
1971 17-07-2015 15:15:00 35.9 C 22 % 10.85 C
1972 17-07-2015 15:20:00 36.1 C 22 % 11.02 C
1973 17-07-2015 15:25:00 36.4 C 20 % 9.84 C
1974 17-07-2015 15:30:00 36.4 C 20 % 9.84 C
1975 17-07-2015 15:35:00 36.3 C 20 % 9.75 C
Sensor: Nr:Datum:Temp:Feuchte:Taupunkt:
Aussen-T/F 1976 17-07-2015 15:40:00 36.3 C 19 % 8.99 C
1977 17-07-2015 15:45:00 36.4 C 21 % 10.56 C
1978 17-07-2015 15:50:00 36.6 C 20 % 10 C
1979 17-07-2015 15:55:00 36.4 C 18 % 8.27 C
1980 17-07-2015 16:00:00 36.6 C 19 % 9.24 C
1981 17-07-2015 16:05:00 36.6 C 20 % 10 C
1982 17-07-2015 16:10:00 36.6 C 20 % 10 C
1983 17-07-2015 16:15:00 36.6 C 21 % 10.73 C
1984 17-07-2015 16:20:00 36.5 C 21 % 10.65 C
1985 17-07-2015 16:25:00 36.3 C 21 % 10.48 C
1986 17-07-2015 16:30:00 36.3 C 21 % 10.48 C
1987 17-07-2015 16:35:00 36.6 C 21 % 10.73 C
1988 17-07-2015 16:40:00 36.7 C 21 % 10.81 C
1989 17-07-2015 16:45:00 36.7 C 22 % 11.51 C
1990 17-07-2015 16:50:00 36.8 C 21 % 10.89 C
1991 17-07-2015 16:55:00 36.6 C 22 % 11.43 C
1992 17-07-2015 17:00:00 36.3 C 22 % 11.18 C
1993 17-07-2015 17:05:00 36.4 C 23 % 11.94 C
1994 17-07-2015 17:10:00 36.6 C 22 % 11.43 C
1995 17-07-2015 17:15:00 36.5 C 23 % 12.02 C
1996 17-07-2015 17:20:00 36.6 C 22 % 11.43 C
1997 17-07-2015 17:25:00 36.6 C 23 % 12.1 C
1998 17-07-2015 17:30:00 36.6 C 23 % 12.1 C
1999 17-07-2015 17:35:00 36.7 C 24 % 12.83 C
2000 17-07-2015 17:40:00 36.7 C 23 % 12.18 C
Sensor: Nr:Datum:Temp:Feuchte:Taupunkt:
Aussen-T/F 2001 17-07-2015 17:45:00 36.5 C 24 % 12.67 C
2002 17-07-2015 17:50:00 36.3 C 23 % 11.85 C
2003 17-07-2015 17:55:00 36.3 C 25 % 13.12 C
2004 17-07-2015 18:00:00 36.2 C 26 % 13.64 C
2005 17-07-2015 18:05:00 36.2 C 26 % 13.64 C
2006 17-07-2015 18:10:00 36.1 C 25 % 12.95 C
2007 17-07-2015 18:15:00 36.1 C 26 % 13.56 C
2008 17-07-2015 18:20:00 36.1 C 25 % 12.95 C
2009 17-07-2015 18:25:00 36.1 C 25 % 12.95 C
2010 17-07-2015 18:30:00 35.9 C 26 % 13.39 C
2011 17-07-2015 18:35:00 36.1 C 26 % 13.56 C
2012 17-07-2015 18:40:00 36 C 26 % 13.47 C
2013 17-07-2015 18:45:00 35.8 C 26 % 13.3 C
2014 17-07-2015 18:50:00 35.7 C 27 % 13.8 C
2015 17-07-2015 18:55:00 35.5 C 27 % 13.63 C
2016 17-07-2015 19:00:00 35.6 C 27 % 13.71 C
2017 17-07-2015 19:05:00 35.6 C 27 % 13.71 C
2018 17-07-2015 19:10:00 35.4 C 27 % 13.54 C
2019 17-07-2015 19:15:00 35.3 C 27 % 13.46 C
2020 17-07-2015 19:20:00 35.2 C 27 % 13.38 C
2021 17-07-2015 19:25:00 35 C 27 % 13.21 C
2022 17-07-2015 19:30:00 34.9 C 29 % 14.22 C
2023 17-07-2015 19:35:00 34.7 C 28 % 13.51 C
2024 17-07-2015 19:40:00 34.5 C 29 % 13.88 C
2025 17-07-2015 19:45:00 34.3 C 30 % 14.23 C
Sensor: Nr:Datum:Temp:Feuchte:Taupunkt:
Aussen-T/F 2026 17-07-2015 19:50:00 34.1 C 30 % 14.06 C
2027 17-07-2015 19:55:00 33.9 C 30 % 13.89 C
2028 17-07-2015 20:00:00 33.7 C 31 % 14.22 C
2029 17-07-2015 20:05:00 33.6 C 32 % 14.62 C
2030 17-07-2015 20:10:00 33.3 C 33 % 14.84 C
2031 17-07-2015 20:15:00 33.1 C 33 % 14.67 C
2032 17-07-2015 20:20:00 32.8 C 36 % 15.76 C
2033 17-07-2015 20:25:00 32.6 C 34 % 14.7 C
2034 17-07-2015 20:30:00 32.6 C 35 % 15.15 C
2035 17-07-2015 20:35:00 32.3 C 37 % 15.75 C
2036 17-07-2015 20:40:00 31.9 C 35 % 14.53 C
2037 17-07-2015 20:45:00 31.7 C 39 % 16.04 C
2038 17-07-2015 20:50:00 31.2 C 39 % 15.6 C
2039 17-07-2015 20:55:00 30.8 C 40 % 15.64 C
2040 17-07-2015 21:00:00 30.5 C 40 % 15.37 C
2041 17-07-2015 21:05:00 30.3 C 40 % 15.19 C
2042 17-07-2015 21:10:00 30 C 42 % 15.69 C
2043 17-07-2015 21:15:00 29.8 C 40 % 14.75 C
2044 17-07-2015 21:20:00 29.6 C 43 % 15.69 C
2045 17-07-2015 21:25:00 29.5 C 44 % 15.96 C
2046 17-07-2015 21:30:00 29.3 C 41 % 14.68 C
2047 17-07-2015 21:35:00 29 C 46 % 16.21 C
2048 17-07-2015 21:40:00 28.4 C 48 % 16.33 C
2049 17-07-2015 21:45:00 27.9 C 49 % 16.2 C
2050 17-07-2015 21:50:00 27.4 C 51 % 16.37 C
Sensor: Nr:Datum:Temp:Feuchte:Taupunkt:
Aussen-T/F 2051 17-07-2015 21:55:00 27.2 C 50 % 15.87 C
2052 17-07-2015 22:00:00 27.2 C 48 % 15.24 C
2053 17-07-2015 22:05:00 27.1 C 51 % 16.09 C
2054 17-07-2015 22:10:00 26.9 C 52 % 16.21 C
2055 17-07-2015 22:15:00 26.8 C 52 % 16.12 C
2056 17-07-2015 22:20:00 26.7 C 52 % 16.03 C
2057 17-07-2015 22:25:00 26.6 C 53 % 16.23 C
2058 17-07-2015 22:30:00 26.6 C 51 % 15.63 C
2059 17-07-2015 22:35:00 26.6 C 52 % 15.94 C
2060 17-07-2015 22:40:00 26.6 C 53 % 16.23 C
2061 17-07-2015 22:45:00 26.3 C 54 % 16.25 C
2062 17-07-2015 22:50:00 25.9 C 55 % 16.17 C
2063 17-07-2015 22:55:00 25.7 C 56 % 16.26 C
2064 17-07-2015 23:00:00 25.5 C 57 % 16.36 C
2065 17-07-2015 23:05:00 25.3 C 55 % 15.61 C
2066 17-07-2015 23:10:00 25.3 C 57 % 16.17 C
2067 17-07-2015 23:15:00 25.3 C 56 % 15.89 C
2068 17-07-2015 23:20:00 25.3 C 57 % 16.17 C
2069 17-07-2015 23:25:00 25.2 C 57 % 16.08 C
2070 17-07-2015 23:30:00 25.2 C 57 % 16.08 C
2071 17-07-2015 23:35:00 25.1 C 57 % 15.98 C
2072 17-07-2015 23:40:00 25.3 C 57 % 16.17 C
2073 17-07-2015 23:45:00 25.4 C 58 % 16.54 C
2074 17-07-2015 23:50:00 25.3 C 59 % 16.71 C
2075 17-07-2015 23:55:00 25.3 C 59 % 16.71 C
Sensor: Nr:Datum:Temp:Feuchte:Taupunkt:
Aussen-T/F 2076 18-07-2015 00:00:00 25.2 C 60 % 16.88 C
2077 18-07-2015 00:05:00 25 C 61 % 16.96 C
2078 18-07-2015 00:10:00 24.8 C 62 % 17.02 C
2079 18-07-2015 00:15:00 24.6 C 63 % 17.09 C
2080 18-07-2015 00:20:00 24.4 C 63 % 16.9 C
2081 18-07-2015 00:25:00 24.3 C 63 % 16.81 C
2082 18-07-2015 00:30:00 24.3 C 63 % 16.81 C
2083 18-07-2015 00:35:00 24.2 C 64 % 16.96 C
2084 18-07-2015 00:40:00 24.1 C 65 % 17.11 C
2085 18-07-2015 00:45:00 23.8 C 65 % 16.83 C
2086 18-07-2015 00:50:00 23.6 C 66 % 16.88 C
2087 18-07-2015 00:55:00 23.6 C 66 % 16.88 C
2088 18-07-2015 01:00:00 23.6 C 66 % 16.88 C
2089 18-07-2015 01:05:00 23.1 C 68 % 16.87 C
2090 18-07-2015 01:10:00 22.9 C 69 % 16.91 C
2091 18-07-2015 01:15:00 22.9 C 68 % 16.68 C
2092 18-07-2015 01:20:00 22.9 C 69 % 16.91 C
2093 18-07-2015 01:25:00 23 C 69 % 17.01 C
2094 18-07-2015 01:30:00 22.9 C 69 % 16.91 C
2095 18-07-2015 01:35:00 22.7 C 69 % 16.72 C
2096 18-07-2015 01:40:00 22.6 C 70 % 16.85 C
2097 18-07-2015 01:45:00 22.4 C 71 % 16.88 C
2098 18-07-2015 01:50:00 22.2 C 71 % 16.69 C
2099 18-07-2015 01:55:00 22.1 C 72 % 16.82 C
2100 18-07-2015 02:00:00 21.9 C 72 % 16.62 C
Sensor: Nr:Datum:Temp:Feuchte:Taupunkt:
Aussen-T/F 2101 18-07-2015 02:05:00 21.8 C 72 % 16.53 C
2102 18-07-2015 02:10:00 21.7 C 73 % 16.65 C
2103 18-07-2015 02:15:00 21.7 C 72 % 16.43 C
2104 18-07-2015 02:20:00 21.9 C 71 % 16.4 C
2105 18-07-2015 02:25:00 22.1 C 71 % 16.6 C
2106 18-07-2015 02:30:00 22.2 C 69 % 16.24 C
2107 18-07-2015 02:35:00 22.5 C 68 % 16.3 C
2108 18-07-2015 02:40:00 22.7 C 67 % 16.26 C
2109 18-07-2015 02:45:00 22.7 C 67 % 16.26 C
2110 18-07-2015 02:50:00 22.7 C 67 % 16.26 C
2111 18-07-2015 02:55:00 22.5 C 68 % 16.3 C
2112 18-07-2015 03:00:00 22.3 C 69 % 16.34 C
2113 18-07-2015 03:05:00 22.1 C 70 % 16.37 C
2114 18-07-2015 03:10:00 21.7 C 71 % 16.21 C
2115 18-07-2015 03:15:00 21.4 C 72 % 16.14 C
2116 18-07-2015 03:20:00 21.2 C 73 % 16.17 C
2117 18-07-2015 03:25:00 21 C 74 % 16.19 C
2118 18-07-2015 03:30:00 20.9 C 74 % 16.09 C
2119 18-07-2015 03:35:00 20.9 C 74 % 16.09 C
2120 18-07-2015 03:40:00 20.9 C 74 % 16.09 C
2121 18-07-2015 03:45:00 20.8 C 74 % 16 C
2122 18-07-2015 03:50:00 20.8 C 74 % 16 C
2123 18-07-2015 03:55:00 20.7 C 75 % 16.11 C
2124 18-07-2015 04:00:00 20.7 C 75 % 16.11 C
2125 18-07-2015 04:05:00 20.7 C 75 % 16.11 C
Sensor: Nr:Datum:Temp:Feuchte:Taupunkt:
Aussen-T/F 2126 18-07-2015 04:10:00 20.7 C 75 % 16.11 C
2127 18-07-2015 04:15:00 20.7 C 75 % 16.11 C
2128 18-07-2015 04:20:00 20.6 C 76 % 16.22 C
2129 18-07-2015 04:25:00 20.6 C 76 % 16.22 C
2130 18-07-2015 04:30:00 20.4 C 77 % 16.23 C
2131 18-07-2015 04:35:00 20.4 C 77 % 16.23 C
2132 18-07-2015 04:40:00 20.4 C 77 % 16.23 C
2133 18-07-2015 04:45:00 20.5 C 77 % 16.33 C
2134 18-07-2015 04:50:00 20.5 C 77 % 16.33 C
2135 18-07-2015 04:55:00 20.4 C 77 % 16.23 C
2136 18-07-2015 05:00:00 20.5 C 76 % 16.12 C
2137 18-07-2015 05:05:00 20.6 C 76 % 16.22 C
2138 18-07-2015 05:10:00 20.5 C 76 % 16.12 C
2139 18-07-2015 05:15:00 20.5 C 76 % 16.12 C
2140 18-07-2015 05:20:00 20.6 C 76 % 16.22 C
2141 18-07-2015 05:25:00 20.8 C 77 % 16.62 C
2142 18-07-2015 05:30:00 20.8 C 76 % 16.41 C
2143 18-07-2015 05:35:00 20.8 C 78 % 16.82 C
2144 18-07-2015 05:40:00 20.8 C 79 % 17.02 C
2145 18-07-2015 05:45:00 20.7 C 80 % 17.13 C
2146 18-07-2015 05:50:00 20.7 C 80 % 17.13 C
2147 18-07-2015 05:55:00 20.7 C 81 % 17.32 C
2148 18-07-2015 06:00:00 20.6 C 81 % 17.22 C
2149 18-07-2015 06:05:00 20.6 C 81 % 17.22 C
2150 18-07-2015 06:10:00 20.6 C 81 % 17.22 C
Sensor: Nr:Datum:Temp:Feuchte:Taupunkt:
Aussen-T/F 2151 18-07-2015 06:15:00 20.6 C 81 % 17.22 C
2152 18-07-2015 06:20:00 20.5 C 81 % 17.13 C
2153 18-07-2015 06:25:00 20.5 C 82 % 17.32 C
2154 18-07-2015 06:30:00 20.4 C 82 % 17.22 C
2155 18-07-2015 06:35:00 20.4 C 82 % 17.22 C
2156 18-07-2015 06:40:00 20.4 C 82 % 17.22 C
2157 18-07-2015 06:45:00 20.4 C 82 % 17.22 C
2158 18-07-2015 06:50:00 20.3 C 83 % 17.32 C
2159 18-07-2015 06:55:00 20.3 C 83 % 17.32 C
2160 18-07-2015 07:00:00 20.3 C 84 % 17.51 C
2161 18-07-2015 07:05:00 20.3 C 84 % 17.51 C
2162 18-07-2015 07:10:00 20.4 C 83 % 17.42 C
2163 18-07-2015 07:15:00 20.5 C 83 % 17.51 C
2164 18-07-2015 07:20:00 20.6 C 83 % 17.61 C
2165 18-07-2015 07:25:00 20.6 C 83 % 17.61 C
2166 18-07-2015 07:30:00 20.7 C 83 % 17.71 C
2167 18-07-2015 07:35:00 20.7 C 83 % 17.71 C
2168 18-07-2015 07:40:00 20.8 C 82 % 17.61 C
2169 18-07-2015 07:45:00 20.9 C 82 % 17.71 C
2170 18-07-2015 07:50:00 21 C 82 % 17.81 C
2171 18-07-2015 07:55:00 21.1 C 82 % 17.91 C
2172 18-07-2015 08:00:00 21.2 C 81 % 17.81 C
2173 18-07-2015 08:05:00 21.2 C 81 % 17.81 C
2174 18-07-2015 08:10:00 21.3 C 81 % 17.91 C
2175 18-07-2015 08:15:00 21.4 C 80 % 17.81 C
Sensor: Nr:Datum:Temp:Feuchte:Taupunkt:
Aussen-T/F 2176 18-07-2015 08:20:00 21.4 C 81 % 18 C
2177 18-07-2015 08:25:00 21.5 C 80 % 17.9 C
2178 18-07-2015 08:30:00 21.6 C 80 % 18 C
2179 18-07-2015 08:35:00 21.6 C 80 % 18 C
2180 18-07-2015 08:40:00 21.7 C 79 % 17.9 C
2181 18-07-2015 08:45:00 21.7 C 79 % 17.9 C
2182 18-07-2015 08:50:00 21.8 C 79 % 18 C
2183 18-07-2015 08:55:00 21.8 C 79 % 18 C
2184 18-07-2015 09:00:00 21.9 C 79 % 18.09 C
2185 18-07-2015 09:05:00 22.1 C 78 % 18.08 C
2186 18-07-2015 09:10:00 22.4 C 77 % 18.17 C
2187 18-07-2015 09:15:00 22.7 C 76 % 18.25 C
2188 18-07-2015 09:20:00 22.8 C 75 % 18.14 C
2189 18-07-2015 09:25:00 22.9 C 74 % 18.02 C
2190 18-07-2015 09:30:00 23.1 C 72 % 17.78 C
2191 18-07-2015 09:35:00 23.2 C 71 % 17.65 C
2192 18-07-2015 09:40:00 23.2 C 71 % 17.65 C
2193 18-07-2015 09:45:00 23.2 C 70 % 17.42 C
2194 18-07-2015 09:50:00 23.3 C 70 % 17.52 C
2195 18-07-2015 09:55:00 23.4 C 69 % 17.39 C
2196 18-07-2015 10:00:00 23.6 C 68 % 17.35 C
2197 18-07-2015 10:05:00 23.7 C 70 % 17.9 C
2198 18-07-2015 10:10:00 24 C 66 % 17.26 C
2199 18-07-2015 10:15:00 24.3 C 66 % 17.54 C
2200 18-07-2015 10:20:00 24.7 C 65 % 17.68 C
Sensor: Nr:Datum:Temp:Feuchte:Taupunkt:
Aussen-T/F 2201 18-07-2015 10:25:00 25.1 C 63 % 17.56 C
2202 18-07-2015 10:30:00 25.4 C 61 % 17.33 C
2203 18-07-2015 10:35:00 25.6 C 60 % 17.26 C
2204 18-07-2015 10:40:00 25.7 C 60 % 17.35 C
2205 18-07-2015 10:45:00 25.7 C 60 % 17.35 C
2206 18-07-2015 10:50:00 25.7 C 60 % 17.35 C
2207 18-07-2015 10:55:00 25.7 C 60 % 17.35 C
2208 18-07-2015 11:00:00 26.1 C 60 % 17.73 C
2209 18-07-2015 11:05:00 26.3 C 58 % 17.38 C
2210 18-07-2015 11:10:00 26.4 C 56 % 16.92 C
2211 18-07-2015 11:15:00 26.2 C 56 % 16.73 C
2212 18-07-2015 11:20:00 26.2 C 58 % 17.28 C
2213 18-07-2015 11:25:00 26.4 C 56 % 16.92 C
2214 18-07-2015 11:30:00 26.8 C 54 % 16.71 C
2215 18-07-2015 11:35:00 26.9 C 54 % 16.81 C
2216 18-07-2015 11:40:00 26.9 C 54 % 16.81 C
2217 18-07-2015 11:45:00 26.8 C 54 % 16.71 C
2218 18-07-2015 11:50:00 26.8 C 55 % 17 C
2219 18-07-2015 11:55:00 27.1 C 54 % 16.99 C
2220 18-07-2015 12:00:00 27.1 C 53 % 16.7 C
2221 18-07-2015 12:05:00 27.2 C 53 % 16.79 C
2222 18-07-2015 12:10:00 27.3 C 52 % 16.58 C
2223 18-07-2015 12:15:00 27.3 C 52 % 16.58 C
2224 18-07-2015 12:20:00 27.6 C 50 % 16.24 C
2225 18-07-2015 12:25:00 27.8 C 48 % 15.78 C
Sensor: Nr:Datum:Temp:Feuchte:Taupunkt:
Aussen-T/F 2226 18-07-2015 12:30:00 27.8 C 48 % 15.78 C
2227 18-07-2015 12:35:00 27.7 C 49 % 16.01 C
2228 18-07-2015 12:40:00 27.5 C 49 % 15.83 C
2229 18-07-2015 12:45:00 27.4 C 49 % 15.74 C
2230 18-07-2015 12:50:00 27.3 C 49 % 15.65 C
2231 18-07-2015 12:55:00 27.3 C 49 % 15.65 C
2232 18-07-2015 13:00:00 27.3 C 49 % 15.65 C
2233 18-07-2015 13:05:00 27.3 C 50 % 15.97 C
2234 18-07-2015 13:10:00 27.3 C 49 % 15.65 C
2235 18-07-2015 13:15:00 27.6 C 48 % 15.6 C
2236 18-07-2015 13:20:00 27.7 C 48 % 15.69 C
2237 18-07-2015 13:25:00 27.7 C 48 % 15.69 C
2238 18-07-2015 13:30:00 27.6 C 48 % 15.6 C
2239 18-07-2015 13:35:00 27.6 C 48 % 15.6 C
2240 18-07-2015 13:40:00 27.6 C 48 % 15.6 C
2241 18-07-2015 13:45:00 27.8 C 47 % 15.45 C
2242 18-07-2015 13:50:00 27.9 C 48 % 15.87 C
2243 18-07-2015 13:55:00 27.9 C 46 % 15.21 C
2244 18-07-2015 14:00:00 27.9 C 47 % 15.55 C
2245 18-07-2015 14:05:00 27.9 C 46 % 15.21 C
2246 18-07-2015 14:10:00 28.2 C 47 % 15.82 C
2247 18-07-2015 14:15:00 28.2 C 45 % 15.14 C
2248 18-07-2015 14:20:00 28.2 C 45 % 15.14 C
2249 18-07-2015 14:25:00 28.1 C 46 % 15.39 C
2250 18-07-2015 14:30:00 28.1 C 45 % 15.05 C
Sensor: Nr:Datum:Temp:Feuchte:Taupunkt:
Aussen-T/F 2251 18-07-2015 14:35:00 28 C 45 % 14.96 C
2252 18-07-2015 14:40:00 27.9 C 47 % 15.55 C
2253 18-07-2015 14:45:00 27.9 C 44 % 14.52 C
2254 18-07-2015 14:50:00 27.8 C 45 % 14.78 C
2255 18-07-2015 14:55:00 27.8 C 44 % 14.43 C
2256 18-07-2015 15:00:00 27.6 C 45 % 14.6 C
2257 18-07-2015 15:05:00 27.6 C 47 % 15.27 C
2258 18-07-2015 15:10:00 27.4 C 46 % 14.76 C
2259 18-07-2015 15:15:00 27.3 C 47 % 15 C
2260 18-07-2015 15:20:00 27.2 C 47 % 14.91 C
2261 18-07-2015 15:25:00 27.2 C 49 % 15.56 C
2262 18-07-2015 15:30:00 27.1 C 47 % 14.82 C
2263 18-07-2015 15:35:00 27.1 C 47 % 14.82 C
2264 18-07-2015 15:40:00 27 C 47 % 14.73 C
2265 18-07-2015 15:45:00 26.9 C 46 % 14.3 C
2266 18-07-2015 15:50:00 26.8 C 46 % 14.21 C
2267 18-07-2015 15:55:00 26.8 C 46 % 14.21 C
2268 18-07-2015 16:00:00 26.8 C 46 % 14.21 C
2269 18-07-2015 16:05:00 26.8 C 46 % 14.21 C
2270 18-07-2015 16:10:00 26.8 C 46 % 14.21 C
2271 18-07-2015 16:15:00 26.7 C 47 % 14.45 C
2272 18-07-2015 16:20:00 26.8 C 46 % 14.21 C
2273 18-07-2015 16:25:00 26.9 C 45 % 13.96 C
2274 18-07-2015 16:30:00 26.8 C 44 % 13.53 C
2275 18-07-2015 16:35:00 26.7 C 46 % 14.12 C
Sensor: Nr:Datum:Temp:Feuchte:Taupunkt:
Aussen-T/F 2276 18-07-2015 16:40:00 26.7 C 45 % 13.78 C
2277 18-07-2015 16:45:00 26.7 C 45 % 13.78 C
2278 18-07-2015 16:50:00 26.7 C 44 % 13.44 C
2279 18-07-2015 16:55:00 26.8 C 44 % 13.53 C
2280 18-07-2015 17:00:00 26.8 C 44 % 13.53 C
2281 18-07-2015 17:05:00 26.8 C 44 % 13.53 C
2282 18-07-2015 17:10:00 27 C 45 % 14.06 C
2283 18-07-2015 17:15:00 27.1 C 45 % 14.15 C
2284 18-07-2015 17:20:00 27.1 C 45 % 14.15 C
2285 18-07-2015 17:25:00 27.1 C 45 % 14.15 C
2286 18-07-2015 19:45:00 26.1 C 51 % 15.17 C
2287 18-07-2015 19:50:00 25.8 C 52 % 15.2 C
2288 18-07-2015 19:55:00 25.7 C 45 % 12.88 C
2289 18-07-2015 20:00:00 25.8 C 48 % 13.96 C
2290 18-07-2015 20:05:00 25.8 C 46 % 13.31 C
2291 18-07-2015 20:10:00 25.9 C 44 % 12.72 C
2292 18-07-2015 20:15:00 26.1 C 44 % 12.9 C
2293 18-07-2015 20:20:00 26.2 C 44 % 12.99 C
2294 18-07-2015 20:25:00 26.2 C 43 % 12.64 C
2295 18-07-2015 20:30:00 26.2 C 43 % 12.64 C
2296 18-07-2015 20:35:00 26 C 42 % 12.1 C
2297 18-07-2015 20:40:00 26 C 42 % 12.1 C
2298 18-07-2015 20:45:00 26 C 43 % 12.46 C
2299 18-07-2015 20:50:00 25.4 C 43 % 11.92 C
2300 18-07-2015 20:55:00 25.3 C 43 % 11.83 C
Sensor: Nr:Datum:Temp:Feuchte:Taupunkt:
Aussen-T/F 2301 18-07-2015 21:00:00 25.1 C 44 % 12 C
2302 18-07-2015 21:05:00 24.7 C 48 % 12.96 C
2303 18-07-2015 21:10:00 24 C 51 % 13.24 C
2304 18-07-2015 21:15:00 23.3 C 52 % 12.9 C
2305 18-07-2015 21:20:00 22.8 C 53 % 12.73 C
2306 18-07-2015 21:25:00 22.3 C 55 % 12.83 C
2307 18-07-2015 21:30:00 22 C 55 % 12.55 C
2308 18-07-2015 21:35:00 21.8 C 56 % 12.64 C
2309 18-07-2015 21:40:00 21.6 C 58 % 12.99 C
2310 18-07-2015 21:45:00 21.3 C 59 % 12.97 C
2311 18-07-2015 21:50:00 21.2 C 60 % 13.13 C
2312 18-07-2015 21:55:00 21.1 C 59 % 12.78 C
2313 18-07-2015 22:00:00 20.9 C 59 % 12.59 C
2314 18-07-2015 22:05:00 20.8 C 61 % 13.01 C
2315 18-07-2015 22:10:00 20.8 C 61 % 13.01 C
2316 18-07-2015 22:15:00 20.8 C 61 % 13.01 C
2317 18-07-2015 22:20:00 20.6 C 61 % 12.82 C
2318 18-07-2015 22:25:00 20.4 C 62 % 12.88 C
2319 18-07-2015 22:30:00 20.3 C 62 % 12.79 C
2320 18-07-2015 22:35:00 20.2 C 61 % 12.44 C
2321 18-07-2015 22:40:00 20.2 C 61 % 12.44 C
2322 18-07-2015 22:45:00 20.2 C 63 % 12.94 C
2323 18-07-2015 22:50:00 20.1 C 63 % 12.84 C
2324 18-07-2015 22:55:00 20 C 63 % 12.75 C
2325 18-07-2015 23:00:00 19.9 C 63 % 12.65 C
Sensor: Nr:Datum:Temp:Feuchte:Taupunkt:
Aussen-T/F 2326 18-07-2015 23:05:00 19.8 C 63 % 12.56 C
2327 18-07-2015 23:10:00 19.7 C 63 % 12.46 C
2328 18-07-2015 23:15:00 19.6 C 64 % 12.61 C
2329 18-07-2015 23:20:00 19.5 C 64 % 12.51 C
2330 18-07-2015 23:25:00 19.4 C 64 % 12.42 C
2331 18-07-2015 23:30:00 19.4 C 64 % 12.42 C
2332 18-07-2015 23:35:00 19.3 C 66 % 12.79 C
2333 18-07-2015 23:40:00 19.3 C 65 % 12.56 C
2334 18-07-2015 23:45:00 19.2 C 66 % 12.7 C
2335 18-07-2015 23:50:00 19.2 C 66 % 12.7 C
2336 18-07-2015 23:55:00 19.1 C 66 % 12.6 C
2337 19-07-2015 00:00:00 18.9 C 67 % 12.64 C
2338 19-07-2015 00:05:00 18.9 C 67 % 12.64 C
2339 19-07-2015 00:10:00 18.8 C 68 % 12.77 C
2340 19-07-2015 00:15:00 18.8 C 68 % 12.77 C
2341 19-07-2015 05:10:00 16.7 C 91 % 15.22 C
2342 19-07-2015 05:15:00 16.5 C 91 % 15.03 C
2343 19-07-2015 05:20:00 16.3 C 91 % 14.83 C
2344 19-07-2015 05:25:00 16.3 C 92 % 15 C
2345 19-07-2015 05:30:00 16.2 C 92 % 14.9 C
2346 19-07-2015 05:35:00 16.2 C 93 % 15.07 C
2347 19-07-2015 05:40:00 16.1 C 93 % 14.97 C
2348 19-07-2015 05:45:00 16.1 C 93 % 14.97 C
2349 19-07-2015 07:00:00 16.4 C 95 % 15.6 C
2350 19-07-2015 07:05:00 16.3 C 95 % 15.5 C
Sensor: Nr:Datum:Temp:Feuchte:Taupunkt:
Aussen-T/F 2351 19-07-2015 07:10:00 16.3 C 94 % 15.33 C
2352 19-07-2015 07:15:00 16.3 C 94 % 15.33 C
2353 19-07-2015 08:40:00 17.1 C 95 % 16.29 C
2354 19-07-2015 08:45:00 17.1 C 95 % 16.29 C
2355 19-07-2015 08:50:00 17.2 C 95 % 16.39 C
2356 19-07-2015 08:55:00 17.2 C 95 % 16.39 C
2357 19-07-2015 09:00:00 17.2 C 95 % 16.39 C
2358 19-07-2015 09:05:00 17.2 C 95 % 16.39 C
2359 19-07-2015 09:10:00 17.2 C 95 % 16.39 C
2360 19-07-2015 09:15:00 17.2 C 95 % 16.39 C
2361 19-07-2015 09:40:00 18 C 100 % 18 C
2362 19-07-2015 09:45:00 18 C 100 % 18 C
2363 19-07-2015 09:50:00 18.1 C 94 % 17.12 C
2364 19-07-2015 09:55:00 18.3 C 94 % 17.32 C
2365 19-07-2015 10:00:00 18.3 C 94 % 17.32 C
2366 19-07-2015 10:05:00 18.3 C 94 % 17.32 C
2367 19-07-2015 10:25:00 19.8 C 94 % 18.81 C
2368 19-07-2015 10:30:00 20.1 C 93 % 18.93 C
2369 19-07-2015 10:35:00 20.4 C 92 % 19.06 C
2370 19-07-2015 10:40:00 20.4 C 90 % 18.7 C
2371 19-07-2015 10:45:00 21 C 89 % 19.12 C
2372 19-07-2015 10:50:00 21.1 C 89 % 19.22 C
2373 19-07-2015 10:55:00 21.4 C 88 % 19.33 C
2374 19-07-2015 11:00:00 21.7 C 87 % 19.44 C
2375 19-07-2015 11:05:00 21.9 C 86 % 19.45 C
Sensor: Nr:Datum:Temp:Feuchte:Taupunkt:
Aussen-T/F 2376 19-07-2015 11:10:00 22.1 C 87 % 19.83 C
2377 19-07-2015 11:15:00 22.2 C 86 % 19.75 C
2378 19-07-2015 11:20:00 22.3 C 85 % 19.65 C
2379 19-07-2015 11:25:00 22.4 C 84 % 19.56 C
2380 19-07-2015 11:30:00 22.5 C 84 % 19.66 C
2381 19-07-2015 11:35:00 22.7 C 84 % 19.86 C
2382 19-07-2015 11:40:00 22.9 C 82 % 19.66 C
2383 19-07-2015 11:45:00 23.2 C 82 % 19.95 C
2384 19-07-2015 11:50:00 23.3 C 81 % 19.85 C
2385 19-07-2015 11:55:00 23.2 C 80 % 19.56 C
2386 19-07-2015 12:00:00 22.9 C 80 % 19.26 C
2387 19-07-2015 12:05:00 22.6 C 81 % 19.17 C
2388 19-07-2015 12:10:00 22.4 C 83 % 19.37 C
2389 19-07-2015 12:15:00 22.4 C 82 % 19.17 C
2390 19-07-2015 12:20:00 22.4 C 82 % 19.17 C
2391 19-07-2015 12:25:00 22.4 C 83 % 19.37 C
2392 19-07-2015 12:30:00 22.7 C 81 % 19.27 C
2393 19-07-2015 12:35:00 22.8 C 80 % 19.17 C
2394 19-07-2015 12:40:00 23.1 C 81 % 19.66 C
2395 19-07-2015 12:45:00 23.3 C 79 % 19.45 C
2396 19-07-2015 12:50:00 23.4 C 77 % 19.14 C
2397 19-07-2015 12:55:00 23.5 C 79 % 19.65 C
2398 19-07-2015 13:00:00 23.6 C 78 % 19.54 C
2399 19-07-2015 13:05:00 23.6 C 77 % 19.33 C
2400 19-07-2015 13:10:00 23.5 C 78 % 19.44 C
Sensor: Nr:Datum:Temp:Feuchte:Taupunkt:
Aussen-T/F 2401 19-07-2015 13:15:00 23.3 C 78 % 19.25 C
2402 19-07-2015 13:20:00 23.2 C 78 % 19.15 C
2403 19-07-2015 13:25:00 23.1 C 79 % 19.26 C
2404 19-07-2015 13:30:00 23 C 81 % 19.56 C
2405 19-07-2015 13:35:00 22.9 C 81 % 19.46 C
2406 19-07-2015 13:40:00 23 C 80 % 19.36 C
2407 19-07-2015 13:45:00 23.1 C 80 % 19.46 C
2408 19-07-2015 13:50:00 23.1 C 81 % 19.66 C
2409 19-07-2015 13:55:00 23.3 C 81 % 19.85 C
2410 19-07-2015 14:00:00 23.6 C 78 % 19.54 C
2411 19-07-2015 14:05:00 23.8 C 76 % 19.31 C
2412 19-07-2015 14:10:00 23.9 C 76 % 19.41 C
2413 19-07-2015 14:15:00 23.9 C 76 % 19.41 C
2414 19-07-2015 14:20:00 23.9 C 75 % 19.2 C
2415 19-07-2015 14:25:00 24 C 75 % 19.29 C
2416 19-07-2015 14:30:00 24.1 C 74 % 19.17 C
2417 19-07-2015 14:35:00 23.9 C 74 % 18.98 C
2418 19-07-2015 14:40:00 23.7 C 76 % 19.22 C
2419 19-07-2015 14:45:00 23.5 C 76 % 19.02 C
2420 19-07-2015 14:50:00 23.5 C 76 % 19.02 C
2421 19-07-2015 14:55:00 23.5 C 75 % 18.81 C
2422 19-07-2015 15:00:00 23.6 C 78 % 19.54 C
2423 19-07-2015 15:05:00 23.6 C 76 % 19.12 C
2424 19-07-2015 15:10:00 23.7 C 75 % 19 C
2425 19-07-2015 15:15:00 23.8 C 73 % 18.67 C
Sensor: Nr:Datum:Temp:Feuchte:Taupunkt:
Aussen-T/F 2426 19-07-2015 15:20:00 24.1 C 73 % 18.96 C
2427 19-07-2015 15:25:00 24.3 C 72 % 18.93 C
2428 19-07-2015 15:30:00 24.5 C 71 % 18.89 C
2429 19-07-2015 15:35:00 24.5 C 70 % 18.67 C
2430 19-07-2015 15:40:00 24.4 C 69 % 18.34 C
2431 19-07-2015 15:45:00 24.4 C 69 % 18.34 C
2432 19-07-2015 15:50:00 24.4 C 69 % 18.34 C
2433 19-07-2015 15:55:00 24.4 C 71 % 18.8 C
2434 19-07-2015 16:00:00 24.1 C 74 % 19.17 C
2435 19-07-2015 16:05:00 23.7 C 76 % 19.22 C
2436 19-07-2015 16:10:00 23.3 C 78 % 19.25 C
2437 19-07-2015 16:15:00 22.9 C 79 % 19.06 C
2438 19-07-2015 16:20:00 22.7 C 80 % 19.07 C
2439 19-07-2015 16:25:00 22.4 C 82 % 19.17 C
2440 19-07-2015 16:30:00 22.3 C 83 % 19.27 C
2441 19-07-2015 16:35:00 22.3 C 83 % 19.27 C
2442 19-07-2015 16:40:00 22.3 C 84 % 19.46 C
2443 19-07-2015 16:45:00 22.3 C 84 % 19.46 C
2444 19-07-2015 16:50:00 22.5 C 82 % 19.27 C
2445 19-07-2015 16:55:00 22.8 C 81 % 19.37 C
2446 19-07-2015 17:00:00 23.2 C 75 % 18.52 C
2447 19-07-2015 17:05:00 23.8 C 69 % 17.77 C
2448 19-07-2015 17:10:00 24 C 69 % 17.96 C
2449 19-07-2015 17:15:00 24.1 C 66 % 17.35 C
2450 19-07-2015 17:20:00 23.9 C 66 % 17.16 C
Sensor: Nr:Datum:Temp:Feuchte:Taupunkt:
Aussen-T/F 2451 19-07-2015 17:25:00 23.8 C 66 % 17.07 C
2452 19-07-2015 17:30:00 23.5 C 67 % 17.02 C
2453 19-07-2015 17:35:00 23.3 C 66 % 16.59 C
2454 19-07-2015 17:40:00 23.2 C 67 % 16.73 C
2455 19-07-2015 17:45:00 23.3 C 68 % 17.06 C
2456 19-07-2015 17:50:00 23.4 C 68 % 17.16 C
2457 19-07-2015 17:55:00 23.4 C 69 % 17.39 C
2458 19-07-2015 18:00:00 23.4 C 69 % 17.39 C
2459 19-07-2015 18:05:00 23.4 C 68 % 17.16 C
2460 19-07-2015 18:10:00 23.4 C 65 % 16.45 C
2461 19-07-2015 18:15:00 23.3 C 65 % 16.35 C
2462 19-07-2015 18:20:00 23.2 C 66 % 16.5 C
2463 19-07-2015 18:25:00 23.2 C 65 % 16.26 C
2464 19-07-2015 18:30:00 23.1 C 65 % 16.16 C
2465 19-07-2015 18:35:00 23.1 C 65 % 16.16 C
2466 19-07-2015 18:40:00 23 C 66 % 16.31 C
2467 19-07-2015 18:45:00 23 C 66 % 16.31 C
2468 19-07-2015 18:50:00 23 C 67 % 16.54 C
2469 19-07-2015 18:55:00 23 C 67 % 16.54 C
2470 19-07-2015 19:00:00 23 C 66 % 16.31 C
2471 19-07-2015 19:05:00 22.9 C 67 % 16.45 C
2472 19-07-2015 19:10:00 22.9 C 67 % 16.45 C
2473 19-07-2015 19:15:00 22.9 C 67 % 16.45 C
2474 19-07-2015 19:20:00 22.9 C 68 % 16.68 C
2475 19-07-2015 19:25:00 22.8 C 67 % 16.35 C
Sensor: Nr:Datum:Temp:Feuchte:Taupunkt:
Aussen-T/F 2476 19-07-2015 19:30:00 22.8 C 67 % 16.35 C
2477 19-07-2015 19:35:00 22.9 C 67 % 16.45 C
2478 19-07-2015 19:40:00 22.9 C 66 % 16.21 C
2479 19-07-2015 19:45:00 22.8 C 66 % 16.12 C
2480 19-07-2015 19:50:00 22.7 C 66 % 16.02 C
2481 19-07-2015 19:55:00 22.6 C 67 % 16.16 C
2482 19-07-2015 20:00:00 22.4 C 67 % 15.97 C
2483 19-07-2015 20:05:00 22.3 C 68 % 16.11 C
2484 19-07-2015 20:10:00 22.2 C 68 % 16.01 C
2485 19-07-2015 20:15:00 22.1 C 69 % 16.15 C
2486 19-07-2015 20:20:00 22 C 70 % 16.28 C
2487 19-07-2015 20:25:00 21.9 C 70 % 16.18 C
2488 19-07-2015 20:30:00 21.9 C 71 % 16.4 C
2489 19-07-2015 20:35:00 21.8 C 71 % 16.31 C
2490 19-07-2015 20:40:00 21.8 C 71 % 16.31 C
2491 19-07-2015 20:45:00 21.8 C 71 % 16.31 C
2492 19-07-2015 20:50:00 21.7 C 72 % 16.43 C
2493 19-07-2015 20:55:00 21.7 C 72 % 16.43 C
2494 19-07-2015 21:00:00 21.7 C 72 % 16.43 C
2495 19-07-2015 21:05:00 21.6 C 73 % 16.55 C
2496 19-07-2015 21:10:00 21.6 C 73 % 16.55 C
2497 19-07-2015 21:15:00 21.6 C 73 % 16.55 C
2498 19-07-2015 21:20:00 21.5 C 73 % 16.46 C
2499 19-07-2015 21:25:00 21.5 C 73 % 16.46 C
2500 19-07-2015 21:30:00 21.5 C 73 % 16.46 C
Sensor: Nr:Datum:Temp:Feuchte:Taupunkt:
Aussen-T/F 2501 20-07-2015 07:10:00 18.3 C 92 % 16.98 C
2502 20-07-2015 07:15:00 18.3 C 92 % 16.98 C
2503 20-07-2015 07:20:00 18.3 C 93 % 17.15 C
2504 20-07-2015 07:25:00 18.3 C 93 % 17.15 C
2505 20-07-2015 07:30:00 18.3 C 93 % 17.15 C
2506 20-07-2015 07:35:00 18.3 C 93 % 17.15 C
2507 20-07-2015 07:40:00 18.3 C 93 % 17.15 C
2508 20-07-2015 07:45:00 18.3 C 93 % 17.15 C
2509 20-07-2015 07:50:00 18.3 C 94 % 17.32 C
2510 20-07-2015 07:55:00 18.3 C 94 % 17.32 C
2511 20-07-2015 08:00:00 18.4 C 94 % 17.42 C
2512 20-07-2015 08:05:00 18.4 C 94 % 17.42 C
2513 20-07-2015 08:10:00 18.4 C 94 % 17.42 C
2514 20-07-2015 08:15:00 18.4 C 94 % 17.42 C
2515 20-07-2015 08:20:00 18.4 C 94 % 17.42 C
2516 20-07-2015 08:25:00 18.5 C 94 % 17.52 C
2517 20-07-2015 08:30:00 18.6 C 94 % 17.62 C
2518 20-07-2015 08:35:00 18.6 C 94 % 17.62 C
2519 20-07-2015 08:40:00 18.6 C 95 % 17.78 C
2520 20-07-2015 08:45:00 18.6 C 95 % 17.78 C
2521 20-07-2015 08:50:00 18.6 C 95 % 17.78 C
2522 20-07-2015 08:55:00 18.7 C 95 % 17.88 C
2523 20-07-2015 09:00:00 18.7 C 95 % 17.88 C
2524 20-07-2015 09:05:00 18.8 C 95 % 17.98 C
2525 20-07-2015 09:10:00 18.9 C 95 % 18.08 C
Sensor: Nr:Datum:Temp:Feuchte:Taupunkt:
Aussen-T/F 2526 20-07-2015 09:15:00 18.9 C 95 % 18.08 C
2527 20-07-2015 09:20:00 18.9 C 95 % 18.08 C
2528 20-07-2015 09:40:00 19.2 C 94 % 18.21 C
2529 20-07-2015 09:45:00 19.2 C 94 % 18.21 C
2530 20-07-2015 09:50:00 19.3 C 95 % 18.48 C
2531 20-07-2015 09:55:00 19.4 C 94 % 18.41 C
2532 20-07-2015 10:00:00 19.4 C 94 % 18.41 C
2533 20-07-2015 10:05:00 19.5 C 94 % 18.51 C
2534 20-07-2015 10:10:00 19.6 C 94 % 18.61 C
2535 20-07-2015 10:15:00 19.8 C 94 % 18.81 C
2536 20-07-2015 10:20:00 20 C 94 % 19 C
2537 20-07-2015 10:25:00 20.1 C 94 % 19.1 C
2538 20-07-2015 10:30:00 20.3 C 94 % 19.3 C
2539 20-07-2015 10:35:00 20.3 C 92 % 18.96 C
2540 20-07-2015 10:40:00 20.5 C 92 % 19.15 C
2541 20-07-2015 10:45:00 20.6 C 92 % 19.25 C
2542 20-07-2015 10:50:00 20.6 C 92 % 19.25 C
2543 20-07-2015 10:55:00 20.6 C 91 % 19.08 C
2544 20-07-2015 11:00:00 20.6 C 91 % 19.08 C
2545 20-07-2015 11:05:00 20.7 C 92 % 19.35 C
2546 20-07-2015 11:10:00 20.8 C 92 % 19.45 C
2547 20-07-2015 11:15:00 20.9 C 91 % 19.37 C
2548 20-07-2015 11:20:00 21.1 C 92 % 19.75 C
2549 20-07-2015 11:25:00 21.3 C 92 % 19.95 C
2550 20-07-2015 11:30:00 21.4 C 91 % 19.87 C
Sensor: Nr:Datum:Temp:Feuchte:Taupunkt:
Aussen-T/F 2551 20-07-2015 11:35:00 21.6 C 90 % 19.89 C
2552 20-07-2015 11:40:00 21.8 C 90 % 20.09 C
2553 20-07-2015 11:45:00 21.9 C 88 % 19.82 C
2554 20-07-2015 11:50:00 22 C 89 % 20.1 C
2555 20-07-2015 11:55:00 22.1 C 87 % 19.83 C
2556 20-07-2015 12:00:00 22.1 C 89 % 20.2 C
2557 20-07-2015 12:05:00 22.1 C 88 % 20.02 C
2558 20-07-2015 12:10:00 22.1 C 87 % 19.83 C
2559 20-07-2015 12:15:00 22.2 C 87 % 19.93 C
2560 20-07-2015 12:20:00 22.3 C 86 % 19.84 C
2561 20-07-2015 12:25:00 22.6 C 87 % 20.32 C
2562 20-07-2015 12:30:00 22.9 C 84 % 20.05 C
2563 20-07-2015 12:35:00 23.5 C 84 % 20.64 C
2564 20-07-2015 12:40:00 24 C 80 % 20.33 C
2565 20-07-2015 12:45:00 24.4 C 79 % 20.52 C
2566 20-07-2015 12:50:00 24.4 C 77 % 20.1 C
2567 20-07-2015 12:55:00 24.3 C 77 % 20.01 C
2568 20-07-2015 13:00:00 24.1 C 78 % 20.02 C
2569 20-07-2015 13:05:00 24.2 C 78 % 20.12 C
2570 20-07-2015 13:10:00 24.4 C 77 % 20.1 C
2571 20-07-2015 13:15:00 24.4 C 77 % 20.1 C
2572 20-07-2015 13:20:00 24.4 C 79 % 20.52 C
2573 20-07-2015 13:25:00 24.4 C 76 % 19.89 C
2574 20-07-2015 13:30:00 24.4 C 75 % 19.68 C
2575 20-07-2015 13:35:00 24.4 C 78 % 20.31 C
Sensor: Nr:Datum:Temp:Feuchte:Taupunkt:
Aussen-T/F 2576 20-07-2015 13:40:00 24.3 C 79 % 20.42 C
2577 20-07-2015 13:45:00 24 C 78 % 19.92 C
2578 20-07-2015 13:50:00 23.7 C 80 % 20.04 C
2579 20-07-2015 13:55:00 23.6 C 81 % 20.15 C
2580 20-07-2015 14:00:00 23.6 C 82 % 20.34 C
2581 20-07-2015 14:05:00 23.4 C 81 % 19.95 C
2582 20-07-2015 14:10:00 23.2 C 84 % 20.34 C
2583 20-07-2015 14:15:00 22.8 C 84 % 19.95 C
2584 20-07-2015 14:20:00 22.6 C 86 % 20.14 C
2585 20-07-2015 14:25:00 22.4 C 89 % 20.5 C
2586 20-07-2015 14:30:00 22.3 C 90 % 20.58 C
2587 20-07-2015 14:35:00 22.2 C 90 % 20.48 C
2588 20-07-2015 14:40:00 22.1 C 90 % 20.38 C
2589 20-07-2015 14:45:00 21.9 C 91 % 20.36 C
2590 20-07-2015 14:50:00 21.9 C 92 % 20.54 C
2591 20-07-2015 14:55:00 21.9 C 92 % 20.54 C
2592 20-07-2015 15:00:00 21.9 C 93 % 20.72 C
2593 20-07-2015 15:05:00 21.9 C 93 % 20.72 C
2594 20-07-2015 15:45:00 22.6 C 91 % 21.05 C
2595 20-07-2015 15:50:00 22.8 C 91 % 21.25 C
2596 20-07-2015 15:55:00 22.8 C 90 % 21.07 C
2597 20-07-2015 16:00:00 23 C 91 % 21.45 C
2598 20-07-2015 16:05:00 23.3 C 92 % 21.93 C
2599 20-07-2015 16:10:00 23.6 C 91 % 22.04 C
2600 20-07-2015 16:15:00 23.9 C 89 % 21.97 C
Sensor: Nr:Datum:Temp:Feuchte:Taupunkt:
Aussen-T/F 2601 20-07-2015 16:20:00 24.1 C 86 % 21.61 C
2602 20-07-2015 16:25:00 24.2 C 89 % 22.27 C
2603 20-07-2015 16:30:00 24.1 C 88 % 21.99 C
2604 20-07-2015 16:35:00 24.2 C 84 % 21.32 C
2605 20-07-2015 16:40:00 24.4 C 84 % 21.52 C
2606 20-07-2015 16:45:00 24.7 C 86 % 22.2 C
2607 20-07-2015 16:50:00 25.1 C 81 % 21.61 C
2608 20-07-2015 16:55:00 25.8 C 80 % 22.08 C
2609 20-07-2015 17:00:00 26.1 C 80 % 22.38 C
2610 20-07-2015 17:05:00 25.8 C 77 % 21.46 C
2611 20-07-2015 17:10:00 25.6 C 81 % 22.09 C
2612 20-07-2015 17:15:00 25.4 C 81 % 21.9 C
2613 20-07-2015 17:20:00 25.4 C 79 % 21.49 C
2614 20-07-2015 17:25:00 25.3 C 80 % 21.6 C
2615 20-07-2015 17:30:00 25.1 C 79 % 21.2 C
2616 20-07-2015 17:35:00 24.9 C 81 % 21.41 C
2617 20-07-2015 17:40:00 24.9 C 81 % 21.41 C
2618 20-07-2015 17:45:00 24.8 C 81 % 21.31 C
2619 20-07-2015 17:50:00 24.8 C 82 % 21.52 C
2620 20-07-2015 17:55:00 24.8 C 80 % 21.11 C
2621 20-07-2015 18:00:00 24.8 C 77 % 20.49 C
2622 20-07-2015 18:05:00 24.9 C 79 % 21 C
2623 20-07-2015 18:10:00 24.8 C 78 % 20.7 C
2624 20-07-2015 18:15:00 24.7 C 79 % 20.81 C
2625 20-07-2015 18:20:00 24.7 C 77 % 20.39 C
Sensor: Nr:Datum:Temp:Feuchte:Taupunkt:
Aussen-T/F 2626 20-07-2015 18:25:00 24.7 C 79 % 20.81 C
2627 20-07-2015 18:30:00 24.6 C 80 % 20.92 C
2628 20-07-2015 18:35:00 24.5 C 83 % 21.42 C
2629 20-07-2015 18:40:00 24.2 C 85 % 21.52 C
2630 20-07-2015 18:45:00 23.9 C 84 % 21.03 C
2631 20-07-2015 18:50:00 23.9 C 82 % 20.64 C
2632 20-07-2015 18:55:00 24.1 C 85 % 21.42 C
2633 20-07-2015 19:00:00 23.9 C 85 % 21.22 C
2634 20-07-2015 19:05:00 23.8 C 85 % 21.12 C
2635 20-07-2015 19:10:00 23.8 C 84 % 20.93 C
2636 20-07-2015 19:15:00 23.9 C 83 % 20.83 C
2637 20-07-2015 19:20:00 23.8 C 84 % 20.93 C
2638 20-07-2015 19:25:00 23.6 C 85 % 20.93 C
2639 20-07-2015 19:30:00 23.4 C 87 % 21.11 C
2640 20-07-2015 19:35:00 23.1 C 88 % 21 C
2641 20-07-2015 19:40:00 22.9 C 88 % 20.81 C
2642 20-07-2015 19:45:00 22.9 C 89 % 20.99 C
2643 20-07-2015 19:50:00 22.8 C 89 % 20.89 C
2644 20-07-2015 19:55:00 22.6 C 90 % 20.87 C
2645 20-07-2015 20:00:00 22.4 C 90 % 20.68 C
2646 20-07-2015 20:05:00 22.4 C 89 % 20.5 C
2647 20-07-2015 20:10:00 22.7 C 88 % 20.61 C
2648 20-07-2015 20:15:00 22.7 C 88 % 20.61 C
2649 20-07-2015 20:20:00 22.7 C 89 % 20.79 C
2650 20-07-2015 20:25:00 22.5 C 89 % 20.59 C
Sensor: Nr:Datum:Temp:Feuchte:Taupunkt:
Aussen-T/F 2651 20-07-2015 20:30:00 22.4 C 90 % 20.68 C
2652 20-07-2015 20:35:00 22.3 C 90 % 20.58 C
2653 20-07-2015 20:40:00 22.2 C 90 % 20.48 C
2654 20-07-2015 20:45:00 22.1 C 90 % 20.38 C
2655 20-07-2015 20:50:00 22 C 90 % 20.28 C
2656 20-07-2015 20:55:00 21.9 C 91 % 20.36 C
2657 20-07-2015 21:00:00 21.8 C 91 % 20.26 C
2658 20-07-2015 21:05:00 21.8 C 91 % 20.26 C
2659 20-07-2015 21:10:00 21.7 C 91 % 20.17 C
2660 20-07-2015 21:15:00 21.6 C 92 % 20.24 C
2661 20-07-2015 21:20:00 21.5 C 92 % 20.14 C
2662 20-07-2015 21:25:00 21.4 C 92 % 20.05 C
2663 20-07-2015 21:30:00 21.3 C 93 % 20.12 C
2664 20-07-2015 21:35:00 21.4 C 93 % 20.22 C
2665 20-07-2015 21:40:00 21.4 C 93 % 20.22 C
2666 20-07-2015 21:45:00 21.4 C 92 % 20.05 C
2667 20-07-2015 21:50:00 21.3 C 93 % 20.12 C
2668 20-07-2015 21:55:00 21.3 C 93 % 20.12 C
2669 20-07-2015 22:00:00 21.2 C 93 % 20.02 C
2670 20-07-2015 22:05:00 21.1 C 93 % 19.92 C
2671 20-07-2015 22:10:00 20.9 C 93 % 19.72 C
2672 20-07-2015 22:15:00 20.8 C 93 % 19.63 C
2673 20-07-2015 22:20:00 20.7 C 93 % 19.53 C
2674 20-07-2015 22:25:00 20.6 C 93 % 19.43 C
2675 20-07-2015 22:30:00 20.5 C 93 % 19.33 C
Sensor: Nr:Datum:Temp:Feuchte:Taupunkt:
Aussen-T/F 2676 20-07-2015 22:35:00 20.4 C 93 % 19.23 C
2677 20-07-2015 22:40:00 20.4 C 94 % 19.4 C
2678 20-07-2015 22:45:00 20.3 C 93 % 19.13 C
2679 20-07-2015 22:50:00 20.3 C 94 % 19.3 C
2680 20-07-2015 22:55:00 20.3 C 94 % 19.3 C
2681 21-07-2015 02:25:00 18.7 C 95 % 17.88 C
2682 21-07-2015 02:30:00 18.7 C 95 % 17.88 C
2683 21-07-2015 02:35:00 18.8 C 96 % 18.15 C
2684 21-07-2015 02:40:00 18.8 C 96 % 18.15 C
2685 21-07-2015 03:55:00 19 C 96 % 18.35 C
2686 21-07-2015 04:00:00 19 C 96 % 18.35 C
2687 21-07-2015 04:05:00 18.9 C 96 % 18.25 C
2688 21-07-2015 04:10:00 18.9 C 96 % 18.25 C
2689 21-07-2015 04:15:00 18.9 C 96 % 18.25 C
2690 21-07-2015 04:20:00 18.8 C 96 % 18.15 C
2691 21-07-2015 04:25:00 18.8 C 96 % 18.15 C
2692 21-07-2015 04:30:00 18.8 C 96 % 18.15 C
2693 21-07-2015 05:30:00 18.3 C 96 % 17.65 C
2694 21-07-2015 05:35:00 18.3 C 96 % 17.65 C
2695 21-07-2015 07:25:00 18.4 C 97 % 17.91 C
2696 21-07-2015 07:30:00 18.6 C 96 % 17.95 C
2697 21-07-2015 07:35:00 18.7 C 96 % 18.05 C
2698 21-07-2015 07:40:00 18.8 C 97 % 18.31 C
2699 21-07-2015 07:45:00 18.8 C 97 % 18.31 C
2700 21-07-2015 08:05:00 19.9 C 94 % 18.91 C
Sensor: Nr:Datum:Temp:Feuchte:Taupunkt:
Aussen-T/F 2701 21-07-2015 08:10:00 20.3 C 93 % 19.13 C
2702 21-07-2015 08:15:00 20.7 C 91 % 19.18 C
2703 21-07-2015 08:20:00 21.1 C 90 % 19.39 C
2704 21-07-2015 08:25:00 21.4 C 88 % 19.33 C
2705 21-07-2015 08:30:00 21.7 C 87 % 19.44 C
2706 21-07-2015 08:35:00 21.9 C 86 % 19.45 C
2707 21-07-2015 08:40:00 22 C 85 % 19.36 C
2708 21-07-2015 08:45:00 22.2 C 85 % 19.56 C
2709 21-07-2015 08:50:00 22.2 C 85 % 19.56 C
2710 21-07-2015 08:55:00 22.7 C 85 % 20.05 C
2711 21-07-2015 09:00:00 22.8 C 85 % 20.14 C
2712 21-07-2015 09:05:00 22.7 C 82 % 19.47 C
2713 21-07-2015 09:10:00 22.7 C 82 % 19.47 C
2714 21-07-2015 09:15:00 22.6 C 82 % 19.37 C
2715 21-07-2015 09:20:00 22.5 C 83 % 19.47 C
2716 21-07-2015 09:25:00 22.5 C 82 % 19.27 C
2717 21-07-2015 09:30:00 22.3 C 82 % 19.08 C
2718 21-07-2015 09:35:00 22.3 C 82 % 19.08 C
2719 21-07-2015 09:40:00 22.8 C 82 % 19.56 C
2720 21-07-2015 09:45:00 22.8 C 81 % 19.37 C
2721 21-07-2015 09:50:00 22.8 C 81 % 19.37 C
2722 21-07-2015 09:55:00 22.9 C 81 % 19.46 C
2723 21-07-2015 10:00:00 22.9 C 81 % 19.46 C
2724 21-07-2015 10:05:00 23.2 C 81 % 19.76 C
2725 21-07-2015 10:10:00 23.4 C 79 % 19.55 C
Sensor: Nr:Datum:Temp:Feuchte:Taupunkt:
Aussen-T/F 2726 21-07-2015 10:15:00 23.4 C 78 % 19.34 C
2727 21-07-2015 10:20:00 23.5 C 79 % 19.65 C
2728 21-07-2015 10:25:00 23.7 C 78 % 19.63 C
2729 21-07-2015 10:30:00 23.9 C 77 % 19.62 C
2730 21-07-2015 10:35:00 24.2 C 75 % 19.49 C
2731 21-07-2015 10:40:00 24.3 C 74 % 19.37 C
2732 21-07-2015 10:45:00 24.4 C 74 % 19.46 C
2733 21-07-2015 10:50:00 24.6 C 74 % 19.66 C
2734 21-07-2015 10:55:00 24.8 C 73 % 19.63 C
2735 21-07-2015 11:00:00 24.6 C 73 % 19.44 C
2736 21-07-2015 11:05:00 24.6 C 74 % 19.66 C
2737 21-07-2015 11:10:00 24.8 C 75 % 20.06 C
2738 21-07-2015 11:15:00 24.9 C 72 % 19.5 C
2739 21-07-2015 11:20:00 25 C 73 % 19.82 C
2740 21-07-2015 11:25:00 24.9 C 73 % 19.72 C
2741 21-07-2015 11:30:00 25 C 72 % 19.6 C
2742 21-07-2015 11:35:00 25.2 C 72 % 19.79 C
2743 21-07-2015 11:40:00 25.4 C 72 % 19.98 C
2744 21-07-2015 11:45:00 25.6 C 70 % 19.72 C
2745 21-07-2015 11:50:00 25.7 C 72 % 20.27 C
2746 21-07-2015 11:55:00 25.9 C 70 % 20.01 C
2747 21-07-2015 12:00:00 26.2 C 67 % 19.59 C
2748 21-07-2015 12:05:00 26.6 C 68 % 20.2 C
2749 21-07-2015 12:10:00 26.5 C 65 % 19.38 C
2750 21-07-2015 12:15:00 26.3 C 66 % 19.44 C
Sensor: Nr:Datum:Temp:Feuchte:Taupunkt:
Aussen-T/F 2751 21-07-2015 12:20:00 26.4 C 66 % 19.53 C
2752 21-07-2015 12:25:00 26.7 C 67 % 20.06 C
2753 21-07-2015 12:30:00 26.8 C 65 % 19.67 C
2754 21-07-2015 12:35:00 26.9 C 65 % 19.76 C
2755 21-07-2015 12:40:00 27.2 C 64 % 19.79 C
2756 21-07-2015 12:45:00 27.4 C 64 % 19.98 C
2757 21-07-2015 12:50:00 27.8 C 61 % 19.59 C
2758 21-07-2015 12:55:00 27.9 C 62 % 19.94 C
2759 21-07-2015 13:00:00 28.2 C 61 % 19.96 C
2760 21-07-2015 13:05:00 28.4 C 60 % 19.88 C
2761 21-07-2015 13:10:00 28.6 C 59 % 19.8 C
2762 21-07-2015 13:15:00 28.7 C 58 % 19.62 C
2763 21-07-2015 13:20:00 28.8 C 58 % 19.71 C
2764 21-07-2015 13:25:00 28.8 C 59 % 19.99 C
2765 21-07-2015 13:30:00 28.7 C 58 % 19.62 C
2766 21-07-2015 13:35:00 28.4 C 59 % 19.61 C
2767 21-07-2015 13:40:00 28.4 C 59 % 19.61 C
2768 21-07-2015 13:45:00 28.8 C 58 % 19.71 C
2769 21-07-2015 13:50:00 29 C 58 % 19.9 C
2770 21-07-2015 13:55:00 29.4 C 58 % 20.27 C
2771 21-07-2015 14:00:00 29.7 C 54 % 19.39 C
2772 21-07-2015 14:05:00 29.7 C 55 % 19.69 C
2773 21-07-2015 14:10:00 29.9 C 54 % 19.58 C
2774 21-07-2015 14:15:00 29.7 C 54 % 19.39 C
2775 21-07-2015 14:20:00 29.4 C 54 % 19.12 C
Sensor: Nr:Datum:Temp:Feuchte:Taupunkt:
Aussen-T/F 2776 21-07-2015 14:25:00 29.1 C 59 % 20.27 C
2777 21-07-2015 14:30:00 28.9 C 60 % 20.35 C
2778 21-07-2015 14:35:00 29.2 C 55 % 19.23 C
2779 21-07-2015 14:40:00 29.3 C 56 % 19.61 C
2780 21-07-2015 14:45:00 29.1 C 57 % 19.71 C
2781 21-07-2015 14:50:00 29 C 60 % 20.44 C
2782 21-07-2015 14:55:00 28.7 C 58 % 19.62 C
2783 21-07-2015 15:00:00 28.6 C 62 % 20.6 C
2784 21-07-2015 15:05:00 28.4 C 61 % 20.15 C
2785 21-07-2015 15:10:00 28.5 C 66 % 21.52 C
2786 21-07-2015 15:15:00 28.8 C 57 % 19.43 C
2787 21-07-2015 15:20:00 29.1 C 58 % 19.99 C
2788 21-07-2015 15:25:00 29.4 C 55 % 19.41 C
2789 21-07-2015 15:30:00 29.8 C 56 % 20.07 C
2790 21-07-2015 15:35:00 30.4 C 52 % 19.43 C
2791 21-07-2015 15:40:00 30.8 C 52 % 19.8 C
2792 21-07-2015 15:45:00 30.8 C 50 % 19.17 C
2793 21-07-2015 15:50:00 30.8 C 51 % 19.49 C
2794 21-07-2015 15:55:00 30.9 C 52 % 19.89 C
2795 21-07-2015 16:00:00 30.9 C 49 % 18.94 C
2796 21-07-2015 16:05:00 30.7 C 51 % 19.4 C
2797 21-07-2015 16:10:00 30.7 C 50 % 19.08 C
2798 21-07-2015 16:15:00 31.1 C 50 % 19.44 C
2799 21-07-2015 16:20:00 31.2 C 47 % 18.54 C
2800 21-07-2015 16:25:00 31.2 C 49 % 19.21 C
Sensor: Nr:Datum:Temp:Feuchte:Taupunkt:
Aussen-T/F 2801 21-07-2015 16:30:00 31.6 C 47 % 18.91 C
2802 21-07-2015 16:35:00 31.9 C 47 % 19.18 C
2803 21-07-2015 16:40:00 31.8 C 47 % 19.09 C
2804 21-07-2015 16:45:00 31.4 C 48 % 19.06 C
2805 21-07-2015 16:50:00 31.7 C 48 % 19.34 C
2806 21-07-2015 16:55:00 31.9 C 47 % 19.18 C
2807 21-07-2015 17:00:00 32.3 C 47 % 19.54 C
2808 21-07-2015 17:05:00 32.3 C 46 % 19.2 C
2809 21-07-2015 17:10:00 32 C 47 % 19.27 C
2810 21-07-2015 17:15:00 32 C 48 % 19.61 C
2811 21-07-2015 17:20:00 32.1 C 46 % 19.02 C
2812 21-07-2015 17:25:00 32.2 C 46 % 19.11 C
2813 21-07-2015 17:30:00 32.4 C 45 % 18.93 C
2814 21-07-2015 17:35:00 32.6 C 46 % 19.47 C
2815 21-07-2015 17:40:00 32.6 C 45 % 19.12 C
2816 21-07-2015 17:45:00 32.6 C 44 % 18.75 C
2817 21-07-2015 17:50:00 32.4 C 45 % 18.93 C
2818 21-07-2015 17:55:00 32.3 C 45 % 18.84 C
2819 21-07-2015 18:00:00 31.9 C 46 % 18.83 C
2820 21-07-2015 18:05:00 31.9 C 46 % 18.83 C
2821 21-07-2015 18:10:00 32.3 C 46 % 19.2 C
2822 21-07-2015 18:15:00 32.3 C 45 % 18.84 C
2823 21-07-2015 18:20:00 31.7 C 47 % 19 C
2824 21-07-2015 18:25:00 31.1 C 47 % 18.45 C
2825 21-07-2015 18:30:00 30.7 C 52 % 19.71 C
Sensor: Nr:Datum:Temp:Feuchte:Taupunkt:
Aussen-T/F 2826 21-07-2015 18:35:00 30.6 C 50 % 18.99 C
2827 21-07-2015 18:40:00 30.9 C 48 % 18.61 C
2828 21-07-2015 18:45:00 31.2 C 48 % 18.88 C
2829 21-07-2015 18:50:00 30.8 C 53 % 20.11 C
2830 21-07-2015 18:55:00 30.1 C 53 % 19.46 C
2831 21-07-2015 19:00:00 29.7 C 56 % 19.98 C
2832 21-07-2015 19:05:00 29.6 C 56 % 19.89 C
2833 21-07-2015 19:10:00 29.4 C 58 % 20.27 C
2834 21-07-2015 19:15:00 29.6 C 56 % 19.89 C
2835 21-07-2015 19:20:00 30 C 55 % 19.97 C
2836 21-07-2015 19:25:00 30.3 C 56 % 20.54 C
2837 21-07-2015 19:30:00 30.4 C 55 % 20.34 C
2838 21-07-2015 19:35:00 30.3 C 56 % 20.54 C
2839 21-07-2015 19:40:00 30.1 C 56 % 20.35 C
2840 21-07-2015 19:45:00 29.8 C 58 % 20.64 C
2841 21-07-2015 19:50:00 29.6 C 59 % 20.73 C
2842 21-07-2015 19:55:00 29.4 C 60 % 20.82 C
2843 21-07-2015 20:00:00 29.2 C 59 % 20.36 C
2844 21-07-2015 20:05:00 29.1 C 61 % 20.81 C
2845 21-07-2015 20:10:00 28.8 C 62 % 20.79 C
2846 21-07-2015 20:15:00 28.7 C 62 % 20.69 C
2847 21-07-2015 20:20:00 28.6 C 63 % 20.86 C
2848 21-07-2015 20:25:00 28.3 C 63 % 20.58 C
2849 21-07-2015 20:30:00 28.2 C 64 % 20.74 C
2850 21-07-2015 20:35:00 28.1 C 64 % 20.64 C
Sensor: Nr:Datum:Temp:Feuchte:Taupunkt:
Aussen-T/F 2851 21-07-2015 20:40:00 27.9 C 65 % 20.71 C
2852 21-07-2015 20:45:00 27.7 C 65 % 20.52 C
2853 21-07-2015 20:50:00 27.6 C 66 % 20.67 C
2854 21-07-2015 20:55:00 27.4 C 66 % 20.48 C
2855 21-07-2015 21:00:00 27.2 C 68 % 20.78 C
2856 21-07-2015 21:05:00 26.9 C 68 % 20.49 C
2857 21-07-2015 21:10:00 26.6 C 69 % 20.44 C
2858 21-07-2015 21:15:00 26.2 C 72 % 20.75 C
2859 21-07-2015 21:20:00 25.9 C 73 % 20.69 C
2860 21-07-2015 21:25:00 25.9 C 73 % 20.69 C
2861 21-07-2015 21:30:00 24.9 C 73 % 19.72 C
2862 21-07-2015 21:35:00 24.5 C 79 % 20.62 C
2863 21-07-2015 21:40:00 24.4 C 79 % 20.52 C
2864 21-07-2015 21:45:00 24.2 C 81 % 20.73 C
2865 21-07-2015 21:50:00 23.9 C 82 % 20.64 C
2866 21-07-2015 21:55:00 23.7 C 83 % 20.64 C
2867 21-07-2015 22:00:00 23.4 C 83 % 20.35 C
2868 21-07-2015 22:05:00 23.3 C 84 % 20.44 C
2869 21-07-2015 22:10:00 23.2 C 84 % 20.34 C
2870 21-07-2015 22:15:00 23.1 C 84 % 20.25 C
2871 21-07-2015 22:20:00 22.9 C 85 % 20.24 C
2872 21-07-2015 22:25:00 22.8 C 85 % 20.14 C
2873 21-07-2015 22:30:00 22.8 C 86 % 20.33 C
2874 21-07-2015 22:35:00 22.6 C 86 % 20.14 C
2875 21-07-2015 22:40:00 22.5 C 86 % 20.04 C
Sensor: Nr:Datum:Temp:Feuchte:Taupunkt:
Aussen-T/F 2876 21-07-2015 22:45:00 22.4 C 87 % 20.13 C
2877 21-07-2015 22:50:00 22.3 C 87 % 20.03 C
2878 21-07-2015 22:55:00 22.3 C 87 % 20.03 C
2879 21-07-2015 23:00:00 22.2 C 88 % 20.12 C
2880 21-07-2015 23:05:00 22.2 C 88 % 20.12 C
2881 21-07-2015 23:10:00 22.1 C 88 % 20.02 C
2882 21-07-2015 23:15:00 22 C 88 % 19.92 C
2883 21-07-2015 23:20:00 21.9 C 88 % 19.82 C
2884 21-07-2015 23:25:00 21.9 C 89 % 20 C
2885 21-07-2015 23:30:00 21.8 C 89 % 19.9 C
2886 21-07-2015 23:35:00 21.8 C 89 % 19.9 C
2887 21-07-2015 23:40:00 21.7 C 89 % 19.81 C
2888 21-07-2015 23:45:00 21.7 C 89 % 19.81 C
2889 21-07-2015 23:50:00 21.6 C 89 % 19.71 C
2890 21-07-2015 23:55:00 21.6 C 89 % 19.71 C
2891 22-07-2015 00:00:00 21.6 C 90 % 19.89 C
2892 22-07-2015 00:05:00 21.5 C 90 % 19.79 C
2893 22-07-2015 00:10:00 21.5 C 90 % 19.79 C
2894 22-07-2015 00:15:00 21.4 C 90 % 19.69 C
2895 22-07-2015 00:20:00 21.4 C 90 % 19.69 C
2896 22-07-2015 00:25:00 21.4 C 90 % 19.69 C
2897 22-07-2015 00:30:00 21.3 C 90 % 19.59 C
2898 22-07-2015 00:35:00 21.3 C 90 % 19.59 C
2899 22-07-2015 00:40:00 21.2 C 91 % 19.67 C
2900 22-07-2015 00:45:00 21.2 C 90 % 19.49 C
Sensor: Nr:Datum:Temp:Feuchte:Taupunkt:
Aussen-T/F 2901 22-07-2015 00:50:00 21.1 C 91 % 19.57 C
2902 22-07-2015 00:55:00 20.9 C 91 % 19.37 C
2903 22-07-2015 01:00:00 20.9 C 91 % 19.37 C
2904 22-07-2015 01:05:00 20.9 C 91 % 19.37 C
2905 22-07-2015 01:10:00 20.8 C 92 % 19.45 C
2906 22-07-2015 01:15:00 20.8 C 92 % 19.45 C
2907 22-07-2015 01:20:00 20.7 C 92 % 19.35 C
2908 22-07-2015 01:25:00 20.7 C 92 % 19.35 C
2909 22-07-2015 01:30:00 20.7 C 92 % 19.35 C
2910 22-07-2015 01:35:00 20.7 C 92 % 19.35 C
2911 22-07-2015 01:40:00 20.7 C 92 % 19.35 C
2912 22-07-2015 01:45:00 20.6 C 92 % 19.25 C
2913 22-07-2015 01:50:00 20.6 C 92 % 19.25 C
2914 22-07-2015 01:55:00 20.5 C 92 % 19.15 C
2915 22-07-2015 02:00:00 20.4 C 92 % 19.06 C
2916 22-07-2015 02:05:00 20.3 C 93 % 19.13 C
2917 22-07-2015 02:10:00 20.3 C 93 % 19.13 C
2918 22-07-2015 02:15:00 20.3 C 93 % 19.13 C
2919 22-07-2015 02:20:00 20.2 C 93 % 19.03 C
2920 22-07-2015 02:25:00 20.2 C 93 % 19.03 C
2921 22-07-2015 02:30:00 20.2 C 93 % 19.03 C
2922 22-07-2015 02:35:00 20.1 C 93 % 18.93 C
2923 22-07-2015 02:40:00 20.1 C 93 % 18.93 C
2924 22-07-2015 02:45:00 20 C 93 % 18.83 C
2925 22-07-2015 02:50:00 19.9 C 93 % 18.73 C
Sensor: Nr:Datum:Temp:Feuchte:Taupunkt:
Aussen-T/F 2926 22-07-2015 02:55:00 19.8 C 93 % 18.63 C
2927 22-07-2015 03:00:00 19.8 C 93 % 18.63 C
2928 22-07-2015 03:05:00 19.7 C 93 % 18.54 C
2929 22-07-2015 03:10:00 19.7 C 93 % 18.54 C
2930 22-07-2015 03:15:00 19.6 C 93 % 18.44 C
2931 22-07-2015 03:20:00 19.6 C 93 % 18.44 C
2932 22-07-2015 03:25:00 19.4 C 93 % 18.24 C
2933 22-07-2015 03:30:00 19.4 C 94 % 18.41 C
2934 22-07-2015 03:35:00 19.4 C 94 % 18.41 C
2935 22-07-2015 03:40:00 19.3 C 94 % 18.31 C
2936 22-07-2015 03:45:00 19.3 C 94 % 18.31 C
2937 22-07-2015 03:50:00 19.3 C 94 % 18.31 C
2938 22-07-2015 03:55:00 19.3 C 94 % 18.31 C
2939 22-07-2015 04:00:00 19.2 C 94 % 18.21 C
2940 22-07-2015 04:05:00 19.2 C 94 % 18.21 C
2941 22-07-2015 04:10:00 19.2 C 94 % 18.21 C
2942 22-07-2015 04:15:00 19.2 C 94 % 18.21 C
2943 22-07-2015 04:20:00 19.2 C 94 % 18.21 C
2944 22-07-2015 04:25:00 19.2 C 94 % 18.21 C
2945 22-07-2015 04:30:00 19.2 C 94 % 18.21 C
2946 22-07-2015 04:35:00 19.1 C 94 % 18.11 C
2947 22-07-2015 04:40:00 19 C 95 % 18.18 C
2948 22-07-2015 04:45:00 18.9 C 95 % 18.08 C
2949 22-07-2015 04:50:00 18.9 C 94 % 17.91 C
2950 22-07-2015 04:55:00 18.8 C 94 % 17.81 C
Sensor: Nr:Datum:Temp:Feuchte:Taupunkt:
Aussen-T/F 2951 22-07-2015 05:00:00 18.8 C 95 % 17.98 C
2952 22-07-2015 05:05:00 18.8 C 95 % 17.98 C
2953 22-07-2015 05:10:00 18.8 C 95 % 17.98 C
2954 22-07-2015 05:15:00 18.8 C 95 % 17.98 C
2955 22-07-2015 05:20:00 18.7 C 95 % 17.88 C
2956 22-07-2015 05:25:00 18.7 C 95 % 17.88 C
2957 22-07-2015 05:30:00 18.6 C 95 % 17.78 C
2958 22-07-2015 05:35:00 18.6 C 95 % 17.78 C
2959 22-07-2015 05:40:00 18.7 C 95 % 17.88 C
2960 22-07-2015 05:45:00 18.6 C 95 % 17.78 C
2961 22-07-2015 05:50:00 18.6 C 95 % 17.78 C
2962 22-07-2015 05:55:00 18.7 C 95 % 17.88 C
2963 22-07-2015 06:00:00 18.7 C 95 % 17.88 C
2964 22-07-2015 06:05:00 18.7 C 95 % 17.88 C
2965 22-07-2015 06:10:00 18.7 C 95 % 17.88 C
2966 22-07-2015 06:15:00 18.7 C 95 % 17.88 C
2967 22-07-2015 06:20:00 18.7 C 96 % 18.05 C
2968 22-07-2015 06:25:00 18.8 C 96 % 18.15 C
2969 22-07-2015 06:30:00 18.8 C 96 % 18.15 C
2970 22-07-2015 06:35:00 18.8 C 96 % 18.15 C
2971 22-07-2015 06:40:00 18.8 C 96 % 18.15 C
2972 22-07-2015 06:45:00 18.9 C 96 % 18.25 C
2973 22-07-2015 06:50:00 19 C 96 % 18.35 C
2974 22-07-2015 06:55:00 19.1 C 96 % 18.45 C
2975 22-07-2015 07:00:00 19.1 C 96 % 18.45 C
Sensor: Nr:Datum:Temp:Feuchte:Taupunkt:
Aussen-T/F 2976 22-07-2015 07:05:00 19.2 C 96 % 18.55 C
2977 22-07-2015 07:10:00 19.2 C 96 % 18.55 C
2978 22-07-2015 07:15:00 19.3 C 96 % 18.65 C
2979 22-07-2015 07:20:00 19.3 C 96 % 18.65 C
2980 22-07-2015 07:25:00 19.3 C 96 % 18.65 C
2981 22-07-2015 07:30:00 19.3 C 96 % 18.65 C
2982 22-07-2015 07:35:00 19.3 C 96 % 18.65 C
2983 22-07-2015 07:40:00 19.3 C 96 % 18.65 C
2984 22-07-2015 07:45:00 19.3 C 96 % 18.65 C
2985 22-07-2015 08:30:00 21.7 C 91 % 20.17 C
2986 22-07-2015 08:35:00 21.9 C 90 % 20.18 C
2987 22-07-2015 08:40:00 22 C 89 % 20.1 C
2988 22-07-2015 08:45:00 22.1 C 88 % 20.02 C
2989 22-07-2015 08:50:00 22.2 C 88 % 20.12 C
2990 22-07-2015 08:55:00 22.2 C 86 % 19.75 C
2991 22-07-2015 09:00:00 22.2 C 85 % 19.56 C
2992 22-07-2015 09:05:00 22.2 C 85 % 19.56 C
2993 22-07-2015 09:10:00 22.2 C 85 % 19.56 C
2994 22-07-2015 09:15:00 22.2 C 85 % 19.56 C
2995 22-07-2015 09:20:00 22.6 C 83 % 19.56 C
2996 22-07-2015 09:25:00 22.7 C 83 % 19.66 C
2997 22-07-2015 09:30:00 22.8 C 84 % 19.95 C
2998 22-07-2015 09:35:00 22.9 C 81 % 19.46 C
2999 22-07-2015 09:40:00 23.1 C 80 % 19.46 C
3000 22-07-2015 09:45:00 23.3 C 81 % 19.85 C
Sensor: Nr:Datum:Temp:Feuchte:Taupunkt:
Aussen-T/F 3001 22-07-2015 09:50:00 23.4 C 79 % 19.55 C
3002 22-07-2015 09:55:00 23.6 C 79 % 19.74 C
3003 22-07-2015 10:00:00 23.6 C 80 % 19.95 C
3004 22-07-2015 10:05:00 23.7 C 80 % 20.04 C
3005 22-07-2015 10:10:00 23.9 C 80 % 20.24 C
3006 22-07-2015 10:15:00 24.2 C 78 % 20.12 C
3007 22-07-2015 10:20:00 24.3 C 75 % 19.58 C
3008 22-07-2015 10:25:00 24.4 C 76 % 19.89 C
3009 22-07-2015 10:30:00 24.4 C 75 % 19.68 C
3010 22-07-2015 10:35:00 24.3 C 75 % 19.58 C
3011 22-07-2015 10:40:00 24.2 C 76 % 19.7 C
3012 22-07-2015 10:45:00 24.2 C 77 % 19.91 C
3013 22-07-2015 10:50:00 24.3 C 77 % 20.01 C
3014 22-07-2015 10:55:00 24.4 C 75 % 19.68 C
3015 22-07-2015 11:00:00 24.4 C 76 % 19.89 C
3016 22-07-2015 11:05:00 24.3 C 76 % 19.8 C
3017 22-07-2015 11:10:00 24.4 C 75 % 19.68 C
3018 22-07-2015 11:15:00 24.4 C 77 % 20.1 C
3019 22-07-2015 11:20:00 24.4 C 75 % 19.68 C
3020 22-07-2015 11:25:00 24.5 C 76 % 19.99 C
3021 22-07-2015 11:30:00 24.7 C 76 % 20.18 C
3022 22-07-2015 11:35:00 24.9 C 77 % 20.59 C
3023 22-07-2015 11:40:00 25.2 C 74 % 20.23 C
3024 22-07-2015 11:45:00 25.4 C 73 % 20.21 C
3025 22-07-2015 11:50:00 25.6 C 73 % 20.4 C
Sensor: Nr:Datum:Temp:Feuchte:Taupunkt:
Aussen-T/F 3026 22-07-2015 11:55:00 25.5 C 71 % 19.85 C
3027 22-07-2015 12:00:00 25.4 C 73 % 20.21 C
3028 22-07-2015 12:05:00 25.5 C 73 % 20.3 C
3029 22-07-2015 12:10:00 25.6 C 74 % 20.62 C
3030 22-07-2015 12:15:00 25.6 C 74 % 20.62 C
3031 22-07-2015 12:20:00 25.8 C 74 % 20.81 C
3032 22-07-2015 12:25:00 26.1 C 70 % 20.2 C
3033 22-07-2015 12:30:00 26.2 C 71 % 20.52 C
3034 22-07-2015 12:35:00 26.4 C 67 % 19.78 C
3035 22-07-2015 12:40:00 26.7 C 68 % 20.3 C
3036 22-07-2015 12:45:00 27 C 67 % 20.35 C
3037 22-07-2015 12:50:00 27.2 C 66 % 20.29 C
3038 22-07-2015 12:55:00 27 C 66 % 20.1 C
3039 22-07-2015 13:00:00 26.8 C 67 % 20.16 C
3040 22-07-2015 13:05:00 26.7 C 67 % 20.06 C
3041 22-07-2015 13:10:00 26.7 C 68 % 20.3 C
3042 22-07-2015 13:15:00 26.8 C 67 % 20.16 C
3043 22-07-2015 13:20:00 27 C 67 % 20.35 C
3044 22-07-2015 13:25:00 27.1 C 67 % 20.44 C
3045 22-07-2015 13:30:00 27.2 C 64 % 19.79 C
3046 22-07-2015 13:35:00 27.2 C 64 % 19.79 C
3047 22-07-2015 13:40:00 27.2 C 64 % 19.79 C
3048 22-07-2015 13:45:00 27.3 C 65 % 20.14 C
3049 22-07-2015 13:50:00 27.4 C 65 % 20.23 C
3050 22-07-2015 13:55:00 27.7 C 63 % 20.01 C
Sensor: Nr:Datum:Temp:Feuchte:Taupunkt:
Aussen-T/F 3051 22-07-2015 14:00:00 27.7 C 61 % 19.49 C
3052 22-07-2015 14:05:00 27.6 C 61 % 19.4 C
3053 22-07-2015 14:10:00 27.3 C 62 % 19.38 C
3054 22-07-2015 14:15:00 26.8 C 63 % 19.16 C
3055 22-07-2015 14:20:00 26.7 C 64 % 19.32 C
3056 22-07-2015 14:25:00 26.6 C 64 % 19.23 C
3057 22-07-2015 14:30:00 26.6 C 63 % 18.97 C
3058 22-07-2015 14:35:00 26.5 C 63 % 18.88 C
3059 22-07-2015 14:40:00 26.4 C 62 % 18.53 C
3060 22-07-2015 14:45:00 26.4 C 63 % 18.79 C
3061 22-07-2015 14:50:00 26.4 C 63 % 18.79 C
3062 22-07-2015 14:55:00 26.4 C 63 % 18.79 C
3063 22-07-2015 15:00:00 26.4 C 62 % 18.53 C
3064 22-07-2015 15:05:00 26.4 C 63 % 18.79 C
3065 22-07-2015 15:10:00 26.6 C 62 % 18.72 C
3066 22-07-2015 15:15:00 26.7 C 63 % 19.07 C
3067 22-07-2015 15:20:00 26.8 C 63 % 19.16 C
3068 22-07-2015 15:25:00 27 C 63 % 19.35 C
3069 22-07-2015 15:30:00 27.2 C 65 % 20.04 C
3070 22-07-2015 15:35:00 27.5 C 60 % 19.04 C
3071 22-07-2015 15:40:00 27.5 C 61 % 19.3 C
3072 22-07-2015 15:45:00 27.5 C 60 % 19.04 C
3073 22-07-2015 15:50:00 27.3 C 60 % 18.85 C
3074 22-07-2015 15:55:00 27.2 C 60 % 18.76 C
3075 22-07-2015 16:00:00 27.2 C 61 % 19.02 C
Sensor: Nr:Datum:Temp:Feuchte:Taupunkt:
Aussen-T/F 3076 22-07-2015 16:05:00 27.1 C 61 % 18.93 C
3077 22-07-2015 16:10:00 27.1 C 62 % 19.19 C
3078 22-07-2015 16:15:00 27.1 C 63 % 19.45 C
3079 22-07-2015 16:20:00 26.9 C 62 % 19 C
3080 22-07-2015 16:25:00 26.8 C 63 % 19.16 C
3081 22-07-2015 16:30:00 26.7 C 64 % 19.32 C
3082 22-07-2015 16:35:00 26.6 C 63 % 18.97 C
3083 22-07-2015 16:40:00 26.6 C 64 % 19.23 C
3084 22-07-2015 16:45:00 26.6 C 63 % 18.97 C
3085 22-07-2015 16:50:00 26.7 C 62 % 18.81 C
3086 22-07-2015 16:55:00 26.7 C 61 % 18.55 C
3087 22-07-2015 17:00:00 26.7 C 61 % 18.55 C
3088 22-07-2015 17:05:00 26.9 C 61 % 18.74 C
3089 22-07-2015 17:10:00 27.2 C 60 % 18.76 C
3090 22-07-2015 17:15:00 27.4 C 59 % 18.68 C
3091 22-07-2015 17:20:00 27.5 C 59 % 18.77 C
3092 22-07-2015 17:25:00 27.6 C 60 % 19.13 C
3093 22-07-2015 17:30:00 27.7 C 59 % 18.96 C
3094 22-07-2015 17:35:00 27.7 C 60 % 19.23 C
3095 22-07-2015 17:40:00 27.9 C 59 % 19.14 C
3096 22-07-2015 17:45:00 27.9 C 57 % 18.59 C
3097 22-07-2015 17:50:00 28.1 C 56 % 18.49 C
3098 22-07-2015 17:55:00 28.2 C 54 % 18.01 C
3099 22-07-2015 18:00:00 28.3 C 53 % 17.8 C
3100 22-07-2015 18:05:00 28.2 C 54 % 18.01 C
Sensor: Nr:Datum:Temp:Feuchte:Taupunkt:
Aussen-T/F 3101 22-07-2015 18:10:00 28.1 C 54 % 17.92 C
3102 22-07-2015 18:15:00 27.7 C 54 % 17.55 C
3103 22-07-2015 18:20:00 27.3 C 55 % 17.47 C
3104 22-07-2015 18:25:00 27.1 C 56 % 17.57 C
3105 22-07-2015 18:30:00 26.8 C 56 % 17.29 C
3106 22-07-2015 18:35:00 26.7 C 56 % 17.19 C
3107 22-07-2015 18:40:00 26.6 C 56 % 17.1 C
3108 22-07-2015 18:45:00 26.4 C 55 % 16.63 C
3109 22-07-2015 18:50:00 26.3 C 56 % 16.82 C
3110 22-07-2015 18:55:00 26.1 C 57 % 16.92 C
3111 22-07-2015 19:00:00 26.1 C 57 % 16.92 C
3112 22-07-2015 19:05:00 26 C 58 % 17.1 C
3113 22-07-2015 19:10:00 26.1 C 57 % 16.92 C
3114 22-07-2015 19:15:00 25.9 C 56 % 16.45 C
3115 22-07-2015 19:20:00 25.8 C 56 % 16.36 C
3116 22-07-2015 19:25:00 25.8 C 57 % 16.64 C
3117 22-07-2015 19:30:00 25.7 C 57 % 16.54 C
3118 22-07-2015 19:35:00 25.7 C 58 % 16.82 C
3119 22-07-2015 19:40:00 25.6 C 58 % 16.72 C
3120 22-07-2015 19:45:00 25.4 C 58 % 16.54 C
3121 22-07-2015 19:50:00 25.3 C 59 % 16.71 C
3122 22-07-2015 19:55:00 25.2 C 59 % 16.62 C
3123 22-07-2015 20:00:00 25.1 C 58 % 16.26 C
3124 22-07-2015 20:05:00 25 C 58 % 16.16 C
3125 22-07-2015 20:10:00 24.8 C 58 % 15.98 C
Sensor: Nr:Datum:Temp:Feuchte:Taupunkt:
Aussen-T/F 3126 22-07-2015 20:15:00 24.8 C 58 % 15.98 C
3127 22-07-2015 20:20:00 24.7 C 59 % 16.15 C
3128 22-07-2015 20:25:00 24.6 C 58 % 15.79 C
3129 22-07-2015 20:30:00 24.6 C 58 % 15.79 C
3130 22-07-2015 20:35:00 24.5 C 58 % 15.7 C
3131 22-07-2015 20:40:00 24.4 C 57 % 15.33 C
3132 22-07-2015 20:45:00 24.4 C 57 % 15.33 C
3133 22-07-2015 20:50:00 24.3 C 57 % 15.24 C
3134 22-07-2015 20:55:00 24.3 C 57 % 15.24 C
3135 22-07-2015 21:00:00 24.2 C 57 % 15.14 C
3136 22-07-2015 21:05:00 24.2 C 57 % 15.14 C
3137 22-07-2015 21:10:00 24.1 C 56 % 14.78 C
3138 22-07-2015 21:15:00 24 C 56 % 14.68 C
3139 22-07-2015 21:20:00 23.9 C 55 % 14.31 C
3140 22-07-2015 21:25:00 23.9 C 56 % 14.59 C
3141 22-07-2015 21:30:00 23.8 C 56 % 14.5 C
3142 22-07-2015 21:35:00 23.8 C 57 % 14.77 C
3143 22-07-2015 21:40:00 23.7 C 56 % 14.4 C
3144 22-07-2015 21:45:00 23.6 C 55 % 14.03 C
3145 22-07-2015 21:50:00 23.4 C 55 % 13.85 C
3146 22-07-2015 21:55:00 23.3 C 55 % 13.76 C
3147 22-07-2015 22:00:00 23.2 C 55 % 13.66 C
3148 22-07-2015 22:05:00 23.2 C 55 % 13.66 C
3149 22-07-2015 22:10:00 23.1 C 55 % 13.57 C
3150 22-07-2015 22:15:00 22.9 C 55 % 13.38 C
Sensor: Nr:Datum:Temp:Feuchte:Taupunkt:
Aussen-T/F 3151 22-07-2015 22:20:00 22.8 C 55 % 13.29 C
3152 22-07-2015 22:25:00 22.8 C 55 % 13.29 C
3153 22-07-2015 22:30:00 22.7 C 56 % 13.47 C
3154 22-07-2015 22:35:00 22.6 C 56 % 13.38 C
3155 22-07-2015 22:40:00 22.6 C 56 % 13.38 C
3156 22-07-2015 22:45:00 22.5 C 57 % 13.56 C
3157 22-07-2015 22:50:00 22.4 C 57 % 13.47 C
3158 22-07-2015 22:55:00 22.3 C 57 % 13.37 C
3159 22-07-2015 23:00:00 22.3 C 57 % 13.37 C
3160 22-07-2015 23:05:00 22.2 C 58 % 13.55 C
3161 22-07-2015 23:10:00 22.1 C 58 % 13.45 C
3162 22-07-2015 23:15:00 22.1 C 58 % 13.45 C
3163 22-07-2015 23:20:00 22 C 60 % 13.88 C
3164 22-07-2015 23:25:00 21.8 C 63 % 14.45 C
3165 22-07-2015 23:30:00 21.6 C 65 % 14.74 C
3166 22-07-2015 23:35:00 21.4 C 64 % 14.31 C
3167 22-07-2015 23:40:00 21.3 C 67 % 14.93 C
3168 22-07-2015 23:45:00 21.2 C 65 % 14.36 C
3169 22-07-2015 23:50:00 21.2 C 66 % 14.6 C
3170 22-07-2015 23:55:00 21.1 C 66 % 14.5 C
3171 23-07-2015 00:00:00 21 C 69 % 15.1 C
3172 23-07-2015 00:05:00 20.8 C 71 % 15.35 C
3173 23-07-2015 00:10:00 20.7 C 72 % 15.47 C
3174 23-07-2015 00:15:00 20.6 C 72 % 15.38 C
3175 23-07-2015 00:20:00 20.3 C 72 % 15.09 C
Sensor: Nr:Datum:Temp:Feuchte:Taupunkt:
Aussen-T/F 3176 23-07-2015 00:25:00 20.1 C 71 % 14.68 C
3177 23-07-2015 00:30:00 19.8 C 73 % 14.82 C
3178 23-07-2015 00:35:00 19.6 C 74 % 14.84 C
3179 23-07-2015 00:40:00 19.4 C 74 % 14.65 C
3180 23-07-2015 00:45:00 19.3 C 74 % 14.55 C
3181 23-07-2015 00:50:00 19.3 C 75 % 14.76 C
3182 23-07-2015 00:55:00 19.2 C 75 % 14.66 C
3183 23-07-2015 01:00:00 19.1 C 75 % 14.57 C
3184 23-07-2015 01:05:00 19 C 77 % 14.88 C
3185 23-07-2015 01:10:00 18.9 C 76 % 14.58 C
3186 23-07-2015 01:15:00 18.8 C 77 % 14.68 C
3187 23-07-2015 01:20:00 18.7 C 77 % 14.59 C
3188 23-07-2015 01:25:00 18.6 C 77 % 14.49 C
3189 23-07-2015 01:30:00 18.4 C 78 % 14.5 C
3190 23-07-2015 01:35:00 18.4 C 78 % 14.5 C
3191 23-07-2015 01:40:00 18.3 C 78 % 14.4 C
3192 23-07-2015 01:45:00 18.2 C 78 % 14.3 C
3193 23-07-2015 01:50:00 18.2 C 79 % 14.5 C
3194 23-07-2015 01:55:00 18.1 C 79 % 14.4 C
3195 23-07-2015 02:00:00 18.1 C 79 % 14.4 C
3196 23-07-2015 02:05:00 17.9 C 79 % 14.21 C
3197 23-07-2015 02:10:00 17.9 C 79 % 14.21 C
3198 23-07-2015 02:15:00 17.8 C 78 % 13.91 C
3199 23-07-2015 02:20:00 17.7 C 78 % 13.82 C
3200 23-07-2015 02:25:00 17.7 C 79 % 14.01 C
Sensor: Nr:Datum:Temp:Feuchte:Taupunkt:
Aussen-T/F 3201 23-07-2015 02:30:00 17.7 C 79 % 14.01 C
3202 23-07-2015 02:35:00 17.7 C 79 % 14.01 C
3203 23-07-2015 02:40:00 17.7 C 79 % 14.01 C
3204 23-07-2015 02:45:00 17.6 C 79 % 13.92 C
3205 23-07-2015 02:50:00 17.5 C 79 % 13.82 C
3206 23-07-2015 02:55:00 17.4 C 80 % 13.92 C
3207 23-07-2015 03:00:00 17.3 C 79 % 13.63 C
3208 23-07-2015 03:05:00 17.3 C 80 % 13.82 C
3209 23-07-2015 03:10:00 17.2 C 80 % 13.72 C
3210 23-07-2015 03:15:00 17.1 C 80 % 13.62 C
3211 23-07-2015 03:20:00 17 C 80 % 13.53 C
3212 23-07-2015 03:25:00 17 C 80 % 13.53 C
3213 23-07-2015 03:30:00 16.9 C 81 % 13.62 C
3214 23-07-2015 03:35:00 16.9 C 81 % 13.62 C
3215 23-07-2015 03:40:00 16.8 C 81 % 13.52 C
3216 23-07-2015 03:45:00 16.8 C 82 % 13.71 C
3217 23-07-2015 03:50:00 16.7 C 82 % 13.61 C
3218 23-07-2015 03:55:00 16.6 C 81 % 13.33 C
3219 23-07-2015 04:00:00 16.5 C 81 % 13.23 C
3220 23-07-2015 04:05:00 16.4 C 82 % 13.32 C
3221 23-07-2015 04:10:00 16.4 C 82 % 13.32 C
3222 23-07-2015 04:15:00 16.4 C 82 % 13.32 C
3223 23-07-2015 04:20:00 16.5 C 83 % 13.6 C
3224 23-07-2015 04:25:00 16.6 C 83 % 13.7 C
3225 23-07-2015 04:30:00 16.7 C 83 % 13.8 C
Sensor: Nr:Datum:Temp:Feuchte:Taupunkt:
Aussen-T/F 3226 23-07-2015 04:35:00 16.7 C 83 % 13.8 C
3227 23-07-2015 04:40:00 16.8 C 83 % 13.9 C
3228 23-07-2015 04:45:00 16.8 C 83 % 13.9 C
3229 23-07-2015 04:50:00 16.8 C 83 % 13.9 C
3230 23-07-2015 04:55:00 16.8 C 83 % 13.9 C
3231 23-07-2015 05:00:00 16.8 C 83 % 13.9 C
3232 23-07-2015 05:05:00 16.8 C 83 % 13.9 C
3233 23-07-2015 05:10:00 16.9 C 83 % 14 C
3234 23-07-2015 05:15:00 16.9 C 83 % 14 C
3235 23-07-2015 05:20:00 16.9 C 82 % 13.81 C
3236 23-07-2015 05:25:00 16.9 C 82 % 13.81 C
3237 23-07-2015 05:30:00 16.9 C 83 % 14 C
3238 23-07-2015 05:35:00 16.9 C 82 % 13.81 C
3239 23-07-2015 05:40:00 16.9 C 83 % 14 C
3240 23-07-2015 05:45:00 16.9 C 83 % 14 C
3241 23-07-2015 05:50:00 16.9 C 83 % 14 C
3242 23-07-2015 05:55:00 16.9 C 83 % 14 C
3243 23-07-2015 06:00:00 16.9 C 82 % 13.81 C
3244 23-07-2015 06:05:00 16.9 C 82 % 13.81 C
3245 23-07-2015 06:10:00 17 C 82 % 13.91 C
3246 23-07-2015 06:15:00 17 C 81 % 13.72 C
3247 23-07-2015 06:20:00 17.1 C 82 % 14 C
3248 23-07-2015 06:25:00 17.1 C 82 % 14 C
3249 23-07-2015 06:30:00 17.1 C 80 % 13.62 C
3250 23-07-2015 06:35:00 17.2 C 79 % 13.53 C
Sensor: Nr:Datum:Temp:Feuchte:Taupunkt:
Aussen-T/F 3251 23-07-2015 06:40:00 17.3 C 78 % 13.43 C
3252 23-07-2015 06:45:00 17.4 C 79 % 13.72 C
3253 23-07-2015 06:50:00 17.4 C 75 % 12.93 C
3254 23-07-2015 06:55:00 17.6 C 76 % 13.32 C
3255 23-07-2015 07:00:00 17.7 C 75 % 13.22 C
3256 23-07-2015 07:05:00 17.7 C 74 % 13.01 C
3257 23-07-2015 07:10:00 17.7 C 74 % 13.01 C
3258 23-07-2015 07:15:00 17.8 C 73 % 12.9 C
3259 23-07-2015 07:20:00 17.8 C 73 % 12.9 C
3260 23-07-2015 07:25:00 17.8 C 72 % 12.69 C
3261 23-07-2015 07:30:00 17.8 C 72 % 12.69 C
3262 23-07-2015 07:35:00 17.8 C 71 % 12.47 C
3263 23-07-2015 07:40:00 17.8 C 71 % 12.47 C
3264 23-07-2015 07:45:00 17.9 C 71 % 12.57 C
3265 23-07-2015 07:50:00 17.9 C 72 % 12.78 C
3266 23-07-2015 07:55:00 18 C 71 % 12.67 C
3267 23-07-2015 08:00:00 18.1 C 70 % 12.55 C
3268 23-07-2015 08:05:00 18.1 C 71 % 12.76 C
3269 23-07-2015 08:10:00 18.2 C 70 % 12.64 C
3270 23-07-2015 08:15:00 18.3 C 69 % 12.52 C
3271 23-07-2015 08:20:00 18.4 C 70 % 12.83 C
3272 23-07-2015 08:25:00 18.5 C 70 % 12.93 C
3273 23-07-2015 08:30:00 18.6 C 69 % 12.8 C
3274 23-07-2015 08:35:00 18.7 C 69 % 12.9 C
3275 23-07-2015 08:40:00 18.7 C 68 % 12.68 C
Sensor: Nr:Datum:Temp:Feuchte:Taupunkt:
Aussen-T/F 3276 23-07-2015 08:45:00 18.8 C 68 % 12.77 C
3277 23-07-2015 08:50:00 18.8 C 67 % 12.55 C
3278 23-07-2015 08:55:00 18.8 C 67 % 12.55 C
3279 23-07-2015 09:00:00 19 C 67 % 12.74 C
3280 23-07-2015 09:05:00 19.1 C 66 % 12.6 C
3281 23-07-2015 09:10:00 19.1 C 67 % 12.83 C
3282 23-07-2015 09:15:00 19.1 C 67 % 12.83 C
3283 23-07-2015 09:20:00 19.1 C 67 % 12.83 C
3284 23-07-2015 09:25:00 19.1 C 67 % 12.83 C
3285 23-07-2015 09:30:00 19.2 C 66 % 12.7 C
3286 23-07-2015 09:35:00 19.2 C 66 % 12.7 C
3287 23-07-2015 09:40:00 19.2 C 65 % 12.47 C
3288 23-07-2015 09:45:00 19.2 C 65 % 12.47 C
3289 23-07-2015 09:50:00 19.1 C 66 % 12.6 C
3290 23-07-2015 09:55:00 19.1 C 66 % 12.6 C
3291 23-07-2015 10:00:00 19.2 C 65 % 12.47 C
3292 23-07-2015 10:05:00 19.3 C 66 % 12.79 C
3293 23-07-2015 10:10:00 19.7 C 63 % 12.46 C
3294 23-07-2015 10:15:00 19.9 C 62 % 12.41 C
3295 23-07-2015 10:20:00 20.3 C 63 % 13.03 C
3296 23-07-2015 10:25:00 20.6 C 61 % 12.82 C
3297 23-07-2015 10:30:00 20.9 C 60 % 12.85 C
3298 23-07-2015 10:35:00 21.1 C 60 % 13.04 C
3299 23-07-2015 10:40:00 21 C 60 % 12.94 C
3300 23-07-2015 10:45:00 21.2 C 60 % 13.13 C
Sensor: Nr:Datum:Temp:Feuchte:Taupunkt:
Aussen-T/F 3301 23-07-2015 10:50:00 21.6 C 61 % 13.76 C
3302 23-07-2015 10:55:00 21.8 C 58 % 13.17 C
3303 23-07-2015 11:00:00 21.9 C 58 % 13.27 C
3304 23-07-2015 11:05:00 22.2 C 58 % 13.55 C
3305 23-07-2015 11:10:00 22.3 C 55 % 12.83 C
3306 23-07-2015 11:15:00 22.3 C 55 % 12.83 C
3307 23-07-2015 11:20:00 22.3 C 55 % 12.83 C
3308 23-07-2015 11:25:00 22.4 C 56 % 13.2 C
3309 23-07-2015 11:30:00 22.6 C 55 % 13.11 C
3310 23-07-2015 11:35:00 22.6 C 56 % 13.38 C
3311 23-07-2015 11:40:00 22.4 C 56 % 13.2 C
3312 23-07-2015 11:45:00 22.6 C 57 % 13.65 C
3313 23-07-2015 11:50:00 22.8 C 56 % 13.57 C
3314 23-07-2015 11:55:00 22.8 C 55 % 13.29 C
3315 23-07-2015 12:00:00 22.7 C 58 % 14.01 C
3316 23-07-2015 12:05:00 22.6 C 56 % 13.38 C
3317 23-07-2015 12:10:00 22.6 C 55 % 13.11 C
3318 23-07-2015 12:15:00 22.4 C 55 % 12.92 C
3319 23-07-2015 12:20:00 22.3 C 56 % 13.1 C
3320 23-07-2015 12:25:00 22.2 C 57 % 13.28 C
3321 23-07-2015 12:30:00 22.2 C 57 % 13.28 C
3322 23-07-2015 12:35:00 22.2 C 58 % 13.55 C
3323 23-07-2015 12:40:00 22.2 C 58 % 13.55 C
3324 23-07-2015 12:45:00 22.5 C 58 % 13.83 C
3325 23-07-2015 12:50:00 22.9 C 55 % 13.38 C
Sensor: Nr:Datum:Temp:Feuchte:Taupunkt:
Aussen-T/F 3326 23-07-2015 12:55:00 23.1 C 54 % 13.29 C
3327 23-07-2015 13:00:00 23 C 55 % 13.48 C
3328 23-07-2015 13:05:00 22.8 C 56 % 13.57 C
3329 23-07-2015 13:10:00 22.7 C 55 % 13.2 C
3330 23-07-2015 13:15:00 22.7 C 59 % 14.28 C
3331 23-07-2015 13:20:00 23.1 C 57 % 14.12 C
3332 23-07-2015 13:25:00 23.8 C 56 % 14.5 C
3333 23-07-2015 13:30:00 24.2 C 53 % 14.02 C
3334 23-07-2015 13:35:00 24.5 C 52 % 14 C
3335 23-07-2015 13:40:00 24.3 C 50 % 13.22 C
3336 23-07-2015 13:45:00 24.4 C 49 % 13 C
3337 23-07-2015 13:50:00 24.2 C 50 % 13.12 C
3338 23-07-2015 13:55:00 24.1 C 52 % 13.63 C
3339 23-07-2015 14:00:00 24 C 53 % 13.83 C
3340 23-07-2015 14:05:00 24.1 C 54 % 14.21 C
3341 23-07-2015 14:10:00 24.3 C 55 % 14.68 C
3342 23-07-2015 14:15:00 24.3 C 50 % 13.22 C
3343 23-07-2015 14:20:00 24.6 C 54 % 14.68 C
3344 23-07-2015 14:25:00 24.9 C 51 % 14.07 C
3345 23-07-2015 14:30:00 25.3 C 47 % 13.18 C
3346 23-07-2015 14:35:00 25.2 C 47 % 13.09 C
3347 23-07-2015 14:40:00 24.8 C 48 % 13.05 C
3348 23-07-2015 14:45:00 24.4 C 49 % 13 C
3349 23-07-2015 14:50:00 24.3 C 50 % 13.22 C
3350 23-07-2015 14:55:00 24.5 C 49 % 13.09 C
Sensor: Nr:Datum:Temp:Feuchte:Taupunkt:
Aussen-T/F 3351 23-07-2015 15:00:00 24.6 C 48 % 12.87 C
3352 23-07-2015 15:05:00 24.7 C 54 % 14.77 C
3353 23-07-2015 15:10:00 25 C 49 % 13.55 C
3354 23-07-2015 15:15:00 24.9 C 48 % 13.14 C
3355 23-07-2015 15:20:00 24.9 C 48 % 13.14 C
3356 23-07-2015 15:25:00 25.1 C 46 % 12.67 C
3357 23-07-2015 15:30:00 25.2 C 47 % 13.09 C
3358 23-07-2015 15:35:00 25.1 C 46 % 12.67 C
3359 23-07-2015 15:40:00 24.9 C 46 % 12.49 C
3360 23-07-2015 15:45:00 24.7 C 47 % 12.64 C
3361 23-07-2015 15:50:00 24.6 C 48 % 12.87 C
3362 23-07-2015 15:55:00 24.7 C 47 % 12.64 C
3363 23-07-2015 16:00:00 25.3 C 47 % 13.18 C
3364 23-07-2015 16:05:00 25.6 C 47 % 13.45 C
3365 23-07-2015 16:10:00 25.8 C 46 % 13.31 C
3366 23-07-2015 16:15:00 25.7 C 45 % 12.88 C
3367 23-07-2015 16:20:00 25.6 C 46 % 13.12 C
3368 23-07-2015 16:25:00 25.3 C 45 % 12.52 C
3369 23-07-2015 16:30:00 25.1 C 47 % 13 C
3370 23-07-2015 16:35:00 24.9 C 48 % 13.14 C
3371 23-07-2015 16:40:00 24.9 C 49 % 13.46 C
3372 23-07-2015 16:45:00 24.7 C 49 % 13.27 C
3373 23-07-2015 16:50:00 24.6 C 48 % 12.87 C
3374 23-07-2015 16:55:00 24.5 C 48 % 12.77 C
3375 23-07-2015 17:00:00 24.4 C 47 % 12.36 C
Sensor: Nr:Datum:Temp:Feuchte:Taupunkt:
Aussen-T/F 3376 23-07-2015 17:05:00 24.4 C 48 % 12.68 C
3377 23-07-2015 17:10:00 24.5 C 48 % 12.77 C
3378 23-07-2015 17:15:00 24.6 C 48 % 12.87 C
3379 23-07-2015 17:20:00 24.4 C 49 % 13 C
3380 23-07-2015 17:25:00 24.4 C 48 % 12.68 C
3381 23-07-2015 17:30:00 24.4 C 48 % 12.68 C
3382 23-07-2015 17:35:00 24.6 C 48 % 12.87 C
3383 23-07-2015 17:40:00 24.8 C 46 % 12.4 C
3384 23-07-2015 17:45:00 24.8 C 48 % 13.05 C
3385 23-07-2015 17:50:00 24.7 C 47 % 12.64 C
3386 23-07-2015 17:55:00 24.6 C 47 % 12.54 C
3387 23-07-2015 18:00:00 24.4 C 49 % 13 C
3388 23-07-2015 18:05:00 24.5 C 48 % 12.77 C
3389 23-07-2015 18:10:00 24.8 C 47 % 12.73 C
3390 23-07-2015 18:15:00 25.3 C 47 % 13.18 C
3391 23-07-2015 18:20:00 25.8 C 47 % 13.64 C
3392 23-07-2015 18:25:00 25.9 C 45 % 13.06 C
3393 23-07-2015 18:30:00 25.9 C 45 % 13.06 C
3394 23-07-2015 18:35:00 25.7 C 45 % 12.88 C
3395 23-07-2015 18:40:00 25.7 C 45 % 12.88 C
3396 23-07-2015 18:45:00 25.8 C 45 % 12.97 C
3397 23-07-2015 18:50:00 25.9 C 45 % 13.06 C
3398 23-07-2015 18:55:00 25.9 C 44 % 12.72 C
3399 23-07-2015 19:00:00 25.8 C 44 % 12.63 C
3400 23-07-2015 19:05:00 25.8 C 44 % 12.63 C
Sensor: Nr:Datum:Temp:Feuchte:Taupunkt:
Aussen-T/F 3401 23-07-2015 19:10:00 25.9 C 44 % 12.72 C
3402 23-07-2015 19:15:00 25.8 C 45 % 12.97 C
3403 23-07-2015 19:20:00 25.7 C 46 % 13.22 C
3404 23-07-2015 19:25:00 25.4 C 47 % 13.27 C
3405 23-07-2015 19:30:00 25.3 C 46 % 12.85 C
3406 23-07-2015 19:35:00 25.2 C 46 % 12.76 C
3407 23-07-2015 19:40:00 24.9 C 47 % 12.82 C
3408 23-07-2015 19:45:00 24.6 C 48 % 12.87 C
3409 23-07-2015 19:50:00 24.3 C 49 % 12.91 C
3410 23-07-2015 19:55:00 24.2 C 49 % 12.81 C
3411 23-07-2015 20:00:00 24.1 C 50 % 13.03 C
3412 23-07-2015 20:05:00 23.8 C 50 % 12.76 C
3413 23-07-2015 20:10:00 23.6 C 52 % 13.17 C
3414 23-07-2015 20:15:00 23.3 C 52 % 12.9 C
3415 23-07-2015 20:20:00 23.1 C 53 % 13 C
3416 23-07-2015 20:25:00 22.8 C 55 % 13.29 C
3417 23-07-2015 20:30:00 22.5 C 60 % 14.35 C
3418 23-07-2015 20:35:00 21.9 C 61 % 14.04 C
3419 23-07-2015 20:40:00 21.4 C 62 % 13.82 C
3420 23-07-2015 20:45:00 20.9 C 63 % 13.6 C
3421 23-07-2015 20:50:00 20.7 C 65 % 13.89 C
3422 23-07-2015 20:55:00 20.4 C 67 % 14.07 C
3423 23-07-2015 21:00:00 20.2 C 68 % 14.11 C
3424 23-07-2015 21:05:00 19.9 C 68 % 13.82 C
3425 23-07-2015 21:10:00 19.6 C 69 % 13.76 C
Sensor: Nr:Datum:Temp:Feuchte:Taupunkt:
Aussen-T/F 3426 23-07-2015 21:15:00 19.4 C 69 % 13.57 C
3427 23-07-2015 21:20:00 19.3 C 70 % 13.69 C
3428 23-07-2015 21:25:00 19.1 C 71 % 13.72 C
3429 23-07-2015 21:30:00 18.9 C 72 % 13.74 C
3430 23-07-2015 21:35:00 18.7 C 72 % 13.55 C
3431 23-07-2015 21:40:00 18.6 C 74 % 13.88 C
3432 23-07-2015 21:45:00 18.4 C 74 % 13.68 C
3433 23-07-2015 21:50:00 18.4 C 75 % 13.89 C
3434 23-07-2015 21:55:00 18.3 C 74 % 13.59 C
3435 23-07-2015 22:00:00 18.2 C 75 % 13.7 C
3436 23-07-2015 22:05:00 18.1 C 75 % 13.6 C
3437 23-07-2015 22:10:00 18 C 76 % 13.71 C
3438 23-07-2015 22:15:00 17.9 C 75 % 13.41 C
3439 23-07-2015 22:20:00 17.8 C 76 % 13.52 C
3440 23-07-2015 22:25:00 17.8 C 76 % 13.52 C
3441 23-07-2015 22:30:00 17.7 C 76 % 13.42 C
3442 23-07-2015 22:35:00 17.7 C 76 % 13.42 C
3443 23-07-2015 22:40:00 17.6 C 76 % 13.32 C
3444 23-07-2015 22:45:00 17.5 C 76 % 13.23 C
3445 23-07-2015 22:50:00 17.4 C 76 % 13.13 C
3446 23-07-2015 22:55:00 17.3 C 77 % 13.23 C
3447 23-07-2015 23:00:00 17.3 C 78 % 13.43 C
3448 23-07-2015 23:05:00 17.2 C 78 % 13.33 C
3449 23-07-2015 23:10:00 17.2 C 79 % 13.53 C
3450 23-07-2015 23:15:00 17.1 C 78 % 13.24 C
Sensor: Nr:Datum:Temp:Feuchte:Taupunkt:
Aussen-T/F 3451 23-07-2015 23:20:00 17.1 C 79 % 13.43 C
3452 23-07-2015 23:25:00 17 C 79 % 13.33 C
3453 23-07-2015 23:30:00 16.9 C 78 % 13.04 C
3454 23-07-2015 23:35:00 16.8 C 78 % 12.94 C
3455 23-07-2015 23:40:00 16.8 C 78 % 12.94 C
3456 23-07-2015 23:45:00 16.7 C 79 % 13.04 C
3457 23-07-2015 23:50:00 16.7 C 80 % 13.23 C
3458 23-07-2015 23:55:00 16.6 C 80 % 13.14 C
3459 24-07-2015 00:00:00 16.6 C 80 % 13.14 C
3460 24-07-2015 00:05:00 16.5 C 80 % 13.04 C
3461 24-07-2015 00:10:00 16.5 C 79 % 12.85 C
3462 24-07-2015 00:15:00 16.4 C 79 % 12.75 C
3463 24-07-2015 00:20:00 16.4 C 79 % 12.75 C
3464 24-07-2015 00:25:00 16.4 C 79 % 12.75 C
3465 24-07-2015 00:30:00 16.3 C 79 % 12.65 C
3466 24-07-2015 00:35:00 16.2 C 80 % 12.75 C
3467 24-07-2015 00:40:00 16.2 C 80 % 12.75 C
3468 24-07-2015 00:45:00 16.1 C 80 % 12.65 C
3469 24-07-2015 00:50:00 16.1 C 80 % 12.65 C
3470 24-07-2015 00:55:00 15.9 C 80 % 12.46 C
3471 24-07-2015 01:00:00 15.8 C 81 % 12.55 C
3472 24-07-2015 01:05:00 15.8 C 81 % 12.55 C
3473 24-07-2015 01:10:00 15.7 C 82 % 12.64 C
3474 24-07-2015 01:15:00 15.5 C 82 % 12.44 C
3475 24-07-2015 01:20:00 15.4 C 82 % 12.35 C
Sensor: Nr:Datum:Temp:Feuchte:Taupunkt:
Aussen-T/F 3476 24-07-2015 01:25:00 15.3 C 83 % 12.43 C
3477 24-07-2015 01:30:00 15.3 C 83 % 12.43 C
3478 24-07-2015 01:35:00 15.2 C 83 % 12.33 C
3479 24-07-2015 01:40:00 15.1 C 84 % 12.42 C
3480 24-07-2015 01:45:00 15.1 C 84 % 12.42 C
3481 24-07-2015 01:50:00 14.9 C 84 % 12.22 C
3482 24-07-2015 01:55:00 14.9 C 84 % 12.22 C
3483 24-07-2015 02:00:00 14.8 C 85 % 12.3 C
3484 24-07-2015 02:05:00 14.7 C 85 % 12.21 C
3485 24-07-2015 02:10:00 14.7 C 85 % 12.21 C
3486 24-07-2015 02:15:00 14.6 C 86 % 12.29 C
3487 24-07-2015 02:20:00 14.6 C 86 % 12.29 C
3488 24-07-2015 02:25:00 14.5 C 86 % 12.19 C
3489 24-07-2015 02:30:00 14.4 C 86 % 12.09 C
3490 24-07-2015 02:35:00 14.4 C 86 % 12.09 C
3491 24-07-2015 02:40:00 14.3 C 86 % 11.99 C
3492 24-07-2015 02:45:00 14.3 C 87 % 12.17 C
3493 24-07-2015 02:50:00 14.2 C 87 % 12.07 C
3494 24-07-2015 02:55:00 14.2 C 87 % 12.07 C
3495 24-07-2015 03:00:00 14.2 C 87 % 12.07 C
3496 24-07-2015 03:05:00 14.2 C 87 % 12.07 C
3497 24-07-2015 03:10:00 14.2 C 88 % 12.24 C
3498 24-07-2015 03:15:00 14.2 C 88 % 12.24 C
3499 24-07-2015 03:20:00 14.3 C 87 % 12.17 C
3500 24-07-2015 03:25:00 14.3 C 87 % 12.17 C
Sensor: Nr:Datum:Temp:Feuchte:Taupunkt:
Aussen-T/F 3501 24-07-2015 03:30:00 14.3 C 87 % 12.17 C
3502 24-07-2015 03:35:00 14.4 C 87 % 12.27 C
3503 24-07-2015 03:40:00 14.3 C 87 % 12.17 C
3504 24-07-2015 03:45:00 14.3 C 88 % 12.34 C
3505 24-07-2015 03:50:00 14.3 C 88 % 12.34 C
3506 24-07-2015 03:55:00 14.2 C 87 % 12.07 C
3507 24-07-2015 04:00:00 14.2 C 88 % 12.24 C
3508 24-07-2015 04:05:00 14.1 C 88 % 12.14 C
3509 24-07-2015 04:10:00 14 C 88 % 12.05 C
3510 24-07-2015 04:15:00 13.9 C 88 % 11.95 C
3511 24-07-2015 04:20:00 13.9 C 88 % 11.95 C
3512 24-07-2015 04:25:00 13.8 C 89 % 12.02 C
3513 24-07-2015 04:30:00 13.8 C 89 % 12.02 C
3514 24-07-2015 04:35:00 13.8 C 90 % 12.19 C
3515 24-07-2015 04:40:00 13.8 C 90 % 12.19 C
3516 24-07-2015 04:45:00 13.9 C 90 % 12.29 C
3517 24-07-2015 04:50:00 13.9 C 90 % 12.29 C
3518 24-07-2015 04:55:00 13.9 C 90 % 12.29 C
3519 24-07-2015 05:00:00 13.9 C 90 % 12.29 C
3520 24-07-2015 05:05:00 13.9 C 90 % 12.29 C
3521 24-07-2015 05:10:00 13.9 C 90 % 12.29 C
3522 24-07-2015 05:15:00 13.9 C 90 % 12.29 C
3523 24-07-2015 05:20:00 13.9 C 90 % 12.29 C
3524 24-07-2015 05:25:00 13.9 C 90 % 12.29 C
3525 24-07-2015 05:30:00 13.8 C 90 % 12.19 C
Sensor: Nr:Datum:Temp:Feuchte:Taupunkt:
Aussen-T/F 3526 24-07-2015 05:35:00 13.8 C 90 % 12.19 C
3527 24-07-2015 05:40:00 13.7 C 90 % 12.09 C
3528 24-07-2015 05:45:00 13.7 C 90 % 12.09 C
3529 24-07-2015 05:50:00 13.7 C 90 % 12.09 C
3530 24-07-2015 05:55:00 13.6 C 90 % 11.99 C
3531 24-07-2015 06:00:00 13.6 C 91 % 12.16 C
3532 24-07-2015 06:05:00 13.7 C 91 % 12.26 C
3533 24-07-2015 06:10:00 13.7 C 91 % 12.26 C
3534 24-07-2015 06:15:00 13.7 C 91 % 12.26 C
3535 24-07-2015 06:20:00 13.7 C 91 % 12.26 C
3536 24-07-2015 06:25:00 13.7 C 91 % 12.26 C
3537 24-07-2015 06:30:00 13.7 C 91 % 12.26 C
3538 24-07-2015 06:35:00 13.7 C 91 % 12.26 C
3539 24-07-2015 06:40:00 13.8 C 91 % 12.36 C
3540 24-07-2015 06:45:00 13.8 C 91 % 12.36 C
3541 24-07-2015 06:50:00 13.8 C 91 % 12.36 C
3542 24-07-2015 06:55:00 13.9 C 91 % 12.46 C
3543 24-07-2015 07:00:00 14.1 C 91 % 12.65 C
3544 24-07-2015 07:05:00 14.2 C 91 % 12.75 C
3545 24-07-2015 07:10:00 14.3 C 91 % 12.85 C
3546 24-07-2015 07:15:00 14.4 C 91 % 12.95 C
3547 24-07-2015 07:20:00 14.5 C 90 % 12.88 C
3548 24-07-2015 07:25:00 14.6 C 90 % 12.98 C
3549 24-07-2015 07:30:00 14.7 C 90 % 13.08 C
3550 24-07-2015 07:35:00 14.8 C 90 % 13.18 C
Sensor: Nr:Datum:Temp:Feuchte:Taupunkt:
Aussen-T/F 3551 24-07-2015 07:40:00 14.8 C 90 % 13.18 C
3552 24-07-2015 07:45:00 14.8 C 90 % 13.18 C
3553 24-07-2015 09:35:00 18.6 C 76 % 14.29 C
3554 24-07-2015 09:40:00 18.7 C 77 % 14.59 C
3555 24-07-2015 09:45:00 18.8 C 79 % 15.08 C
3556 24-07-2015 09:50:00 19 C 76 % 14.68 C
3557 24-07-2015 09:55:00 19.3 C 77 % 15.17 C
3558 24-07-2015 10:00:00 19.6 C 74 % 14.84 C
3559 24-07-2015 10:05:00 19.9 C 73 % 14.92 C
3560 24-07-2015 10:10:00 20.2 C 74 % 15.42 C
3561 24-07-2015 10:15:00 20.4 C 73 % 15.4 C
3562 24-07-2015 10:20:00 20.7 C 71 % 15.25 C
3563 24-07-2015 10:25:00 20.9 C 70 % 15.23 C
3564 24-07-2015 10:30:00 21.1 C 69 % 15.19 C
3565 24-07-2015 10:35:00 21.2 C 71 % 15.73 C
3566 24-07-2015 10:40:00 21.2 C 71 % 15.73 C
3567 24-07-2015 10:45:00 21.2 C 71 % 15.73 C
3568 24-07-2015 10:50:00 21.4 C 67 % 15.02 C
3569 24-07-2015 10:55:00 21.7 C 68 % 15.54 C
3570 24-07-2015 11:00:00 22.1 C 67 % 15.69 C
3571 24-07-2015 11:05:00 22.6 C 67 % 16.16 C
3572 24-07-2015 11:10:00 23 C 65 % 16.07 C
3573 24-07-2015 11:15:00 23.4 C 63 % 15.96 C
3574 24-07-2015 11:20:00 23.6 C 61 % 15.64 C
3575 24-07-2015 11:25:00 23.7 C 59 % 15.21 C
Sensor: Nr:Datum:Temp:Feuchte:Taupunkt:
Aussen-T/F 3576 24-07-2015 11:30:00 23.9 C 61 % 15.92 C
3577 24-07-2015 11:35:00 24 C 61 % 16.02 C
3578 24-07-2015 11:40:00 24.2 C 61 % 16.2 C
3579 24-07-2015 11:45:00 24.4 C 59 % 15.87 C
3580 24-07-2015 11:50:00 24.8 C 57 % 15.7 C
3581 24-07-2015 11:55:00 24.9 C 56 % 15.52 C
3582 24-07-2015 12:00:00 25.1 C 58 % 16.26 C
3583 24-07-2015 12:05:00 25.2 C 57 % 16.08 C
3584 24-07-2015 12:10:00 25.4 C 55 % 15.7 C
3585 24-07-2015 12:15:00 25.8 C 56 % 16.36 C
3586 24-07-2015 12:20:00 26 C 55 % 16.26 C
3587 24-07-2015 12:25:00 26.1 C 51 % 15.17 C
3588 24-07-2015 12:30:00 26.3 C 52 % 15.66 C
3589 24-07-2015 12:35:00 26.3 C 50 % 15.05 C
3590 24-07-2015 12:40:00 26.2 C 52 % 15.57 C
3591 24-07-2015 12:45:00 26.2 C 52 % 15.57 C
3592 24-07-2015 12:50:00 26.2 C 50 % 14.96 C
3593 24-07-2015 12:55:00 26.1 C 51 % 15.17 C
3594 24-07-2015 13:00:00 26.3 C 51 % 15.36 C
3595 24-07-2015 13:05:00 26.4 C 49 % 14.83 C
3596 24-07-2015 13:10:00 26.6 C 48 % 14.69 C
3597 24-07-2015 13:15:00 26.6 C 48 % 14.69 C
3598 24-07-2015 13:20:00 26.6 C 49 % 15.01 C
3599 24-07-2015 13:25:00 26.6 C 52 % 15.94 C
3600 24-07-2015 13:30:00 26.6 C 49 % 15.01 C
Sensor: Nr:Datum:Temp:Feuchte:Taupunkt:
Aussen-T/F 3601 24-07-2015 13:35:00 26.5 C 53 % 16.14 C
3602 24-07-2015 13:40:00 26.7 C 49 % 15.1 C
3603 24-07-2015 13:45:00 26.8 C 48 % 14.87 C
3604 24-07-2015 13:50:00 26.8 C 49 % 15.19 C
3605 24-07-2015 13:55:00 26.8 C 48 % 14.87 C
3606 24-07-2015 14:00:00 26.9 C 47 % 14.64 C
3607 24-07-2015 14:05:00 26.9 C 47 % 14.64 C
3608 24-07-2015 14:10:00 27.1 C 46 % 14.49 C
3609 24-07-2015 14:15:00 26.8 C 47 % 14.55 C
3610 24-07-2015 14:20:00 26.8 C 48 % 14.87 C
3611 24-07-2015 14:25:00 26.9 C 49 % 15.28 C
3612 24-07-2015 14:30:00 27.1 C 46 % 14.49 C
3613 24-07-2015 14:35:00 27.2 C 48 % 15.24 C
3614 24-07-2015 14:40:00 27.1 C 50 % 15.78 C
3615 24-07-2015 14:45:00 27.2 C 49 % 15.56 C
3616 24-07-2015 14:50:00 27.4 C 49 % 15.74 C
3617 24-07-2015 14:55:00 27.8 C 46 % 15.12 C
3618 24-07-2015 15:00:00 28.3 C 46 % 15.57 C
3619 24-07-2015 15:05:00 28.7 C 44 % 15.24 C
3620 24-07-2015 15:10:00 28.7 C 44 % 15.24 C
3621 24-07-2015 15:15:00 28.7 C 44 % 15.24 C
3622 24-07-2015 15:20:00 28.9 C 44 % 15.42 C
3623 24-07-2015 15:25:00 29.1 C 46 % 16.3 C
3624 24-07-2015 15:30:00 29.1 C 44 % 15.6 C
3625 24-07-2015 15:35:00 29.1 C 45 % 15.95 C
Sensor: Nr:Datum:Temp:Feuchte:Taupunkt:
Aussen-T/F 3626 24-07-2015 15:40:00 28.9 C 45 % 15.77 C
3627 24-07-2015 15:45:00 28.8 C 45 % 15.68 C
3628 24-07-2015 15:50:00 28.9 C 46 % 16.12 C
3629 24-07-2015 15:55:00 28.9 C 47 % 16.45 C
3630 24-07-2015 16:00:00 29.3 C 44 % 15.78 C
3631 24-07-2015 16:05:00 29.5 C 45 % 16.32 C
3632 24-07-2015 16:10:00 29.6 C 44 % 16.05 C
3633 24-07-2015 16:15:00 29.7 C 44 % 16.14 C
3634 24-07-2015 16:20:00 29.8 C 43 % 15.87 C
3635 24-07-2015 16:25:00 30.1 C 41 % 15.4 C
3636 24-07-2015 16:30:00 30.3 C 40 % 15.19 C
3637 24-07-2015 16:35:00 30.2 C 43 % 16.23 C
3638 24-07-2015 16:40:00 30 C 45 % 16.77 C
3639 24-07-2015 16:45:00 29.8 C 43 % 15.87 C
3640 24-07-2015 16:50:00 29.7 C 42 % 15.42 C
3641 24-07-2015 16:55:00 29.6 C 43 % 15.69 C
3642 24-07-2015 17:00:00 29.6 C 42 % 15.33 C
3643 24-07-2015 17:05:00 29.8 C 42 % 15.51 C
3644 24-07-2015 17:10:00 29.7 C 43 % 15.78 C
3645 24-07-2015 17:15:00 29.5 C 43 % 15.6 C
3646 24-07-2015 17:20:00 29.7 C 43 % 15.78 C
3647 24-07-2015 17:25:00 30.2 C 41 % 15.49 C
3648 24-07-2015 17:30:00 30.3 C 46 % 17.39 C
3649 24-07-2015 17:35:00 30.1 C 42 % 15.77 C
3650 24-07-2015 17:40:00 29.8 C 43 % 15.87 C
Sensor: Nr:Datum:Temp:Feuchte:Taupunkt:
Aussen-T/F 3651 24-07-2015 17:45:00 29.7 C 49 % 17.84 C
3652 24-07-2015 17:50:00 29.2 C 52 % 18.33 C
3653 24-07-2015 17:55:00 28.8 C 56 % 19.14 C
3654 24-07-2015 18:00:00 28.2 C 56 % 18.59 C
3655 24-07-2015 18:05:00 27.6 C 59 % 18.86 C
3656 24-07-2015 18:10:00 27.3 C 59 % 18.58 C
3657 24-07-2015 18:15:00 27.1 C 62 % 19.19 C
3658 24-07-2015 18:20:00 26.9 C 61 % 18.74 C
3659 24-07-2015 18:25:00 26.7 C 62 % 18.81 C
3660 24-07-2015 18:30:00 26.4 C 64 % 19.04 C
3661 24-07-2015 18:35:00 26.3 C 64 % 18.94 C
3662 24-07-2015 18:40:00 26.2 C 64 % 18.85 C
3663 24-07-2015 18:45:00 26.4 C 65 % 19.29 C
3664 24-07-2015 18:50:00 26.8 C 62 % 18.91 C
3665 24-07-2015 18:55:00 27.1 C 62 % 19.19 C
3666 24-07-2015 19:00:00 26.9 C 63 % 19.26 C
3667 24-07-2015 19:05:00 26.7 C 63 % 19.07 C
3668 24-07-2015 19:10:00 26.5 C 63 % 18.88 C
3669 24-07-2015 19:15:00 26.3 C 62 % 18.44 C
3670 24-07-2015 19:20:00 26.1 C 64 % 18.76 C
3671 24-07-2015 19:25:00 25.9 C 65 % 18.81 C
3672 24-07-2015 19:30:00 25.7 C 65 % 18.62 C
3673 24-07-2015 19:35:00 25.4 C 66 % 18.58 C
3674 24-07-2015 19:40:00 25.1 C 65 % 18.06 C
3675 24-07-2015 19:45:00 24.9 C 66 % 18.11 C
Sensor: Nr:Datum:Temp:Feuchte:Taupunkt:
Aussen-T/F 3676 24-07-2015 19:50:00 24.8 C 67 % 18.25 C
3677 24-07-2015 19:55:00 24.9 C 68 % 18.59 C
3678 24-07-2015 20:00:00 25 C 67 % 18.44 C
3679 24-07-2015 20:05:00 25.1 C 67 % 18.54 C
3680 24-07-2015 20:10:00 25.2 C 67 % 18.63 C
3681 24-07-2015 20:15:00 25.2 C 66 % 18.39 C
3682 24-07-2015 20:20:00 25 C 67 % 18.44 C
3683 24-07-2015 20:25:00 24.8 C 67 % 18.25 C
3684 24-07-2015 20:30:00 24.6 C 67 % 18.06 C
3685 24-07-2015 20:35:00 24.3 C 68 % 18.01 C
3686 24-07-2015 20:40:00 24.1 C 68 % 17.82 C
3687 24-07-2015 20:45:00 23.9 C 68 % 17.63 C
3688 24-07-2015 20:50:00 23.8 C 69 % 17.77 C
3689 24-07-2015 20:55:00 23.6 C 69 % 17.58 C
3690 24-07-2015 21:00:00 23.6 C 68 % 17.35 C
3691 24-07-2015 21:05:00 23.5 C 70 % 17.71 C
3692 24-07-2015 21:10:00 23.4 C 70 % 17.62 C
3693 24-07-2015 21:15:00 23.3 C 69 % 17.29 C
3694 24-07-2015 21:20:00 23.2 C 70 % 17.42 C
3695 24-07-2015 21:25:00 23 C 69 % 17.01 C
3696 24-07-2015 21:30:00 22.8 C 69 % 16.82 C
3697 24-07-2015 21:35:00 22.8 C 69 % 16.82 C
3698 24-07-2015 21:40:00 22.7 C 70 % 16.95 C
3699 24-07-2015 21:45:00 22.7 C 71 % 17.17 C
3700 24-07-2015 21:50:00 22.7 C 72 % 17.39 C
Sensor: Nr:Datum:Temp:Feuchte:Taupunkt:
Aussen-T/F 3701 24-07-2015 21:55:00 22.7 C 72 % 17.39 C
3702 24-07-2015 22:00:00 22.7 C 72 % 17.39 C
3703 24-07-2015 22:05:00 22.7 C 72 % 17.39 C
3704 24-07-2015 22:10:00 22.7 C 71 % 17.17 C
3705 24-07-2015 22:15:00 22.7 C 71 % 17.17 C
3706 24-07-2015 22:20:00 22.7 C 73 % 17.61 C
3707 24-07-2015 22:25:00 22.7 C 73 % 17.61 C
3708 24-07-2015 22:30:00 22.6 C 73 % 17.51 C
3709 24-07-2015 22:35:00 22.6 C 72 % 17.3 C
3710 24-07-2015 22:40:00 22.8 C 68 % 16.59 C
3711 24-07-2015 22:45:00 23.6 C 67 % 17.11 C
3712 24-07-2015 22:50:00 23.6 C 67 % 17.11 C
3713 24-07-2015 22:55:00 23.1 C 70 % 17.33 C
3714 24-07-2015 23:00:00 22.5 C 74 % 17.63 C
3715 24-07-2015 23:05:00 21.8 C 78 % 17.79 C
3716 24-07-2015 23:10:00 21.1 C 81 % 17.71 C
3717 24-07-2015 23:15:00 20.4 C 84 % 17.61 C
3718 24-07-2015 23:20:00 19.9 C 86 % 17.49 C
3719 24-07-2015 23:25:00 19.6 C 87 % 17.38 C
3720 24-07-2015 23:30:00 19.3 C 88 % 17.26 C
3721 24-07-2015 23:35:00 19.1 C 89 % 17.24 C
3722 24-07-2015 23:40:00 19.1 C 89 % 17.24 C
3723 24-07-2015 23:45:00 19.1 C 89 % 17.24 C
3724 24-07-2015 23:50:00 18.9 C 89 % 17.05 C
3725 24-07-2015 23:55:00 18.9 C 90 % 17.22 C
Sensor: Nr:Datum:Temp:Feuchte:Taupunkt:
Aussen-T/F 3726 25-07-2015 00:00:00 18.8 C 91 % 17.3 C
3727 25-07-2015 00:05:00 18.7 C 91 % 17.2 C
3728 25-07-2015 00:10:00 18.6 C 91 % 17.1 C
3729 25-07-2015 00:15:00 18.5 C 91 % 17 C
3730 25-07-2015 00:20:00 18.4 C 91 % 16.9 C
3731 25-07-2015 00:25:00 18.4 C 92 % 17.08 C
3732 25-07-2015 00:30:00 18.3 C 92 % 16.98 C
3733 25-07-2015 00:35:00 18.3 C 93 % 17.15 C
3734 25-07-2015 00:40:00 18.2 C 93 % 17.05 C
3735 25-07-2015 00:45:00 18.2 C 93 % 17.05 C
3736 25-07-2015 00:50:00 18.1 C 93 % 16.95 C
3737 25-07-2015 00:55:00 18 C 94 % 17.02 C
3738 25-07-2015 01:00:00 17.9 C 94 % 16.92 C
3739 25-07-2015 01:05:00 17.9 C 94 % 16.92 C
3740 25-07-2015 01:10:00 17.8 C 94 % 16.82 C
3741 25-07-2015 01:15:00 17.8 C 94 % 16.82 C
3742 25-07-2015 01:20:00 17.8 C 94 % 16.82 C
3743 25-07-2015 01:25:00 17.8 C 95 % 16.99 C
3744 25-07-2015 01:30:00 17.8 C 95 % 16.99 C
3745 25-07-2015 01:35:00 17.8 C 95 % 16.99 C
3746 25-07-2015 01:40:00 17.8 C 95 % 16.99 C
3747 25-07-2015 01:45:00 17.7 C 95 % 16.89 C
3748 25-07-2015 01:50:00 17.7 C 95 % 16.89 C
3749 25-07-2015 01:55:00 17.6 C 95 % 16.79 C
3750 25-07-2015 02:00:00 17.6 C 95 % 16.79 C
Sensor: Nr:Datum:Temp:Feuchte:Taupunkt:
Aussen-T/F 3751 25-07-2015 02:05:00 17.6 C 95 % 16.79 C
3752 25-07-2015 02:10:00 17.6 C 95 % 16.79 C
3753 25-07-2015 02:15:00 17.6 C 95 % 16.79 C
3754 25-07-2015 02:20:00 17.6 C 95 % 16.79 C
3755 25-07-2015 02:25:00 17.5 C 95 % 16.69 C
3756 25-07-2015 02:30:00 17.4 C 95 % 16.59 C
3757 25-07-2015 02:35:00 17.4 C 95 % 16.59 C
3758 25-07-2015 02:40:00 17.4 C 95 % 16.59 C
3759 25-07-2015 02:45:00 17.3 C 95 % 16.49 C
3760 25-07-2015 02:50:00 17.3 C 95 % 16.49 C
3761 25-07-2015 02:55:00 17.3 C 95 % 16.49 C
3762 25-07-2015 03:00:00 17.2 C 95 % 16.39 C
3763 25-07-2015 03:05:00 17.2 C 96 % 16.56 C
3764 25-07-2015 03:10:00 17.2 C 95 % 16.39 C
3765 25-07-2015 03:15:00 17.1 C 95 % 16.29 C
3766 25-07-2015 03:20:00 17.1 C 95 % 16.29 C
3767 25-07-2015 03:25:00 17 C 96 % 16.36 C
3768 25-07-2015 03:30:00 16.9 C 96 % 16.26 C
3769 25-07-2015 03:35:00 16.8 C 96 % 16.16 C
3770 25-07-2015 03:40:00 16.8 C 95 % 15.99 C
3771 25-07-2015 03:45:00 16.8 C 96 % 16.16 C
3772 25-07-2015 03:50:00 16.7 C 96 % 16.06 C
3773 25-07-2015 03:55:00 16.7 C 96 % 16.06 C
3774 25-07-2015 04:00:00 16.6 C 96 % 15.96 C
3775 25-07-2015 04:05:00 16.6 C 96 % 15.96 C
Sensor: Nr:Datum:Temp:Feuchte:Taupunkt:
Aussen-T/F 3776 25-07-2015 04:10:00 16.6 C 96 % 15.96 C
3777 25-07-2015 04:15:00 16.6 C 96 % 15.96 C
3778 25-07-2015 04:20:00 16.6 C 96 % 15.96 C
3779 25-07-2015 04:25:00 16.6 C 96 % 15.96 C
3780 25-07-2015 06:40:00 16.8 C 96 % 16.16 C
3781 25-07-2015 06:45:00 16.8 C 96 % 16.16 C
3782 25-07-2015 06:50:00 16.8 C 96 % 16.16 C
3783 25-07-2015 07:45:00 17.2 C 93 % 16.06 C
3784 25-07-2015 07:50:00 17.4 C 93 % 16.26 C
3785 25-07-2015 07:55:00 17.4 C 93 % 16.26 C
3786 25-07-2015 08:00:00 17.4 C 92 % 16.09 C
3787 25-07-2015 08:05:00 17.7 C 91 % 16.21 C
3788 25-07-2015 08:10:00 18 C 88 % 15.98 C
3789 25-07-2015 08:15:00 18.6 C 87 % 16.39 C
3790 25-07-2015 08:20:00 19.1 C 84 % 16.33 C
3791 25-07-2015 08:25:00 19.4 C 80 % 15.86 C
3792 25-07-2015 08:30:00 19.4 C 80 % 15.86 C
3793 25-07-2015 08:35:00 19.4 C 79 % 15.66 C
3794 25-07-2015 08:40:00 19.3 C 79 % 15.57 C
3795 25-07-2015 08:45:00 19.4 C 79 % 15.66 C
3796 25-07-2015 08:50:00 19.4 C 77 % 15.27 C
3797 25-07-2015 08:55:00 19.6 C 76 % 15.26 C
3798 25-07-2015 09:00:00 19.7 C 75 % 15.15 C
3799 25-07-2015 09:05:00 19.8 C 74 % 15.03 C
3800 25-07-2015 09:10:00 19.9 C 74 % 15.13 C
Sensor: Nr:Datum:Temp:Feuchte:Taupunkt:
Aussen-T/F 3801 25-07-2015 09:15:00 19.9 C 73 % 14.92 C
3802 25-07-2015 09:20:00 20.1 C 73 % 15.11 C
3803 25-07-2015 09:25:00 20.2 C 71 % 14.78 C
3804 25-07-2015 09:30:00 20.3 C 72 % 15.09 C
3805 25-07-2015 09:35:00 20.3 C 71 % 14.87 C
3806 25-07-2015 09:40:00 20.2 C 72 % 14.99 C
3807 25-07-2015 09:45:00 20.1 C 72 % 14.9 C
3808 25-07-2015 09:50:00 19.8 C 73 % 14.82 C
3809 25-07-2015 09:55:00 19.7 C 74 % 14.94 C
3810 25-07-2015 10:00:00 19.8 C 73 % 14.82 C
3811 25-07-2015 10:05:00 20 C 73 % 15.01 C
3812 25-07-2015 10:10:00 20.3 C 73 % 15.3 C
3813 25-07-2015 10:15:00 20.1 C 74 % 15.32 C
3814 25-07-2015 10:20:00 19.6 C 78 % 15.66 C
3815 25-07-2015 10:25:00 19.1 C 81 % 15.76 C
3816 25-07-2015 10:30:00 18.8 C 83 % 15.85 C
3817 25-07-2015 10:35:00 18.7 C 82 % 15.57 C
3818 25-07-2015 10:40:00 18.7 C 83 % 15.75 C
3819 25-07-2015 10:45:00 18.8 C 83 % 15.85 C
3820 25-07-2015 10:50:00 19.2 C 81 % 15.86 C
3821 25-07-2015 10:55:00 19.2 C 80 % 15.67 C
3822 25-07-2015 11:00:00 19.1 C 79 % 15.37 C
3823 25-07-2015 11:05:00 18.7 C 80 % 15.18 C
3824 25-07-2015 11:10:00 18.4 C 83 % 15.46 C
3825 25-07-2015 11:15:00 18 C 83 % 15.07 C
Sensor: Nr:Datum:Temp:Feuchte:Taupunkt:
Aussen-T/F 3826 25-07-2015 11:20:00 18 C 83 % 15.07 C
3827 25-07-2015 11:25:00 18 C 84 % 15.26 C
3828 25-07-2015 11:30:00 17.9 C 83 % 14.97 C
3829 25-07-2015 11:35:00 17.9 C 83 % 14.97 C
3830 25-07-2015 11:40:00 18 C 84 % 15.26 C
3831 25-07-2015 11:45:00 18.1 C 84 % 15.35 C
3832 25-07-2015 11:50:00 18.2 C 84 % 15.45 C
3833 25-07-2015 11:55:00 18.2 C 83 % 15.27 C
3834 25-07-2015 12:00:00 18.2 C 84 % 15.45 C
3835 25-07-2015 12:05:00 18.2 C 84 % 15.45 C
3836 25-07-2015 12:10:00 18.6 C 85 % 16.03 C
3837 25-07-2015 12:15:00 18.9 C 83 % 15.95 C
3838 25-07-2015 12:20:00 18.7 C 80 % 15.18 C
3839 25-07-2015 12:25:00 18.5 C 79 % 14.79 C
3840 25-07-2015 12:30:00 18.5 C 81 % 15.18 C
3841 25-07-2015 12:35:00 18.5 C 79 % 14.79 C
3842 25-07-2015 12:40:00 18.3 C 80 % 14.79 C
3843 25-07-2015 12:45:00 17.7 C 82 % 14.59 C
3844 25-07-2015 12:50:00 17.1 C 84 % 14.38 C
3845 25-07-2015 12:55:00 16.7 C 84 % 13.98 C
3846 25-07-2015 13:00:00 16.7 C 86 % 14.35 C
3847 25-07-2015 13:05:00 16.8 C 85 % 14.26 C
3848 25-07-2015 13:10:00 17 C 85 % 14.46 C
3849 25-07-2015 13:15:00 17.3 C 83 % 14.39 C
3850 25-07-2015 13:20:00 17.7 C 80 % 14.21 C
Sensor: Nr:Datum:Temp:Feuchte:Taupunkt:
Aussen-T/F 3851 25-07-2015 13:25:00 17.9 C 77 % 13.81 C
3852 25-07-2015 13:30:00 17.9 C 75 % 13.41 C
3853 25-07-2015 13:35:00 18 C 76 % 13.71 C
3854 25-07-2015 13:40:00 18.3 C 74 % 13.59 C
3855 25-07-2015 13:45:00 18.3 C 74 % 13.59 C
3856 25-07-2015 13:50:00 18.3 C 72 % 13.17 C
3857 25-07-2015 13:55:00 18.1 C 70 % 12.55 C
3858 25-07-2015 14:00:00 18.2 C 71 % 12.86 C
3859 25-07-2015 14:05:00 18.4 C 70 % 12.83 C
3860 25-07-2015 14:10:00 18.7 C 68 % 12.68 C
3861 25-07-2015 14:15:00 18.8 C 68 % 12.77 C
3862 25-07-2015 14:20:00 19.1 C 68 % 13.06 C
3863 25-07-2015 14:25:00 19.2 C 67 % 12.93 C
3864 25-07-2015 14:30:00 18.9 C 65 % 12.18 C
3865 25-07-2015 14:35:00 18.7 C 66 % 12.22 C
3866 25-07-2015 14:40:00 18.8 C 67 % 12.55 C
3867 25-07-2015 14:45:00 18.9 C 65 % 12.18 C
3868 25-07-2015 14:50:00 19.1 C 65 % 12.37 C
3869 25-07-2015 14:55:00 19.2 C 63 % 11.99 C
3870 25-07-2015 15:00:00 19 C 64 % 12.04 C
3871 25-07-2015 15:05:00 18.8 C 65 % 12.09 C
3872 25-07-2015 15:10:00 18.7 C 66 % 12.22 C
3873 25-07-2015 15:15:00 18.7 C 66 % 12.22 C
3874 25-07-2015 15:20:00 18.9 C 65 % 12.18 C
3875 25-07-2015 15:25:00 19.2 C 63 % 11.99 C
Sensor: Nr:Datum:Temp:Feuchte:Taupunkt:
Aussen-T/F 3876 25-07-2015 15:30:00 19.1 C 62 % 11.65 C
3877 25-07-2015 15:35:00 18.8 C 63 % 11.61 C
3878 25-07-2015 15:40:00